<?xml version="1.0" encoding="UTF-8"?>
<gpx version="1.1" creator="https://www.youtrack.es" xsi:schemaLocation="http://www.topografix.com/GPX/1/1 http://www.topografix.com/GPX/1/1/gpx.xsd http://www.garmin.com/xmlschemas/GpxExtensions/v3 http://www.garmin.com/xmlschemas/GpxExtensionsv3.xsd http://www.garmin.com/xmlschemas/TrackPointExtension/v1 http://www.garmin.com/xmlschemas/TrackPointExtensionv1.xsd" xmlns:gpxtpx="http://www.garmin.com/xmlschemas/TrackPointExtension/v1" xmlns:gpxx="http://www.garmin.com/xmlschemas/GpxExtensions/v3" xmlns:xsi="http://www.w3.org/2001/XMLSchema-instance">
  <metadata>
    <author>
      <name>Gonzalo </name>
      <email id="goltziano" domain="gmail.com"/>
    </author>
    <link href="https://www.youtrack.es">
      <text>YouTrack.es</text>
    </link>
    <time>2026-05-07T22:52:27Z</time>
  </metadata>
  <wpt lat="28.3027" lon="-16.5219">
    <name>Avituallamiento sólido y líquido</name>
  </wpt>
  <wpt lat="28.304" lon="-16.5664">
    <name>Avituallamiento líquido</name>
  </wpt>
  <wpt lat="28.3778" lon="-16.601">
    <name>Avituallamiento líquido</name>
  </wpt>
  <trk>
    <src>https://www.youtrack.es</src>
    <link href="https://www.youtrack.es/ruta/21214-reto-playa-a-playa">
      <text>YouTrack.es</text>
    </link>
    <trkseg>
      <trkpt lat="28.287366" lon="-16.381556">
        <ele>7.878271</ele>
        <time>2021-03-13T00:02:18.656Z</time>
      </trkpt>
      <trkpt lat="28.288008" lon="-16.382618">
        <ele>9.276433</ele>
        <time>2021-03-13T00:03:11.178Z</time>
      </trkpt>
      <trkpt lat="28.288142" lon="-16.382861">
        <ele>10.778476</ele>
        <time>2021-03-13T00:03:23.700Z</time>
      </trkpt>
      <trkpt lat="28.288745" lon="-16.383884">
        <ele>17.227610</ele>
        <time>2021-03-13T00:04:21.454Z</time>
      </trkpt>
      <trkpt lat="28.288918" lon="-16.384243">
        <ele>19.863736</ele>
        <time>2021-03-13T00:04:42.476Z</time>
      </trkpt>
      <trkpt lat="28.290002" lon="-16.386155">
        <ele>39.567851</ele>
        <time>2021-03-13T00:06:53.127Z</time>
      </trkpt>
      <trkpt lat="28.289963" lon="-16.386194">
        <ele>40.129640</ele>
        <time>2021-03-13T00:07:00.013Z</time>
      </trkpt>
      <trkpt lat="28.289804" lon="-16.38634"/>
      <trkpt lat="28.289681" lon="-16.38634"/>
      <trkpt lat="28.289501" lon="-16.386211">
        <ele>45.970971</ele>
        <time>2021-03-13T00:07:42.154Z</time>
      </trkpt>
      <trkpt lat="28.289539" lon="-16.386544">
        <ele>49.167536</ele>
        <time>2021-03-13T00:08:06.925Z</time>
      </trkpt>
      <trkpt lat="28.289473" lon="-16.386823">
        <ele>51.917702</ele>
        <time>2021-03-13T00:08:28.786Z</time>
      </trkpt>
      <trkpt lat="28.289294" lon="-16.387102">
        <ele>55.203906</ele>
        <time>2021-03-13T00:08:51.602Z</time>
      </trkpt>
      <trkpt lat="28.288815" lon="-16.38618"/>
      <trkpt lat="28.288582" lon="-16.386103">
        <ele>69.478412</ele>
        <time>2021-03-13T00:10:23.155Z</time>
      </trkpt>
      <trkpt lat="28.288444" lon="-16.386141">
        <ele>71.190760</ele>
        <time>2021-03-13T00:10:36.545Z</time>
      </trkpt>
      <trkpt lat="28.288428" lon="-16.386205">
        <ele>71.897216</ele>
        <time>2021-03-13T00:10:41.406Z</time>
      </trkpt>
      <trkpt lat="28.288589" lon="-16.386597">
        <ele>76.490259</ele>
        <time>2021-03-13T00:11:16.464Z</time>
      </trkpt>
      <trkpt lat="28.288684" lon="-16.387263">
        <ele>85.965569</ele>
        <time>2021-03-13T00:12:16.800Z</time>
      </trkpt>
      <trkpt lat="28.288656" lon="-16.387532">
        <ele>89.849755</ele>
        <time>2021-03-13T00:12:37.451Z</time>
      </trkpt>
      <trkpt lat="28.288601" lon="-16.387578">
        <ele>90.962080</ele>
        <time>2021-03-13T00:12:48.633Z</time>
      </trkpt>
      <trkpt lat="28.288352" lon="-16.388076">
        <ele>99.174062</ele>
        <time>2021-03-13T00:13:38.216Z</time>
      </trkpt>
      <trkpt lat="28.288399" lon="-16.388542">
        <ele>105.899987</ele>
        <time>2021-03-13T00:14:17.506Z</time>
      </trkpt>
      <trkpt lat="28.288418" lon="-16.388935">
        <ele>110.293240</ele>
        <time>2021-03-13T00:14:55.067Z</time>
      </trkpt>
      <trkpt lat="28.288418" lon="-16.388935">
        <ele>110.293240</ele>
        <time>2021-03-13T00:14:55.067Z</time>
      </trkpt>
      <trkpt lat="28.288427" lon="-16.389069">
        <ele>111.756397</ele>
        <time>2021-03-13T00:15:00.190Z</time>
      </trkpt>
      <trkpt lat="28.288415" lon="-16.389121">
        <ele>112.341663</ele>
        <time>2021-03-13T00:15:02.217Z</time>
      </trkpt>
      <trkpt lat="28.288399" lon="-16.38918"/>
      <trkpt lat="28.288388" lon="-16.38923"/>
      <trkpt lat="28.28836" lon="-16.389277"/>
      <trkpt lat="28.28835" lon="-16.38933"/>
      <trkpt lat="28.288327" lon="-16.389378">
        <ele>115.377809</ele>
        <time>2021-03-13T00:15:12.393Z</time>
      </trkpt>
      <trkpt lat="28.288309" lon="-16.389426">
        <ele>115.945822</ele>
        <time>2021-03-13T00:15:14.293Z</time>
      </trkpt>
      <trkpt lat="28.288299" lon="-16.389483">
        <ele>116.578605</ele>
        <time>2021-03-13T00:15:16.420Z</time>
      </trkpt>
      <trkpt lat="28.288262" lon="-16.389525">
        <ele>117.225426</ele>
        <time>2021-03-13T00:15:18.585Z</time>
      </trkpt>
      <trkpt lat="28.288211" lon="-16.389538">
        <ele>117.871682</ele>
        <time>2021-03-13T00:15:20.742Z</time>
      </trkpt>
      <trkpt lat="28.288156" lon="-16.389546">
        <ele>118.557261</ele>
        <time>2021-03-13T00:15:23.031Z</time>
      </trkpt>
      <trkpt lat="28.28811" lon="-16.389562"/>
      <trkpt lat="28.288065" lon="-16.389588">
        <ele>119.776341</ele>
        <time>2021-03-13T00:15:27.161Z</time>
      </trkpt>
      <trkpt lat="28.288019" lon="-16.389598">
        <ele>120.355414</ele>
        <time>2021-03-13T00:15:29.106Z</time>
      </trkpt>
      <trkpt lat="28.287987" lon="-16.389641">
        <ele>120.968370</ele>
        <time>2021-03-13T00:15:31.182Z</time>
      </trkpt>
      <trkpt lat="28.287941" lon="-16.389667">
        <ele>121.603669</ele>
        <time>2021-03-13T00:15:33.318Z</time>
      </trkpt>
      <trkpt lat="28.287894" lon="-16.38967"/>
      <trkpt lat="28.287855" lon="-16.389705">
        <ele>122.800289</ele>
        <time>2021-03-13T00:15:37.312Z</time>
      </trkpt>
      <trkpt lat="28.287809" lon="-16.389704">
        <ele>123.369140</ele>
        <time>2021-03-13T00:15:39.208Z</time>
      </trkpt>
      <trkpt lat="28.287758" lon="-16.389685">
        <ele>124.032771</ele>
        <time>2021-03-13T00:15:41.406Z</time>
      </trkpt>
      <trkpt lat="28.287719" lon="-16.389653">
        <ele>124.627664</ele>
        <time>2021-03-13T00:15:43.402Z</time>
      </trkpt>
      <trkpt lat="28.287673" lon="-16.389675">
        <ele>125.244791</ele>
        <time>2021-03-13T00:15:45.480Z</time>
      </trkpt>
      <trkpt lat="28.287619" lon="-16.38969"/>
      <trkpt lat="28.287565" lon="-16.389678">
        <ele>126.612455</ele>
        <time>2021-03-13T00:15:50.059Z</time>
      </trkpt>
      <trkpt lat="28.287524" lon="-16.389704">
        <ele>127.193064</ele>
        <time>2021-03-13T00:15:51.994Z</time>
      </trkpt>
      <trkpt lat="28.287481" lon="-16.389687">
        <ele>127.756015</ele>
        <time>2021-03-13T00:15:53.869Z</time>
      </trkpt>
      <trkpt lat="28.287438" lon="-16.389669">
        <ele>128.322639</ele>
        <time>2021-03-13T00:15:55.745Z</time>
      </trkpt>
      <trkpt lat="28.287415" lon="-16.389619">
        <ele>128.819519</ele>
        <time>2021-03-13T00:15:57.820Z</time>
      </trkpt>
      <trkpt lat="28.287372" lon="-16.3896"/>
      <trkpt lat="28.287319" lon="-16.3896"/>
      <trkpt lat="28.287273" lon="-16.389576">
        <ele>130.049785</ele>
        <time>2021-03-13T00:16:04.021Z</time>
      </trkpt>
      <trkpt lat="28.287228" lon="-16.389549">
        <ele>130.467875</ele>
        <time>2021-03-13T00:16:06.116Z</time>
      </trkpt>
      <trkpt lat="28.287178" lon="-16.389546">
        <ele>130.879186</ele>
        <time>2021-03-13T00:16:08.173Z</time>
      </trkpt>
      <trkpt lat="28.287135" lon="-16.389526">
        <ele>131.260900</ele>
        <time>2021-03-13T00:16:10.083Z</time>
      </trkpt>
      <trkpt lat="28.287097" lon="-16.389491">
        <ele>131.662828</ele>
        <time>2021-03-13T00:16:12.133Z</time>
      </trkpt>
      <trkpt lat="28.287059" lon="-16.389453">
        <ele>132.078767</ele>
        <time>2021-03-13T00:16:14.229Z</time>
      </trkpt>
      <trkpt lat="28.287012" lon="-16.389439">
        <ele>132.477922</ele>
        <time>2021-03-13T00:16:16.244Z</time>
      </trkpt>
      <trkpt lat="28.286966" lon="-16.389421">
        <ele>132.877605</ele>
        <time>2021-03-13T00:16:18.251Z</time>
      </trkpt>
      <trkpt lat="28.286921" lon="-16.389398">
        <ele>133.282985</ele>
        <time>2021-03-13T00:16:20.279Z</time>
      </trkpt>
      <trkpt lat="28.286894" lon="-16.389351">
        <ele>133.688925</ele>
        <time>2021-03-13T00:16:22.315Z</time>
      </trkpt>
      <trkpt lat="28.286849" lon="-16.389363">
        <ele>134.068644</ele>
        <time>2021-03-13T00:16:24.213Z</time>
      </trkpt>
      <trkpt lat="28.286798" lon="-16.389367">
        <ele>134.488595</ele>
        <time>2021-03-13T00:16:26.310Z</time>
      </trkpt>
      <trkpt lat="28.286799" lon="-16.389367">
        <ele>134.496810</ele>
        <time>2021-03-13T00:16:26.351Z</time>
      </trkpt>
      <trkpt lat="28.286799" lon="-16.389367">
        <ele>134.496810</ele>
        <time>2021-03-13T00:16:26.351Z</time>
      </trkpt>
      <trkpt lat="28.286767" lon="-16.389522">
        <ele>135.648453</ele>
        <time>2021-03-13T00:16:40.322Z</time>
      </trkpt>
      <trkpt lat="28.286332" lon="-16.389594">
        <ele>139.259632</ele>
        <time>2021-03-13T00:17:10.367Z</time>
      </trkpt>
      <trkpt lat="28.285873" lon="-16.389328">
        <ele>143.613002</ele>
        <time>2021-03-13T00:17:42.307Z</time>
      </trkpt>
      <trkpt lat="28.285695" lon="-16.389357">
        <ele>146.454947</ele>
        <time>2021-03-13T00:18:01.145Z</time>
      </trkpt>
      <trkpt lat="28.285571" lon="-16.389518">
        <ele>149.431690</ele>
        <time>2021-03-13T00:18:11.772Z</time>
      </trkpt>
      <trkpt lat="28.285533" lon="-16.389693">
        <ele>151.940134</ele>
        <time>2021-03-13T00:18:29.554Z</time>
      </trkpt>
      <trkpt lat="28.285607" lon="-16.390038">
        <ele>156.881911</ele>
        <time>2021-03-13T00:18:57.073Z</time>
      </trkpt>
      <trkpt lat="28.285658" lon="-16.390131">
        <ele>158.406654</ele>
        <time>2021-03-13T00:19:09.543Z</time>
      </trkpt>
      <trkpt lat="28.285806" lon="-16.390275">
        <ele>161.486791</ele>
        <time>2021-03-13T00:19:26.865Z</time>
      </trkpt>
      <trkpt lat="28.286215" lon="-16.391248">
        <ele>179.544060</ele>
        <time>2021-03-13T00:21:17.520Z</time>
      </trkpt>
      <trkpt lat="28.286235" lon="-16.391449">
        <ele>184.186256</ele>
        <time>2021-03-13T00:21:39.498Z</time>
      </trkpt>
      <trkpt lat="28.286914" lon="-16.393057">
        <ele>225.964890</ele>
        <time>2021-03-13T00:25:35.457Z</time>
      </trkpt>
      <trkpt lat="28.286961" lon="-16.393384">
        <ele>234.573984</ele>
        <time>2021-03-13T00:26:22.897Z</time>
      </trkpt>
      <trkpt lat="28.287136" lon="-16.393621">
        <ele>242.610585</ele>
        <time>2021-03-13T00:27:06.672Z</time>
      </trkpt>
      <trkpt lat="28.287175" lon="-16.393839">
        <ele>248.390726</ele>
        <time>2021-03-13T00:27:38.241Z</time>
      </trkpt>
      <trkpt lat="28.287252" lon="-16.393873">
        <ele>250.828495</ele>
        <time>2021-03-13T00:27:51.229Z</time>
      </trkpt>
      <trkpt lat="28.287471" lon="-16.394434">
        <ele>266.773430</ele>
        <time>2021-03-13T00:29:16.553Z</time>
      </trkpt>
      <trkpt lat="28.287639" lon="-16.394618">
        <ele>273.474374</ele>
        <time>2021-03-13T00:29:52.551Z</time>
      </trkpt>
      <trkpt lat="28.287708" lon="-16.394819">
        <ele>278.537487</ele>
        <time>2021-03-13T00:30:21.896Z</time>
      </trkpt>
      <trkpt lat="28.287984" lon="-16.395029">
        <ele>287.391925</ele>
        <time>2021-03-13T00:31:11.604Z</time>
      </trkpt>
      <trkpt lat="28.287985" lon="-16.395327">
        <ele>294.385807</ele>
        <time>2021-03-13T00:31:50.188Z</time>
      </trkpt>
      <trkpt lat="28.288104" lon="-16.395836">
        <ele>306.745500</ele>
        <time>2021-03-13T00:32:57.019Z</time>
      </trkpt>
      <trkpt lat="28.288276" lon="-16.396219">
        <ele>316.835658</ele>
        <time>2021-03-13T00:33:49.457Z</time>
      </trkpt>
      <trkpt lat="28.288342" lon="-16.396295">
        <ele>319.340783</ele>
        <time>2021-03-13T00:34:01.914Z</time>
      </trkpt>
      <trkpt lat="28.288541" lon="-16.396295">
        <ele>323.506579</ele>
        <time>2021-03-13T00:34:27.872Z</time>
      </trkpt>
      <trkpt lat="28.288663" lon="-16.39637"/>
      <trkpt lat="28.288887" lon="-16.396779">
        <ele>335.073055</ele>
        <time>2021-03-13T00:35:38.090Z</time>
      </trkpt>
      <trkpt lat="28.288916" lon="-16.397101">
        <ele>340.930128</ele>
        <time>2021-03-13T00:36:12.365Z</time>
      </trkpt>
      <trkpt lat="28.289048" lon="-16.39738"/>
      <trkpt lat="28.289709" lon="-16.398292">
        <ele>365.035547</ele>
        <time>2021-03-13T00:38:29.628Z</time>
      </trkpt>
      <trkpt lat="28.289939" lon="-16.398537">
        <ele>369.810503</ele>
        <time>2021-03-13T00:38:59.789Z</time>
      </trkpt>
      <trkpt lat="28.29004" lon="-16.398603"/>
      <trkpt lat="28.290163" lon="-16.398925">
        <ele>376.254884</ele>
        <time>2021-03-13T00:39:38.301Z</time>
      </trkpt>
      <trkpt lat="28.290191" lon="-16.39914"/>
      <trkpt lat="28.290257" lon="-16.399247">
        <ele>380.894629</ele>
        <time>2021-03-13T00:40:05.936Z</time>
      </trkpt>
      <trkpt lat="28.290522" lon="-16.3993"/>
      <trkpt lat="28.290645" lon="-16.399363">
        <ele>386.666131</ele>
        <time>2021-03-13T00:40:41.658Z</time>
      </trkpt>
      <trkpt lat="28.290484" lon="-16.399537">
        <ele>389.660789</ele>
        <time>2021-03-13T00:41:02.376Z</time>
      </trkpt>
      <trkpt lat="28.290541" lon="-16.399848">
        <ele>393.429791</ele>
        <time>2021-03-13T00:41:26.656Z</time>
      </trkpt>
      <trkpt lat="28.290541" lon="-16.400191">
        <ele>397.499382</ele>
        <time>2021-03-13T00:41:52.245Z</time>
      </trkpt>
      <trkpt lat="28.290616" lon="-16.400545">
        <ele>401.819344</ele>
        <time>2021-03-13T00:42:20.212Z</time>
      </trkpt>
      <trkpt lat="28.290796" lon="-16.400781">
        <ele>405.523750</ele>
        <time>2021-03-13T00:42:44.932Z</time>
      </trkpt>
      <trkpt lat="28.291051" lon="-16.400921">
        <ele>409.271589</ele>
        <time>2021-03-13T00:43:11.396Z</time>
      </trkpt>
      <trkpt lat="28.291098" lon="-16.401135">
        <ele>411.743146</ele>
        <time>2021-03-13T00:43:30.942Z</time>
      </trkpt>
      <trkpt lat="28.291306" lon="-16.401479">
        <ele>416.419344</ele>
        <time>2021-03-13T00:44:04.763Z</time>
      </trkpt>
      <trkpt lat="28.291334" lon="-16.401693">
        <ele>418.843757</ele>
        <time>2021-03-13T00:44:20.614Z</time>
      </trkpt>
      <trkpt lat="28.291212" lon="-16.402391">
        <ele>426.818151</ele>
        <time>2021-03-13T00:45:15.838Z</time>
      </trkpt>
      <trkpt lat="28.291334" lon="-16.402444">
        <ele>428.480461</ele>
        <time>2021-03-13T00:45:25.028Z</time>
      </trkpt>
      <trkpt lat="28.291407" lon="-16.402555">
        <ele>430.032962</ele>
        <time>2021-03-13T00:45:36.662Z</time>
      </trkpt>
      <trkpt lat="28.29098" lon="-16.402543"/>
      <trkpt lat="28.290942" lon="-16.40253"/>
      <trkpt lat="28.290735" lon="-16.402458">
        <ele>435.809155</ele>
        <time>2021-03-13T00:46:16.940Z</time>
      </trkpt>
      <trkpt lat="28.290138" lon="-16.402037">
        <ele>441.375699</ele>
        <time>2021-03-13T00:46:56.067Z</time>
      </trkpt>
      <trkpt lat="28.289968" lon="-16.401911">
        <ele>442.983731</ele>
        <time>2021-03-13T00:47:07.535Z</time>
      </trkpt>
      <trkpt lat="28.289808" lon="-16.401828">
        <ele>444.377096</ele>
        <time>2021-03-13T00:47:16.153Z</time>
      </trkpt>
      <trkpt lat="28.289752" lon="-16.40187"/>
      <trkpt lat="28.289514" lon="-16.402014">
        <ele>447.661318</ele>
        <time>2021-03-13T00:47:34.439Z</time>
      </trkpt>
      <trkpt lat="28.289495" lon="-16.402144">
        <ele>448.895044</ele>
        <time>2021-03-13T00:47:41.581Z</time>
      </trkpt>
      <trkpt lat="28.289742" lon="-16.402945">
        <ele>456.840619</ele>
        <time>2021-03-13T00:48:30.216Z</time>
      </trkpt>
      <trkpt lat="28.289838" lon="-16.403176">
        <ele>459.232020</ele>
        <time>2021-03-13T00:48:46.008Z</time>
      </trkpt>
      <trkpt lat="28.289991" lon="-16.403563">
        <ele>463.203566</ele>
        <time>2021-03-13T00:49:14.565Z</time>
      </trkpt>
      <trkpt lat="28.290279" lon="-16.404168">
        <ele>472.994332</ele>
        <time>2021-03-13T00:50:01.734Z</time>
      </trkpt>
      <trkpt lat="28.290473" lon="-16.404381">
        <ele>477.686049</ele>
        <time>2021-03-13T00:50:26.453Z</time>
      </trkpt>
      <trkpt lat="28.290649" lon="-16.404721">
        <ele>483.724349</ele>
        <time>2021-03-13T00:51:00.366Z</time>
      </trkpt>
      <trkpt lat="28.29085" lon="-16.405361"/>
      <trkpt lat="28.291023" lon="-16.405694">
        <ele>500.341443</ele>
        <time>2021-03-13T00:52:24.232Z</time>
      </trkpt>
      <trkpt lat="28.291026" lon="-16.405727">
        <ele>500.883305</ele>
        <time>2021-03-13T00:52:30.057Z</time>
      </trkpt>
      <trkpt lat="28.291086" lon="-16.406306">
        <ele>510.405520</ele>
        <time>2021-03-13T00:53:15.047Z</time>
      </trkpt>
      <trkpt lat="28.291104" lon="-16.40687"/>
      <trkpt lat="28.291245" lon="-16.407383">
        <ele>528.401164</ele>
        <time>2021-03-13T00:54:47.424Z</time>
      </trkpt>
      <trkpt lat="28.291393" lon="-16.407635">
        <ele>533.205255</ele>
        <time>2021-03-13T00:55:11.281Z</time>
      </trkpt>
      <trkpt lat="28.291565" lon="-16.408075">
        <ele>540.808812</ele>
        <time>2021-03-13T00:55:48.177Z</time>
      </trkpt>
      <trkpt lat="28.291671" lon="-16.40826"/>
      <trkpt lat="28.291868" lon="-16.408608">
        <ele>550.829192</ele>
        <time>2021-03-13T00:56:37.020Z</time>
      </trkpt>
      <trkpt lat="28.291907" lon="-16.408976">
        <ele>556.683443</ele>
        <time>2021-03-13T00:57:05.597Z</time>
      </trkpt>
      <trkpt lat="28.292235" lon="-16.409885">
        <ele>572.302149</ele>
        <time>2021-03-13T00:58:23.656Z</time>
      </trkpt>
      <trkpt lat="28.292535" lon="-16.410325">
        <ele>581.174209</ele>
        <time>2021-03-13T00:59:08.302Z</time>
      </trkpt>
      <trkpt lat="28.292746" lon="-16.411049">
        <ele>593.332717</ele>
        <time>2021-03-13T01:00:08.912Z</time>
      </trkpt>
      <trkpt lat="28.292932" lon="-16.411846">
        <ele>605.548982</ele>
        <time>2021-03-13T01:01:12.536Z</time>
      </trkpt>
      <trkpt lat="28.292959" lon="-16.412567">
        <ele>616.209146</ele>
        <time>2021-03-13T01:02:07.347Z</time>
      </trkpt>
      <trkpt lat="28.292886" lon="-16.413673">
        <ele>631.528349</ele>
        <time>2021-03-13T01:03:26.145Z</time>
      </trkpt>
      <trkpt lat="28.292334" lon="-16.414275">
        <ele>642.775985</ele>
        <time>2021-03-13T01:04:25.783Z</time>
      </trkpt>
      <trkpt lat="28.292201" lon="-16.414552">
        <ele>646.859005</ele>
        <time>2021-03-13T01:04:47.507Z</time>
      </trkpt>
      <trkpt lat="28.291767" lon="-16.414993">
        <ele>655.298439</ele>
        <time>2021-03-13T01:05:32.913Z</time>
      </trkpt>
      <trkpt lat="28.291573" lon="-16.415934">
        <ele>667.505286</ele>
        <time>2021-03-13T01:06:39.341Z</time>
      </trkpt>
      <trkpt lat="28.291559" lon="-16.416715">
        <ele>677.388052</ele>
        <time>2021-03-13T01:07:32.937Z</time>
      </trkpt>
      <trkpt lat="28.291328" lon="-16.418003">
        <ele>694.227574</ele>
        <time>2021-03-13T01:09:03.033Z</time>
      </trkpt>
      <trkpt lat="28.291492" lon="-16.418964">
        <ele>708.006827</ele>
        <time>2021-03-13T01:10:10.567Z</time>
      </trkpt>
      <trkpt lat="28.291934" lon="-16.420186">
        <ele>729.738869</ele>
        <time>2021-03-13T01:11:54.719Z</time>
      </trkpt>
      <trkpt lat="28.292067" lon="-16.420558">
        <ele>736.484895</ele>
        <time>2021-03-13T01:12:32.463Z</time>
      </trkpt>
      <trkpt lat="28.292053" lon="-16.420704">
        <ele>739.923438</ele>
        <time>2021-03-13T01:12:50.385Z</time>
      </trkpt>
      <trkpt lat="28.291877" lon="-16.421184">
        <ele>752.097225</ele>
        <time>2021-03-13T01:13:43.085Z</time>
      </trkpt>
      <trkpt lat="28.291798" lon="-16.421655">
        <ele>763.323165</ele>
        <time>2021-03-13T01:14:34.310Z</time>
      </trkpt>
      <trkpt lat="28.291767" lon="-16.421875">
        <ele>768.539628</ele>
        <time>2021-03-13T01:15:02.977Z</time>
      </trkpt>
      <trkpt lat="28.291787" lon="-16.422352">
        <ele>779.720430</ele>
        <time>2021-03-13T01:15:56.846Z</time>
      </trkpt>
      <trkpt lat="28.291943" lon="-16.423872">
        <ele>816.475189</ele>
        <time>2021-03-13T01:18:48.345Z</time>
      </trkpt>
      <trkpt lat="28.291873" lon="-16.424694">
        <ele>835.868266</ele>
        <time>2021-03-13T01:20:17.405Z</time>
      </trkpt>
      <trkpt lat="28.291737" lon="-16.425237">
        <ele>847.394935</ele>
        <time>2021-03-13T01:21:13.953Z</time>
      </trkpt>
      <trkpt lat="28.291598" lon="-16.425755">
        <ele>858.451606</ele>
        <time>2021-03-13T01:22:07.290Z</time>
      </trkpt>
      <trkpt lat="28.291674" lon="-16.426"/>
      <trkpt lat="28.291954" lon="-16.426976">
        <ele>883.572471</ele>
        <time>2021-03-13T01:24:01.948Z</time>
      </trkpt>
      <trkpt lat="28.292043" lon="-16.427253">
        <ele>888.902304</ele>
        <time>2021-03-13T01:24:37.810Z</time>
      </trkpt>
      <trkpt lat="28.292179" lon="-16.427678">
        <ele>897.075958</ele>
        <time>2021-03-13T01:25:25.292Z</time>
      </trkpt>
      <trkpt lat="28.292288" lon="-16.42866"/>
      <trkpt lat="28.292344" lon="-16.428875">
        <ele>917.672520</ele>
        <time>2021-03-13T01:27:24.772Z</time>
      </trkpt>
      <trkpt lat="28.292766" lon="-16.429574">
        <ele>930.179106</ele>
        <time>2021-03-13T01:28:40.941Z</time>
      </trkpt>
      <trkpt lat="28.293186" lon="-16.430058">
        <ele>940.206803</ele>
        <time>2021-03-13T01:29:38.409Z</time>
      </trkpt>
      <trkpt lat="28.293327" lon="-16.430034">
        <ele>942.521404</ele>
        <time>2021-03-13T01:29:52.187Z</time>
      </trkpt>
      <trkpt lat="28.293519" lon="-16.429865">
        <ele>946.196496</ele>
        <time>2021-03-13T01:30:11.752Z</time>
      </trkpt>
      <trkpt lat="28.293713" lon="-16.429509">
        <ele>951.773732</ele>
        <time>2021-03-13T01:30:42.525Z</time>
      </trkpt>
      <trkpt lat="28.293929" lon="-16.429336">
        <ele>955.772520</ele>
        <time>2021-03-13T01:31:05.834Z</time>
      </trkpt>
      <trkpt lat="28.294191" lon="-16.429331">
        <ele>959.736889</ele>
        <time>2021-03-13T01:31:30.055Z</time>
      </trkpt>
      <trkpt lat="28.294253" lon="-16.42939"/>
      <trkpt lat="28.293922" lon="-16.429968">
        <ele>970.653594</ele>
        <time>2021-03-13T01:32:40.943Z</time>
      </trkpt>
      <trkpt lat="28.29395" lon="-16.429997"/>
      <trkpt lat="28.294155" lon="-16.429935">
        <ele>976.172584</ele>
        <time>2021-03-13T01:33:09.127Z</time>
      </trkpt>
      <trkpt lat="28.294243" lon="-16.430012">
        <ele>978.624602</ele>
        <time>2021-03-13T01:33:22.215Z</time>
      </trkpt>
      <trkpt lat="28.29412" lon="-16.430291"/>
      <trkpt lat="28.293938" lon="-16.430961">
        <ele>998.316008</ele>
        <time>2021-03-13T01:35:16.345Z</time>
      </trkpt>
      <trkpt lat="28.293942" lon="-16.431283">
        <ele>1004.574825</ele>
        <time>2021-03-13T01:35:54.056Z</time>
      </trkpt>
      <trkpt lat="28.29384" lon="-16.43175"/>
      <trkpt lat="28.293463" lon="-16.431882">
        <ele>1022.766599</ele>
        <time>2021-03-13T01:37:46.849Z</time>
      </trkpt>
      <trkpt lat="28.293118" lon="-16.432003">
        <ele>1030.812499</ele>
        <time>2021-03-13T01:38:34.539Z</time>
      </trkpt>
      <trkpt lat="28.292756" lon="-16.43193"/>
      <trkpt lat="28.292751" lon="-16.431979">
        <ele>1039.973008</ele>
        <time>2021-03-13T01:39:24.938Z</time>
      </trkpt>
      <trkpt lat="28.292867" lon="-16.432178">
        <ele>1044.655654</ele>
        <time>2021-03-13T01:39:50.729Z</time>
      </trkpt>
      <trkpt lat="28.293251" lon="-16.433277">
        <ele>1061.838549</ele>
        <time>2021-03-13T01:41:38.038Z</time>
      </trkpt>
      <trkpt lat="28.294121" lon="-16.435215">
        <ele>1087.765780</ele>
        <time>2021-03-13T01:44:23.539Z</time>
      </trkpt>
      <trkpt lat="28.294382" lon="-16.436267">
        <ele>1099.208700</ele>
        <time>2021-03-13T01:45:42.046Z</time>
      </trkpt>
      <trkpt lat="28.294867" lon="-16.43733"/>
      <trkpt lat="28.295173" lon="-16.43749"/>
      <trkpt lat="28.295404" lon="-16.437419">
        <ele>1118.715915</ele>
        <time>2021-03-13T01:47:59.528Z</time>
      </trkpt>
      <trkpt lat="28.295669" lon="-16.437437">
        <ele>1123.076308</ele>
        <time>2021-03-13T01:48:22.615Z</time>
      </trkpt>
      <trkpt lat="28.295953" lon="-16.437533">
        <ele>1128.133728</ele>
        <time>2021-03-13T01:48:48.880Z</time>
      </trkpt>
      <trkpt lat="28.296095" lon="-16.437683">
        <ele>1131.443669</ele>
        <time>2021-03-13T01:49:09.612Z</time>
      </trkpt>
      <trkpt lat="28.296081" lon="-16.438108">
        <ele>1137.835211</ele>
        <time>2021-03-13T01:49:48.694Z</time>
      </trkpt>
      <trkpt lat="28.296021" lon="-16.438264">
        <ele>1140.393547</ele>
        <time>2021-03-13T01:50:02.970Z</time>
      </trkpt>
      <trkpt lat="28.296079" lon="-16.43909"/>
      <trkpt lat="28.296062" lon="-16.439469">
        <ele>1158.869631</ele>
        <time>2021-03-13T01:52:08.027Z</time>
      </trkpt>
      <trkpt lat="28.295889" lon="-16.439661">
        <ele>1163.149410</ele>
        <time>2021-03-13T01:52:33.489Z</time>
      </trkpt>
      <trkpt lat="28.295749" lon="-16.43974"/>
      <trkpt lat="28.294897" lon="-16.43995"/>
      <trkpt lat="28.294309" lon="-16.440451">
        <ele>1190.525539</ele>
        <time>2021-03-13T01:55:23.098Z</time>
      </trkpt>
      <trkpt lat="28.294065" lon="-16.440583">
        <ele>1193.869495</ele>
        <time>2021-03-13T01:55:44.531Z</time>
      </trkpt>
      <trkpt lat="28.293886" lon="-16.441055">
        <ele>1199.468354</ele>
        <time>2021-03-13T01:56:20.878Z</time>
      </trkpt>
      <trkpt lat="28.293621" lon="-16.441141">
        <ele>1202.878361</ele>
        <time>2021-03-13T01:56:42.851Z</time>
      </trkpt>
      <trkpt lat="28.293312" lon="-16.44153"/>
      <trkpt lat="28.293225" lon="-16.44202"/>
      <trkpt lat="28.29311" lon="-16.442057"/>
      <trkpt lat="28.292684" lon="-16.441954">
        <ele>1217.585680</ele>
        <time>2021-03-13T01:58:35.867Z</time>
      </trkpt>
      <trkpt lat="28.292448" lon="-16.441983">
        <ele>1219.950384</ele>
        <time>2021-03-13T01:58:53.168Z</time>
      </trkpt>
      <trkpt lat="28.292292" lon="-16.442158">
        <ele>1222.131993</ele>
        <time>2021-03-13T01:59:08.976Z</time>
      </trkpt>
      <trkpt lat="28.292322" lon="-16.442621">
        <ele>1226.169706</ele>
        <time>2021-03-13T01:59:40.136Z</time>
      </trkpt>
      <trkpt lat="28.291732" lon="-16.44275"/>
      <trkpt lat="28.291571" lon="-16.443029">
        <ele>1235.005447</ele>
        <time>2021-03-13T02:00:48.082Z</time>
      </trkpt>
      <trkpt lat="28.291513" lon="-16.443313">
        <ele>1237.541046</ele>
        <time>2021-03-13T02:01:08.593Z</time>
      </trkpt>
      <trkpt lat="28.291401" lon="-16.443359">
        <ele>1238.717410</ele>
        <time>2021-03-13T02:01:16.883Z</time>
      </trkpt>
      <trkpt lat="28.291255" lon="-16.443367">
        <ele>1240.212722</ele>
        <time>2021-03-13T02:01:29.223Z</time>
      </trkpt>
      <trkpt lat="28.290935" lon="-16.443637">
        <ele>1244.497400</ele>
        <time>2021-03-13T02:01:59.798Z</time>
      </trkpt>
      <trkpt lat="28.29085" lon="-16.443831"/>
      <trkpt lat="28.290806" lon="-16.444145">
        <ele>1249.557275</ele>
        <time>2021-03-13T02:02:36.931Z</time>
      </trkpt>
      <trkpt lat="28.290853" lon="-16.444477">
        <ele>1252.739697</ele>
        <time>2021-03-13T02:03:01.845Z</time>
      </trkpt>
      <trkpt lat="28.290627" lon="-16.444885">
        <ele>1257.301511</ele>
        <time>2021-03-13T02:03:37.095Z</time>
      </trkpt>
      <trkpt lat="28.290409" lon="-16.445443">
        <ele>1263.055955</ele>
        <time>2021-03-13T02:04:19.618Z</time>
      </trkpt>
      <trkpt lat="28.29051" lon="-16.446087"/>
      <trkpt lat="28.290457" lon="-16.446215">
        <ele>1270.543952</ele>
        <time>2021-03-13T02:05:15.915Z</time>
      </trkpt>
      <trkpt lat="28.290392" lon="-16.446705">
        <ele>1275.207872</ele>
        <time>2021-03-13T02:05:50.443Z</time>
      </trkpt>
      <trkpt lat="28.290419" lon="-16.447138">
        <ele>1279.345059</ele>
        <time>2021-03-13T02:06:19.991Z</time>
      </trkpt>
      <trkpt lat="28.290506" lon="-16.447579">
        <ele>1283.787707</ele>
        <time>2021-03-13T02:06:52.099Z</time>
      </trkpt>
      <trkpt lat="28.290566" lon="-16.447686">
        <ele>1285.034723</ele>
        <time>2021-03-13T02:07:01.423Z</time>
      </trkpt>
      <trkpt lat="28.290643" lon="-16.447623">
        <ele>1286.094194</ele>
        <time>2021-03-13T02:07:09.363Z</time>
      </trkpt>
      <trkpt lat="28.291033" lon="-16.446709">
        <ele>1296.078416</ele>
        <time>2021-03-13T02:08:23.800Z</time>
      </trkpt>
      <trkpt lat="28.291277" lon="-16.446617">
        <ele>1298.931748</ele>
        <time>2021-03-13T02:08:45.259Z</time>
      </trkpt>
      <trkpt lat="28.291874" lon="-16.446215">
        <ele>1306.502715</ele>
        <time>2021-03-13T02:09:41.409Z</time>
      </trkpt>
      <trkpt lat="28.292152" lon="-16.446103">
        <ele>1309.720396</ele>
        <time>2021-03-13T02:10:05.401Z</time>
      </trkpt>
      <trkpt lat="28.292403" lon="-16.446001">
        <ele>1312.628397</ele>
        <time>2021-03-13T02:10:27.294Z</time>
      </trkpt>
      <trkpt lat="28.292752" lon="-16.445926">
        <ele>1316.502963</ele>
        <time>2021-03-13T02:10:56.598Z</time>
      </trkpt>
      <trkpt lat="28.292667" lon="-16.44613"/>
      <trkpt lat="28.292318" lon="-16.446301">
        <ele>1322.150992</ele>
        <time>2021-03-13T02:11:40.681Z</time>
      </trkpt>
      <trkpt lat="28.292015" lon="-16.446891">
        <ele>1327.834944</ele>
        <time>2021-03-13T02:12:23.844Z</time>
      </trkpt>
      <trkpt lat="28.29194" lon="-16.447503"/>
      <trkpt lat="28.2921" lon="-16.447771"/>
      <trkpt lat="28.292639" lon="-16.447954">
        <ele>1340.645690</ele>
        <time>2021-03-13T02:14:07.102Z</time>
      </trkpt>
      <trkpt lat="28.292922" lon="-16.448737">
        <ele>1347.297229</ele>
        <time>2021-03-13T02:15:00.454Z</time>
      </trkpt>
      <trkpt lat="28.292885" lon="-16.448973">
        <ele>1349.181042</ele>
        <time>2021-03-13T02:15:15.316Z</time>
      </trkpt>
      <trkpt lat="28.292715" lon="-16.449091">
        <ele>1350.951019</ele>
        <time>2021-03-13T02:15:29.214Z</time>
      </trkpt>
      <trkpt lat="28.292715" lon="-16.44922"/>
      <trkpt lat="28.293026" lon="-16.449198">
        <ele>1354.331557</ele>
        <time>2021-03-13T02:15:59.200Z</time>
      </trkpt>
      <trkpt lat="28.293253" lon="-16.448747">
        <ele>1357.968335</ele>
        <time>2021-03-13T02:16:31.321Z</time>
      </trkpt>
      <trkpt lat="28.293177" lon="-16.448275">
        <ele>1361.327496</ele>
        <time>2021-03-13T02:17:00.065Z</time>
      </trkpt>
      <trkpt lat="28.293291" lon="-16.447868">
        <ele>1364.317499</ele>
        <time>2021-03-13T02:17:24.978Z</time>
      </trkpt>
      <trkpt lat="28.293294" lon="-16.447575">
        <ele>1366.459522</ele>
        <time>2021-03-13T02:17:41.639Z</time>
      </trkpt>
      <trkpt lat="28.293317" lon="-16.447528">
        <ele>1366.864771</ele>
        <time>2021-03-13T02:17:44.878Z</time>
      </trkpt>
      <trkpt lat="28.293369" lon="-16.447417">
        <ele>1367.812364</ele>
        <time>2021-03-13T02:17:52.026Z</time>
      </trkpt>
      <trkpt lat="28.293533" lon="-16.447337">
        <ele>1369.340074</ele>
        <time>2021-03-13T02:18:03.561Z</time>
      </trkpt>
      <trkpt lat="28.293611" lon="-16.447404">
        <ele>1370.177144</ele>
        <time>2021-03-13T02:18:10.076Z</time>
      </trkpt>
      <trkpt lat="28.293461" lon="-16.447878">
        <ele>1373.973194</ele>
        <time>2021-03-13T02:18:41.990Z</time>
      </trkpt>
      <trkpt lat="28.293536" lon="-16.448211">
        <ele>1376.563680</ele>
        <time>2021-03-13T02:19:05.413Z</time>
      </trkpt>
      <trkpt lat="28.293659" lon="-16.448093">
        <ele>1377.941804</ele>
        <time>2021-03-13T02:19:17.733Z</time>
      </trkpt>
      <trkpt lat="28.293686" lon="-16.447978">
        <ele>1378.838792</ele>
        <time>2021-03-13T02:19:25.231Z</time>
      </trkpt>
      <trkpt lat="28.293697" lon="-16.447932">
        <ele>1379.198032</ele>
        <time>2021-03-13T02:19:28.677Z</time>
      </trkpt>
      <trkpt lat="28.294065" lon="-16.447793">
        <ele>1382.852508</ele>
        <time>2021-03-13T02:19:56.835Z</time>
      </trkpt>
      <trkpt lat="28.294271" lon="-16.447586">
        <ele>1385.613795</ele>
        <time>2021-03-13T02:20:16.213Z</time>
      </trkpt>
      <trkpt lat="28.294293" lon="-16.447878">
        <ele>1388.204350</ele>
        <time>2021-03-13T02:20:38.666Z</time>
      </trkpt>
      <trkpt lat="28.294179" lon="-16.448018">
        <ele>1389.889933</ele>
        <time>2021-03-13T02:20:50.183Z</time>
      </trkpt>
      <trkpt lat="28.293971" lon="-16.448619">
        <ele>1395.598090</ele>
        <time>2021-03-13T02:21:33.120Z</time>
      </trkpt>
      <trkpt lat="28.294018" lon="-16.448726">
        <ele>1396.655069</ele>
        <time>2021-03-13T02:21:41.839Z</time>
      </trkpt>
      <trkpt lat="28.294217" lon="-16.448469">
        <ele>1399.894433</ele>
        <time>2021-03-13T02:22:09.269Z</time>
      </trkpt>
      <trkpt lat="28.294387" lon="-16.448458">
        <ele>1401.954270</ele>
        <time>2021-03-13T02:22:24.087Z</time>
      </trkpt>
      <trkpt lat="28.294405" lon="-16.448533">
        <ele>1402.782296</ele>
        <time>2021-03-13T02:22:29.807Z</time>
      </trkpt>
      <trkpt lat="28.294405" lon="-16.448533">
        <ele>1402.782296</ele>
        <time>2021-03-13T02:22:29.807Z</time>
      </trkpt>
      <trkpt lat="28.294254" lon="-16.44878"/>
      <trkpt lat="28.294179" lon="-16.449005">
        <ele>1408.547860</ele>
        <time>2021-03-13T02:23:10.552Z</time>
      </trkpt>
      <trkpt lat="28.294247" lon="-16.449174">
        <ele>1410.527055</ele>
        <time>2021-03-13T02:23:23.479Z</time>
      </trkpt>
      <trkpt lat="28.294705" lon="-16.448986">
        <ele>1416.418303</ele>
        <time>2021-03-13T02:24:03.544Z</time>
      </trkpt>
      <trkpt lat="28.294758" lon="-16.448965">
        <ele>1417.097348</ele>
        <time>2021-03-13T02:24:09.597Z</time>
      </trkpt>
      <trkpt lat="28.295312" lon="-16.449123">
        <ele>1423.484184</ele>
        <time>2021-03-13T02:24:58.764Z</time>
      </trkpt>
      <trkpt lat="28.295464" lon="-16.449316">
        <ele>1425.843059</ele>
        <time>2021-03-13T02:25:19.339Z</time>
      </trkpt>
      <trkpt lat="28.295464" lon="-16.449767">
        <ele>1429.951582</ele>
        <time>2021-03-13T02:25:53.322Z</time>
      </trkpt>
      <trkpt lat="28.295567" lon="-16.450089">
        <ele>1433.072505</ele>
        <time>2021-03-13T02:26:16.623Z</time>
      </trkpt>
      <trkpt lat="28.295662" lon="-16.450614">
        <ele>1437.955096</ele>
        <time>2021-03-13T02:26:47.363Z</time>
      </trkpt>
      <trkpt lat="28.295747" lon="-16.45099"/>
      <trkpt lat="28.295501" lon="-16.451247">
        <ele>1443.004943</ele>
        <time>2021-03-13T02:27:30.797Z</time>
      </trkpt>
      <trkpt lat="28.295312" lon="-16.451687">
        <ele>1446.006383</ele>
        <time>2021-03-13T02:27:59.512Z</time>
      </trkpt>
      <trkpt lat="28.295001" lon="-16.451923">
        <ele>1448.610712</ele>
        <time>2021-03-13T02:28:24.098Z</time>
      </trkpt>
      <trkpt lat="28.294859" lon="-16.451945">
        <ele>1449.608585</ele>
        <time>2021-03-13T02:28:32.980Z</time>
      </trkpt>
      <trkpt lat="28.294972" lon="-16.452309">
        <ele>1451.925100</ele>
        <time>2021-03-13T02:28:54.551Z</time>
      </trkpt>
      <trkpt lat="28.295341" lon="-16.45291"/>
      <trkpt lat="28.295577" lon="-16.453522">
        <ele>1459.560596</ele>
        <time>2021-03-13T02:30:14.255Z</time>
      </trkpt>
      <trkpt lat="28.295613" lon="-16.45397"/>
      <trkpt lat="28.295585" lon="-16.454141">
        <ele>1462.818434</ele>
        <time>2021-03-13T02:30:48.067Z</time>
      </trkpt>
      <trkpt lat="28.295481" lon="-16.454152">
        <ele>1463.158301</ele>
        <time>2021-03-13T02:30:54.094Z</time>
      </trkpt>
      <trkpt lat="28.294668" lon="-16.453809">
        <ele>1465.980334</ele>
        <time>2021-03-13T02:31:41.218Z</time>
      </trkpt>
      <trkpt lat="28.294007" lon="-16.453755">
        <ele>1468.136698</ele>
        <time>2021-03-13T02:32:15.750Z</time>
      </trkpt>
      <trkpt lat="28.293676" lon="-16.454002">
        <ele>1469.909371</ele>
        <time>2021-03-13T02:32:37.026Z</time>
      </trkpt>
      <trkpt lat="28.293384" lon="-16.454731">
        <ele>1473.421433</ele>
        <time>2021-03-13T02:33:17.516Z</time>
      </trkpt>
      <trkpt lat="28.292855" lon="-16.455032">
        <ele>1476.368144</ele>
        <time>2021-03-13T02:33:54.049Z</time>
      </trkpt>
      <trkpt lat="28.292297" lon="-16.455611">
        <ele>1481.611288</ele>
        <time>2021-03-13T02:34:44.962Z</time>
      </trkpt>
      <trkpt lat="28.292278" lon="-16.456008">
        <ele>1484.323645</ele>
        <time>2021-03-13T02:35:10.058Z</time>
      </trkpt>
      <trkpt lat="28.292401" lon="-16.456051">
        <ele>1485.320727</ele>
        <time>2021-03-13T02:35:19.389Z</time>
      </trkpt>
      <trkpt lat="28.292817" lon="-16.455675">
        <ele>1489.439873</ele>
        <time>2021-03-13T02:35:57.143Z</time>
      </trkpt>
      <trkpt lat="28.293837" lon="-16.455246">
        <ele>1495.517679</ele>
        <time>2021-03-13T02:37:05.216Z</time>
      </trkpt>
      <trkpt lat="28.294357" lon="-16.454635">
        <ele>1499.206796</ele>
        <time>2021-03-13T02:37:47.544Z</time>
      </trkpt>
      <trkpt lat="28.294432" lon="-16.454667">
        <ele>1499.601816</ele>
        <time>2021-03-13T02:37:53.026Z</time>
      </trkpt>
      <trkpt lat="28.294432" lon="-16.454667">
        <ele>1499.601816</ele>
        <time>2021-03-13T02:37:53.026Z</time>
      </trkpt>
      <trkpt lat="28.294432" lon="-16.454667">
        <ele>1499.601816</ele>
        <time>2021-03-13T02:37:53.026Z</time>
      </trkpt>
      <trkpt lat="28.294279" lon="-16.454797">
        <ele>1506.293188</ele>
        <time>2021-03-13T02:39:06.000Z</time>
      </trkpt>
      <trkpt lat="28.294247" lon="-16.454837">
        <ele>1506.468297</ele>
        <time>2021-03-13T02:39:07.956Z</time>
      </trkpt>
      <trkpt lat="28.294145" lon="-16.454956">
        <ele>1507.127986</ele>
        <time>2021-03-13T02:39:13.974Z</time>
      </trkpt>
      <trkpt lat="28.294034" lon="-16.45515"/>
      <trkpt lat="28.293938" lon="-16.455277">
        <ele>1509.793342</ele>
        <time>2021-03-13T02:39:28.482Z</time>
      </trkpt>
      <trkpt lat="28.293874" lon="-16.455373">
        <ele>1510.605654</ele>
        <time>2021-03-13T02:39:32.897Z</time>
      </trkpt>
      <trkpt lat="28.293804" lon="-16.455439">
        <ele>1511.303699</ele>
        <time>2021-03-13T02:39:36.701Z</time>
      </trkpt>
      <trkpt lat="28.29376" lon="-16.455486"/>
      <trkpt lat="28.293677" lon="-16.455626"/>
      <trkpt lat="28.293563" lon="-16.455718">
        <ele>1514.430128</ele>
        <time>2021-03-13T02:39:53.699Z</time>
      </trkpt>
      <trkpt lat="28.293563" lon="-16.455718">
        <ele>1514.430128</ele>
        <time>2021-03-13T02:39:53.699Z</time>
      </trkpt>
      <trkpt lat="28.293563" lon="-16.455718">
        <ele>1514.430128</ele>
        <time>2021-03-13T02:39:53.699Z</time>
      </trkpt>
      <trkpt lat="28.29327" lon="-16.456083"/>
      <trkpt lat="28.2931" lon="-16.456888"/>
      <trkpt lat="28.293176" lon="-16.457059">
        <ele>1525.934689</ele>
        <time>2021-03-13T02:41:30.995Z</time>
      </trkpt>
      <trkpt lat="28.293298" lon="-16.456984">
        <ele>1527.357580</ele>
        <time>2021-03-13T02:41:41.925Z</time>
      </trkpt>
      <trkpt lat="28.293488" lon="-16.456673">
        <ele>1530.776190</ele>
        <time>2021-03-13T02:42:07.915Z</time>
      </trkpt>
      <trkpt lat="28.293932" lon="-16.456169">
        <ele>1537.214965</ele>
        <time>2021-03-13T02:42:58.015Z</time>
      </trkpt>
      <trkpt lat="28.294564" lon="-16.455836">
        <ele>1545.274926</ele>
        <time>2021-03-13T02:43:55.791Z</time>
      </trkpt>
      <trkpt lat="28.294687" lon="-16.455836">
        <ele>1546.749059</ele>
        <time>2021-03-13T02:44:06.074Z</time>
      </trkpt>
      <trkpt lat="28.294697" lon="-16.455901">
        <ele>1547.445388</ele>
        <time>2021-03-13T02:44:11.031Z</time>
      </trkpt>
      <trkpt lat="28.2943" lon="-16.456641"/>
      <trkpt lat="28.294254" lon="-16.457041">
        <ele>1560.852246</ele>
        <time>2021-03-13T02:45:47.033Z</time>
      </trkpt>
      <trkpt lat="28.294347" lon="-16.45721"/>
      <trkpt lat="28.294432" lon="-16.457263">
        <ele>1564.166996</ele>
        <time>2021-03-13T02:46:10.381Z</time>
      </trkpt>
      <trkpt lat="28.294621" lon="-16.457252">
        <ele>1566.469491</ele>
        <time>2021-03-13T02:46:26.699Z</time>
      </trkpt>
      <trkpt lat="28.294564" lon="-16.456984">
        <ele>1569.423121</ele>
        <time>2021-03-13T02:46:47.273Z</time>
      </trkpt>
      <trkpt lat="28.294833" lon="-16.456793">
        <ele>1573.282916</ele>
        <time>2021-03-13T02:47:14.247Z</time>
      </trkpt>
      <trkpt lat="28.294957" lon="-16.456892">
        <ele>1575.127056</ele>
        <time>2021-03-13T02:47:27.373Z</time>
      </trkpt>
      <trkpt lat="28.295008" lon="-16.457038">
        <ele>1576.809720</ele>
        <time>2021-03-13T02:47:39.011Z</time>
      </trkpt>
      <trkpt lat="28.294981" lon="-16.457372">
        <ele>1580.402868</ele>
        <time>2021-03-13T02:48:04.295Z</time>
      </trkpt>
      <trkpt lat="28.295323" lon="-16.457829">
        <ele>1586.375541</ele>
        <time>2021-03-13T02:48:48.418Z</time>
      </trkpt>
      <trkpt lat="28.29549" lon="-16.457832"/>
      <trkpt lat="28.295821" lon="-16.457737">
        <ele>1591.932758</ele>
        <time>2021-03-13T02:49:29.529Z</time>
      </trkpt>
      <trkpt lat="28.296029" lon="-16.457528">
        <ele>1594.968326</ele>
        <time>2021-03-13T02:49:50.459Z</time>
      </trkpt>
      <trkpt lat="28.296128" lon="-16.457564">
        <ele>1596.104531</ele>
        <time>2021-03-13T02:49:58.517Z</time>
      </trkpt>
      <trkpt lat="28.296143" lon="-16.457678">
        <ele>1597.213868</ele>
        <time>2021-03-13T02:50:05.994Z</time>
      </trkpt>
      <trkpt lat="28.295966" lon="-16.458092">
        <ele>1601.643127</ele>
        <time>2021-03-13T02:50:38.187Z</time>
      </trkpt>
      <trkpt lat="28.29602" lon="-16.458197"/>
      <trkpt lat="28.296133" lon="-16.458208">
        <ele>1604.074640</ele>
        <time>2021-03-13T02:50:56.599Z</time>
      </trkpt>
      <trkpt lat="28.296596" lon="-16.457939">
        <ele>1609.819900</ele>
        <time>2021-03-13T02:51:40.541Z</time>
      </trkpt>
      <trkpt lat="28.296888" lon="-16.457907">
        <ele>1613.060649</ele>
        <time>2021-03-13T02:52:04.915Z</time>
      </trkpt>
      <trkpt lat="28.297144" lon="-16.457914">
        <ele>1615.889538</ele>
        <time>2021-03-13T02:52:25.975Z</time>
      </trkpt>
      <trkpt lat="28.297159" lon="-16.458292">
        <ele>1619.570085</ele>
        <time>2021-03-13T02:52:52.466Z</time>
      </trkpt>
      <trkpt lat="28.29713" lon="-16.458532"/>
      <trkpt lat="28.29696" lon="-16.45909"/>
      <trkpt lat="28.296948" lon="-16.460176">
        <ele>1635.359438</ele>
        <time>2021-03-13T02:55:00.667Z</time>
      </trkpt>
      <trkpt lat="28.296989" lon="-16.460314">
        <ele>1636.526714</ele>
        <time>2021-03-13T02:55:08.886Z</time>
      </trkpt>
      <trkpt lat="28.297219" lon="-16.460575">
        <ele>1639.253096</ele>
        <time>2021-03-13T02:55:29.791Z</time>
      </trkpt>
      <trkpt lat="28.297291" lon="-16.460739">
        <ele>1640.438769</ele>
        <time>2021-03-13T02:55:40.054Z</time>
      </trkpt>
      <trkpt lat="28.297383" lon="-16.461068">
        <ele>1642.672184</ele>
        <time>2021-03-13T02:55:59.031Z</time>
      </trkpt>
      <trkpt lat="28.297445" lon="-16.461164">
        <ele>1643.442478</ele>
        <time>2021-03-13T02:56:06.501Z</time>
      </trkpt>
      <trkpt lat="28.297857" lon="-16.461409">
        <ele>1646.859802</ele>
        <time>2021-03-13T02:56:36.540Z</time>
      </trkpt>
      <trkpt lat="28.297877" lon="-16.461538">
        <ele>1647.707273</ele>
        <time>2021-03-13T02:56:44.033Z</time>
      </trkpt>
      <trkpt lat="28.297835" lon="-16.461587">
        <ele>1648.149716</ele>
        <time>2021-03-13T02:56:48.146Z</time>
      </trkpt>
      <trkpt lat="28.297626" lon="-16.461598">
        <ele>1649.687128</ele>
        <time>2021-03-13T02:57:02.399Z</time>
      </trkpt>
      <trkpt lat="28.297097" lon="-16.461956">
        <ele>1654.432224</ele>
        <time>2021-03-13T02:57:45.455Z</time>
      </trkpt>
      <trkpt lat="28.297073" lon="-16.462097">
        <ele>1655.436628</ele>
        <time>2021-03-13T02:57:53.901Z</time>
      </trkpt>
      <trkpt lat="28.29716" lon="-16.462875"/>
      <trkpt lat="28.297098" lon="-16.463314">
        <ele>1664.031213</ele>
        <time>2021-03-13T02:59:08.426Z</time>
      </trkpt>
      <trkpt lat="28.297125" lon="-16.46398"/>
      <trkpt lat="28.297272" lon="-16.464426">
        <ele>1671.968436</ele>
        <time>2021-03-13T03:00:16.217Z</time>
      </trkpt>
      <trkpt lat="28.297341" lon="-16.46526"/>
      <trkpt lat="28.297606" lon="-16.465803">
        <ele>1682.354811</ele>
        <time>2021-03-13T03:01:44.072Z</time>
      </trkpt>
      <trkpt lat="28.297664" lon="-16.465973">
        <ele>1683.782506</ele>
        <time>2021-03-13T03:01:56.319Z</time>
      </trkpt>
      <trkpt lat="28.29791" lon="-16.466513"/>
      <trkpt lat="28.297911" lon="-16.466658">
        <ele>1689.679145</ele>
        <time>2021-03-13T03:02:42.751Z</time>
      </trkpt>
      <trkpt lat="28.297869" lon="-16.46708"/>
      <trkpt lat="28.297927" lon="-16.467975">
        <ele>1701.203707</ele>
        <time>2021-03-13T03:04:11.275Z</time>
      </trkpt>
      <trkpt lat="28.297751" lon="-16.468262">
        <ele>1704.725449</ele>
        <time>2021-03-13T03:04:36.511Z</time>
      </trkpt>
      <trkpt lat="28.297697" lon="-16.468352">
        <ele>1705.822097</ele>
        <time>2021-03-13T03:04:44.872Z</time>
      </trkpt>
      <trkpt lat="28.297694" lon="-16.468428">
        <ele>1706.588138</ele>
        <time>2021-03-13T03:04:49.416Z</time>
      </trkpt>
      <trkpt lat="28.297744" lon="-16.468461">
        <ele>1707.249479</ele>
        <time>2021-03-13T03:04:53.385Z</time>
      </trkpt>
      <trkpt lat="28.297881" lon="-16.468342">
        <ele>1709.221905</ele>
        <time>2021-03-13T03:05:09.418Z</time>
      </trkpt>
      <trkpt lat="28.298074" lon="-16.46828"/>
      <trkpt lat="28.298223" lon="-16.468046">
        <ele>1714.423446</ele>
        <time>2021-03-13T03:05:46.955Z</time>
      </trkpt>
      <trkpt lat="28.298352" lon="-16.467937">
        <ele>1716.262189</ele>
        <time>2021-03-13T03:05:58.860Z</time>
      </trkpt>
      <trkpt lat="28.298395" lon="-16.467954">
        <ele>1716.876219</ele>
        <time>2021-03-13T03:06:03.500Z</time>
      </trkpt>
      <trkpt lat="28.298407" lon="-16.468012">
        <ele>1717.677015</ele>
        <time>2021-03-13T03:06:10.895Z</time>
      </trkpt>
      <trkpt lat="28.298323" lon="-16.468164">
        <ele>1720.089073</ele>
        <time>2021-03-13T03:06:23.411Z</time>
      </trkpt>
      <trkpt lat="28.298303" lon="-16.468321">
        <ele>1722.221242</ele>
        <time>2021-03-13T03:06:35.336Z</time>
      </trkpt>
      <trkpt lat="28.298281" lon="-16.46849"/>
      <trkpt lat="28.298173" lon="-16.468708">
        <ele>1727.879471</ele>
        <time>2021-03-13T03:07:09.824Z</time>
      </trkpt>
      <trkpt lat="28.29814" lon="-16.469153"/>
      <trkpt lat="28.298013" lon="-16.469336">
        <ele>1737.013621</ele>
        <time>2021-03-13T03:08:09.747Z</time>
      </trkpt>
      <trkpt lat="28.297803" lon="-16.469931">
        <ele>1745.609221</ele>
        <time>2021-03-13T03:09:08.243Z</time>
      </trkpt>
      <trkpt lat="28.297792" lon="-16.470161">
        <ele>1748.667615</ele>
        <time>2021-03-13T03:09:27.259Z</time>
      </trkpt>
      <trkpt lat="28.297878" lon="-16.470512">
        <ele>1753.505194</ele>
        <time>2021-03-13T03:09:55.740Z</time>
      </trkpt>
      <trkpt lat="28.297872" lon="-16.470592">
        <ele>1754.571263</ele>
        <time>2021-03-13T03:10:05.994Z</time>
      </trkpt>
      <trkpt lat="28.297844" lon="-16.470624">
        <ele>1755.170275</ele>
        <time>2021-03-13T03:10:08.909Z</time>
      </trkpt>
      <trkpt lat="28.297672" lon="-16.470639">
        <ele>1757.771655</ele>
        <time>2021-03-13T03:10:23.600Z</time>
      </trkpt>
      <trkpt lat="28.297562" lon="-16.470697">
        <ele>1759.600495</ele>
        <time>2021-03-13T03:10:35.697Z</time>
      </trkpt>
      <trkpt lat="28.297509" lon="-16.470804">
        <ele>1761.230601</ele>
        <time>2021-03-13T03:10:45.732Z</time>
      </trkpt>
      <trkpt lat="28.297439" lon="-16.4714"/>
      <trkpt lat="28.297672" lon="-16.472128">
        <ele>1778.799428</ele>
        <time>2021-03-13T03:12:39.288Z</time>
      </trkpt>
      <trkpt lat="28.297458" lon="-16.472234">
        <ele>1782.027289</ele>
        <time>2021-03-13T03:12:58.990Z</time>
      </trkpt>
      <trkpt lat="28.297335" lon="-16.472411">
        <ele>1784.772239</ele>
        <time>2021-03-13T03:13:16.250Z</time>
      </trkpt>
      <trkpt lat="28.297309" lon="-16.47258"/>
      <trkpt lat="28.297339" lon="-16.472765">
        <ele>1789.150725</ele>
        <time>2021-03-13T03:13:43.984Z</time>
      </trkpt>
      <trkpt lat="28.297242" lon="-16.473036">
        <ele>1792.711931</ele>
        <time>2021-03-13T03:14:06.693Z</time>
      </trkpt>
      <trkpt lat="28.297349" lon="-16.474166">
        <ele>1806.244017</ele>
        <time>2021-03-13T03:15:38.001Z</time>
      </trkpt>
      <trkpt lat="28.297289" lon="-16.474268">
        <ele>1807.694573</ele>
        <time>2021-03-13T03:15:47.814Z</time>
      </trkpt>
      <trkpt lat="28.297046" lon="-16.474428">
        <ele>1811.466830</ele>
        <time>2021-03-13T03:16:12.584Z</time>
      </trkpt>
      <trkpt lat="28.29689" lon="-16.474597"/>
      <trkpt lat="28.296833" lon="-16.475175">
        <ele>1821.177652</ele>
        <time>2021-03-13T03:17:15.637Z</time>
      </trkpt>
      <trkpt lat="28.296759" lon="-16.475215">
        <ele>1822.217886</ele>
        <time>2021-03-13T03:17:22.943Z</time>
      </trkpt>
      <trkpt lat="28.296484" lon="-16.475193">
        <ele>1825.717083</ele>
        <time>2021-03-13T03:17:46.696Z</time>
      </trkpt>
      <trkpt lat="28.296321" lon="-16.475331">
        <ele>1828.297637</ele>
        <time>2021-03-13T03:18:04.571Z</time>
      </trkpt>
      <trkpt lat="28.296302" lon="-16.47544"/>
      <trkpt lat="28.296375" lon="-16.475938">
        <ele>1835.181832</ele>
        <time>2021-03-13T03:18:52.181Z</time>
      </trkpt>
      <trkpt lat="28.296281" lon="-16.476346">
        <ele>1839.895233</ele>
        <time>2021-03-13T03:19:24.463Z</time>
      </trkpt>
      <trkpt lat="28.296256" lon="-16.476452">
        <ele>1841.121673</ele>
        <time>2021-03-13T03:19:33.163Z</time>
      </trkpt>
      <trkpt lat="28.296312" lon="-16.476461">
        <ele>1841.839557</ele>
        <time>2021-03-13T03:19:37.821Z</time>
      </trkpt>
      <trkpt lat="28.296363" lon="-16.4764"/>
      <trkpt lat="28.296658" lon="-16.475847">
        <ele>1849.248148</ele>
        <time>2021-03-13T03:20:31.439Z</time>
      </trkpt>
      <trkpt lat="28.29678" lon="-16.475792"/>
      <trkpt lat="28.297098" lon="-16.475982">
        <ele>1854.807550</ele>
        <time>2021-03-13T03:21:12.051Z</time>
      </trkpt>
      <trkpt lat="28.297474" lon="-16.475636">
        <ele>1860.291589</ele>
        <time>2021-03-13T03:21:50.849Z</time>
      </trkpt>
      <trkpt lat="28.298342" lon="-16.475112">
        <ele>1871.145176</ele>
        <time>2021-03-13T03:23:10.090Z</time>
      </trkpt>
      <trkpt lat="28.298814" lon="-16.474597">
        <ele>1878.300842</ele>
        <time>2021-03-13T03:24:03.249Z</time>
      </trkpt>
      <trkpt lat="28.298937" lon="-16.474529">
        <ele>1879.796405</ele>
        <time>2021-03-13T03:24:13.489Z</time>
      </trkpt>
      <trkpt lat="28.298988" lon="-16.474558">
        <ele>1880.419947</ele>
        <time>2021-03-13T03:24:19.199Z</time>
      </trkpt>
      <trkpt lat="28.298988" lon="-16.474616">
        <ele>1880.978255</ele>
        <time>2021-03-13T03:24:23.730Z</time>
      </trkpt>
      <trkpt lat="28.298936" lon="-16.474862">
        <ele>1883.448492</ele>
        <time>2021-03-13T03:24:40.056Z</time>
      </trkpt>
      <trkpt lat="28.29888" lon="-16.475119"/>
      <trkpt lat="28.298802" lon="-16.475233">
        <ele>1887.706979</ele>
        <time>2021-03-13T03:25:09.387Z</time>
      </trkpt>
      <trkpt lat="28.298652" lon="-16.475325">
        <ele>1889.722263</ele>
        <time>2021-03-13T03:25:24.251Z</time>
      </trkpt>
      <trkpt lat="28.298386" lon="-16.475808">
        <ele>1895.652121</ele>
        <time>2021-03-13T03:26:06.250Z</time>
      </trkpt>
      <trkpt lat="28.298186" lon="-16.4764"/>
      <trkpt lat="28.298138" lon="-16.476761">
        <ele>1906.081023</ele>
        <time>2021-03-13T03:27:21.715Z</time>
      </trkpt>
      <trkpt lat="28.297826" lon="-16.477505">
        <ele>1914.794986</ele>
        <time>2021-03-13T03:28:23.048Z</time>
      </trkpt>
      <trkpt lat="28.297574" lon="-16.47773"/>
      <trkpt lat="28.297198" lon="-16.478459">
        <ele>1927.427381</ele>
        <time>2021-03-13T03:29:53.825Z</time>
      </trkpt>
      <trkpt lat="28.296985" lon="-16.478605">
        <ele>1930.154423</ele>
        <time>2021-03-13T03:30:13.336Z</time>
      </trkpt>
      <trkpt lat="28.296965" lon="-16.478619">
        <ele>1930.411946</ele>
        <time>2021-03-13T03:30:15.737Z</time>
      </trkpt>
      <trkpt lat="28.296919" lon="-16.47884"/>
      <trkpt lat="28.296717" lon="-16.478897">
        <ele>1934.885229</ele>
        <time>2021-03-13T03:30:47.069Z</time>
      </trkpt>
      <trkpt lat="28.296658" lon="-16.478958">
        <ele>1935.759795</ele>
        <time>2021-03-13T03:30:53.059Z</time>
      </trkpt>
      <trkpt lat="28.29669" lon="-16.479064"/>
      <trkpt lat="28.296998" lon="-16.479126">
        <ele>1940.270035</ele>
        <time>2021-03-13T03:31:26.233Z</time>
      </trkpt>
      <trkpt lat="28.297237" lon="-16.478923">
        <ele>1943.541401</ele>
        <time>2021-03-13T03:31:49.980Z</time>
      </trkpt>
      <trkpt lat="28.297427" lon="-16.478937">
        <ele>1945.631829</ele>
        <time>2021-03-13T03:32:03.650Z</time>
      </trkpt>
      <trkpt lat="28.29758" lon="-16.478888"/>
      <trkpt lat="28.297893" lon="-16.478689">
        <ele>1951.599291</ele>
        <time>2021-03-13T03:32:48.909Z</time>
      </trkpt>
      <trkpt lat="28.297989" lon="-16.478667">
        <ele>1952.728231</ele>
        <time>2021-03-13T03:32:55.196Z</time>
      </trkpt>
      <trkpt lat="28.298101" lon="-16.478717">
        <ele>1954.115467</ele>
        <time>2021-03-13T03:33:04.667Z</time>
      </trkpt>
      <trkpt lat="28.29814" lon="-16.47877"/>
      <trkpt lat="28.298147" lon="-16.478836">
        <ele>1955.491266</ele>
        <time>2021-03-13T03:33:16.543Z</time>
      </trkpt>
      <trkpt lat="28.298117" lon="-16.478894">
        <ele>1956.174019</ele>
        <time>2021-03-13T03:33:20.371Z</time>
      </trkpt>
      <trkpt lat="28.297936" lon="-16.478979">
        <ele>1958.431822</ele>
        <time>2021-03-13T03:33:35.047Z</time>
      </trkpt>
      <trkpt lat="28.297863" lon="-16.479247">
        <ele>1961.279175</ele>
        <time>2021-03-13T03:33:55.026Z</time>
      </trkpt>
      <trkpt lat="28.297833" lon="-16.479341">
        <ele>1962.294004</ele>
        <time>2021-03-13T03:34:02.386Z</time>
      </trkpt>
      <trkpt lat="28.297784" lon="-16.479421">
        <ele>1963.283135</ele>
        <time>2021-03-13T03:34:11.416Z</time>
      </trkpt>
      <trkpt lat="28.297567" lon="-16.479699">
        <ele>1967.084051</ele>
        <time>2021-03-13T03:34:38.541Z</time>
      </trkpt>
      <trkpt lat="28.297383" lon="-16.480141">
        <ele>1972.243610</ele>
        <time>2021-03-13T03:35:17.285Z</time>
      </trkpt>
      <trkpt lat="28.297402" lon="-16.480394">
        <ele>1974.923260</ele>
        <time>2021-03-13T03:35:35.279Z</time>
      </trkpt>
      <trkpt lat="28.297293" lon="-16.4808"/>
      <trkpt lat="28.297296" lon="-16.481114">
        <ele>1982.716495</ele>
        <time>2021-03-13T03:36:30.932Z</time>
      </trkpt>
      <trkpt lat="28.297075" lon="-16.481468">
        <ele>1987.296072</ele>
        <time>2021-03-13T03:37:01.664Z</time>
      </trkpt>
      <trkpt lat="28.29705" lon="-16.481874"/>
      <trkpt lat="28.297065" lon="-16.481961">
        <ele>1992.691654</ele>
        <time>2021-03-13T03:37:36.904Z</time>
      </trkpt>
      <trkpt lat="28.297083" lon="-16.48207"/>
      <trkpt lat="28.296917" lon="-16.482574">
        <ele>1999.782551</ele>
        <time>2021-03-13T03:38:26.611Z</time>
      </trkpt>
      <trkpt lat="28.297008" lon="-16.482647">
        <ele>2001.165004</ele>
        <time>2021-03-13T03:38:37.193Z</time>
      </trkpt>
      <trkpt lat="28.297367" lon="-16.482417">
        <ele>2006.279577</ele>
        <time>2021-03-13T03:39:13.337Z</time>
      </trkpt>
      <trkpt lat="28.29771" lon="-16.482058"/>
      <trkpt lat="28.297866" lon="-16.48204"/>
      <trkpt lat="28.297949" lon="-16.482041">
        <ele>2014.835285</ele>
        <time>2021-03-13T03:40:14.133Z</time>
      </trkpt>
      <trkpt lat="28.298025" lon="-16.482065">
        <ele>2015.772346</ele>
        <time>2021-03-13T03:40:19.815Z</time>
      </trkpt>
      <trkpt lat="28.29808" lon="-16.482181"/>
      <trkpt lat="28.298053" lon="-16.482264">
        <ele>2018.075862</ele>
        <time>2021-03-13T03:40:36.258Z</time>
      </trkpt>
      <trkpt lat="28.297907" lon="-16.482366">
        <ele>2020.112075</ele>
        <time>2021-03-13T03:40:50.877Z</time>
      </trkpt>
      <trkpt lat="28.297842" lon="-16.482539">
        <ele>2022.079422</ele>
        <time>2021-03-13T03:41:04.857Z</time>
      </trkpt>
      <trkpt lat="28.297861" lon="-16.484046">
        <ele>2037.931186</ele>
        <time>2021-03-13T03:42:55.327Z</time>
      </trkpt>
      <trkpt lat="28.297902" lon="-16.484194">
        <ele>2039.576575</ele>
        <time>2021-03-13T03:43:06.769Z</time>
      </trkpt>
      <trkpt lat="28.298155" lon="-16.484496">
        <ele>2043.997306</ele>
        <time>2021-03-13T03:43:38.101Z</time>
      </trkpt>
      <trkpt lat="28.298237" lon="-16.48523"/>
      <trkpt lat="28.298309" lon="-16.485451">
        <ele>2054.470073</ele>
        <time>2021-03-13T03:44:51.579Z</time>
      </trkpt>
      <trkpt lat="28.298371" lon="-16.485663">
        <ele>2057.103631</ele>
        <time>2021-03-13T03:45:08.253Z</time>
      </trkpt>
      <trkpt lat="28.298418" lon="-16.485854">
        <ele>2059.441642</ele>
        <time>2021-03-13T03:45:23.399Z</time>
      </trkpt>
      <trkpt lat="28.298491" lon="-16.486691">
        <ele>2069.357445</ele>
        <time>2021-03-13T03:46:29.188Z</time>
      </trkpt>
      <trkpt lat="28.298481" lon="-16.486719">
        <ele>2069.713662</ele>
        <time>2021-03-13T03:46:31.736Z</time>
      </trkpt>
      <trkpt lat="28.298389" lon="-16.486981">
        <ele>2073.038987</ele>
        <time>2021-03-13T03:46:55.640Z</time>
      </trkpt>
      <trkpt lat="28.298388" lon="-16.487219">
        <ele>2075.844837</ele>
        <time>2021-03-13T03:47:13.327Z</time>
      </trkpt>
      <trkpt lat="28.298473" lon="-16.487244">
        <ele>2077.020470</ele>
        <time>2021-03-13T03:47:23.956Z</time>
      </trkpt>
      <trkpt lat="28.2988" lon="-16.487049"/>
      <trkpt lat="28.299089" lon="-16.486996">
        <ele>2085.281778</ele>
        <time>2021-03-13T03:48:19.504Z</time>
      </trkpt>
      <trkpt lat="28.299119" lon="-16.487032">
        <ele>2085.825127</ele>
        <time>2021-03-13T03:48:25.354Z</time>
      </trkpt>
      <trkpt lat="28.299117" lon="-16.487079">
        <ele>2086.340936</ele>
        <time>2021-03-13T03:48:30.220Z</time>
      </trkpt>
      <trkpt lat="28.298944" lon="-16.487305">
        <ele>2089.623673</ele>
        <time>2021-03-13T03:48:49.767Z</time>
      </trkpt>
      <trkpt lat="28.298869" lon="-16.487667">
        <ele>2093.700253</ele>
        <time>2021-03-13T03:49:18.007Z</time>
      </trkpt>
      <trkpt lat="28.298809" lon="-16.489253">
        <ele>2109.839545</ele>
        <time>2021-03-13T03:51:16.075Z</time>
      </trkpt>
      <trkpt lat="28.298855" lon="-16.489438">
        <ele>2111.713965</ele>
        <time>2021-03-13T03:51:28.611Z</time>
      </trkpt>
      <trkpt lat="28.298752" lon="-16.489699">
        <ele>2114.502815</ele>
        <time>2021-03-13T03:51:47.142Z</time>
      </trkpt>
      <trkpt lat="28.298752" lon="-16.489839">
        <ele>2115.867908</ele>
        <time>2021-03-13T03:51:55.956Z</time>
      </trkpt>
      <trkpt lat="28.298859" lon="-16.489883">
        <ele>2117.128122</ele>
        <time>2021-03-13T03:52:04.190Z</time>
      </trkpt>
      <trkpt lat="28.298944" lon="-16.489805">
        <ele>2118.338283</ele>
        <time>2021-03-13T03:52:14.545Z</time>
      </trkpt>
      <trkpt lat="28.299093" lon="-16.48967"/>
      <trkpt lat="28.299441" lon="-16.489015">
        <ele>2128.257725</ele>
        <time>2021-03-13T03:53:25.031Z</time>
      </trkpt>
      <trkpt lat="28.29962" lon="-16.488786"/>
      <trkpt lat="28.299789" lon="-16.488698">
        <ele>2133.514439</ele>
        <time>2021-03-13T03:54:01.484Z</time>
      </trkpt>
      <trkpt lat="28.299859" lon="-16.488721">
        <ele>2134.355336</ele>
        <time>2021-03-13T03:54:07.900Z</time>
      </trkpt>
      <trkpt lat="28.299907" lon="-16.488782">
        <ele>2135.186562</ele>
        <time>2021-03-13T03:54:14.486Z</time>
      </trkpt>
      <trkpt lat="28.299833" lon="-16.489099">
        <ele>2138.518678</ele>
        <time>2021-03-13T03:54:33.202Z</time>
      </trkpt>
      <trkpt lat="28.299961" lon="-16.490948">
        <ele>2158.699220</ele>
        <time>2021-03-13T03:56:33.641Z</time>
      </trkpt>
      <trkpt lat="28.300202" lon="-16.491646">
        <ele>2166.802163</ele>
        <time>2021-03-13T03:57:21.431Z</time>
      </trkpt>
      <trkpt lat="28.300377" lon="-16.491875">
        <ele>2170.035068</ele>
        <time>2021-03-13T03:57:40.843Z</time>
      </trkpt>
      <trkpt lat="28.300465" lon="-16.49194"/>
      <trkpt lat="28.300536" lon="-16.491915">
        <ele>2172.206313</ele>
        <time>2021-03-13T03:57:53.771Z</time>
      </trkpt>
      <trkpt lat="28.300573" lon="-16.491747">
        <ele>2174.052667</ele>
        <time>2021-03-13T03:58:04.809Z</time>
      </trkpt>
      <trkpt lat="28.300523" lon="-16.4914"/>
      <trkpt lat="28.300632" lon="-16.491242">
        <ele>2179.941555</ele>
        <time>2021-03-13T03:58:39.981Z</time>
      </trkpt>
      <trkpt lat="28.300785" lon="-16.491235">
        <ele>2181.795748</ele>
        <time>2021-03-13T03:58:51.012Z</time>
      </trkpt>
      <trkpt lat="28.30115" lon="-16.4916"/>
      <trkpt lat="28.301457" lon="-16.491703">
        <ele>2190.738392</ele>
        <time>2021-03-13T03:59:48.501Z</time>
      </trkpt>
      <trkpt lat="28.30148" lon="-16.491779"/>
      <trkpt lat="28.301418" lon="-16.492195">
        <ele>2195.468176</ele>
        <time>2021-03-13T04:00:19.421Z</time>
      </trkpt>
      <trkpt lat="28.30147" lon="-16.492313"/>
      <trkpt lat="28.301758" lon="-16.492145">
        <ele>2200.173412</ele>
        <time>2021-03-13T04:00:48.388Z</time>
      </trkpt>
      <trkpt lat="28.302264" lon="-16.492002">
        <ele>2205.271907</ele>
        <time>2021-03-13T04:01:20.915Z</time>
      </trkpt>
      <trkpt lat="28.302634" lon="-16.492164">
        <ele>2208.496905</ele>
        <time>2021-03-13T04:01:44.782Z</time>
      </trkpt>
      <trkpt lat="28.303239" lon="-16.49229"/>
      <trkpt lat="28.30321" lon="-16.492395"/>
      <trkpt lat="28.302345" lon="-16.492552">
        <ele>2221.491053</ele>
        <time>2021-03-13T04:03:15.404Z</time>
      </trkpt>
      <trkpt lat="28.302031" lon="-16.492814">
        <ele>2224.743096</ele>
        <time>2021-03-13T04:03:37.658Z</time>
      </trkpt>
      <trkpt lat="28.301781" lon="-16.493127">
        <ele>2227.848717</ele>
        <time>2021-03-13T04:03:59.632Z</time>
      </trkpt>
      <trkpt lat="28.30178" lon="-16.493252"/>
      <trkpt lat="28.301935" lon="-16.493636">
        <ele>2231.871722</ele>
        <time>2021-03-13T04:04:28.999Z</time>
      </trkpt>
      <trkpt lat="28.302052" lon="-16.494142">
        <ele>2236.412550</ele>
        <time>2021-03-13T04:04:57.500Z</time>
      </trkpt>
      <trkpt lat="28.302212" lon="-16.494538">
        <ele>2240.574637</ele>
        <time>2021-03-13T04:05:24.889Z</time>
      </trkpt>
      <trkpt lat="28.302425" lon="-16.494745">
        <ele>2243.616086</ele>
        <time>2021-03-13T04:05:44.703Z</time>
      </trkpt>
      <trkpt lat="28.302554" lon="-16.494967">
        <ele>2246.156951</ele>
        <time>2021-03-13T04:06:00.977Z</time>
      </trkpt>
      <trkpt lat="28.302681" lon="-16.495707">
        <ele>2253.360404</ele>
        <time>2021-03-13T04:06:47.531Z</time>
      </trkpt>
      <trkpt lat="28.302741" lon="-16.495844">
        <ele>2254.827192</ele>
        <time>2021-03-13T04:06:57.355Z</time>
      </trkpt>
      <trkpt lat="28.302838" lon="-16.495945">
        <ele>2256.259928</ele>
        <time>2021-03-13T04:07:06.715Z</time>
      </trkpt>
      <trkpt lat="28.302966" lon="-16.496097">
        <ele>2258.276168</ele>
        <time>2021-03-13T04:07:19.167Z</time>
      </trkpt>
      <trkpt lat="28.303281" lon="-16.496659">
        <ele>2264.662517</ele>
        <time>2021-03-13T04:07:59.700Z</time>
      </trkpt>
      <trkpt lat="28.3033" lon="-16.496919"/>
      <trkpt lat="28.303236" lon="-16.497487">
        <ele>2272.636636</ele>
        <time>2021-03-13T04:08:50.785Z</time>
      </trkpt>
      <trkpt lat="28.303335" lon="-16.49798"/>
      <trkpt lat="28.303125" lon="-16.498611">
        <ele>2282.821589</ele>
        <time>2021-03-13T04:09:55.935Z</time>
      </trkpt>
      <trkpt lat="28.303393" lon="-16.499442">
        <ele>2290.453940</ele>
        <time>2021-03-13T04:10:46.715Z</time>
      </trkpt>
      <trkpt lat="28.303474" lon="-16.500594">
        <ele>2300.285367</ele>
        <time>2021-03-13T04:11:52.580Z</time>
      </trkpt>
      <trkpt lat="28.303503" lon="-16.500654">
        <ele>2300.867649</ele>
        <time>2021-03-13T04:11:56.468Z</time>
      </trkpt>
      <trkpt lat="28.303601" lon="-16.500684">
        <ele>2301.848342</ele>
        <time>2021-03-13T04:12:02.998Z</time>
      </trkpt>
      <trkpt lat="28.304157" lon="-16.500452">
        <ele>2307.555590</ele>
        <time>2021-03-13T04:12:40.668Z</time>
      </trkpt>
      <trkpt lat="28.304406" lon="-16.500277">
        <ele>2309.752092</ele>
        <time>2021-03-13T04:12:58.967Z</time>
      </trkpt>
      <trkpt lat="28.304697" lon="-16.500268">
        <ele>2311.935785</ele>
        <time>2021-03-13T04:13:15.820Z</time>
      </trkpt>
      <trkpt lat="28.304756" lon="-16.500364">
        <ele>2312.709002</ele>
        <time>2021-03-13T04:13:21.987Z</time>
      </trkpt>
      <trkpt lat="28.304869" lon="-16.500939">
        <ele>2316.600008</ele>
        <time>2021-03-13T04:13:50.543Z</time>
      </trkpt>
      <trkpt lat="28.304865" lon="-16.501115">
        <ele>2317.762777</ele>
        <time>2021-03-13T04:13:59.089Z</time>
      </trkpt>
      <trkpt lat="28.304775" lon="-16.501395">
        <ele>2319.731403</ele>
        <time>2021-03-13T04:14:12.688Z</time>
      </trkpt>
      <trkpt lat="28.304791" lon="-16.501697">
        <ele>2321.480186</ele>
        <time>2021-03-13T04:14:26.900Z</time>
      </trkpt>
      <trkpt lat="28.304791" lon="-16.501697">
        <ele>2321.480186</ele>
        <time>2021-03-13T04:14:26.900Z</time>
      </trkpt>
      <trkpt lat="28.304757" lon="-16.501699">
        <ele>2321.649216</ele>
        <time>2021-03-13T04:14:28.378Z</time>
      </trkpt>
      <trkpt lat="28.304767" lon="-16.501756">
        <ele>2321.903273</ele>
        <time>2021-03-13T04:14:30.530Z</time>
      </trkpt>
      <trkpt lat="28.304772" lon="-16.501811">
        <ele>2322.144968</ele>
        <time>2021-03-13T04:14:32.535Z</time>
      </trkpt>
      <trkpt lat="28.304792" lon="-16.50186"/>
      <trkpt lat="28.304832" lon="-16.501893">
        <ele>2322.626508</ele>
        <time>2021-03-13T04:14:36.520Z</time>
      </trkpt>
      <trkpt lat="28.304878" lon="-16.501912">
        <ele>2322.869522</ele>
        <time>2021-03-13T04:14:38.526Z</time>
      </trkpt>
      <trkpt lat="28.304921" lon="-16.501942">
        <ele>2323.120069</ele>
        <time>2021-03-13T04:14:40.596Z</time>
      </trkpt>
      <trkpt lat="28.304941" lon="-16.501992">
        <ele>2323.360128</ele>
        <time>2021-03-13T04:14:42.583Z</time>
      </trkpt>
      <trkpt lat="28.304898" lon="-16.502057">
        <ele>2323.715523</ele>
        <time>2021-03-13T04:14:45.557Z</time>
      </trkpt>
      <trkpt lat="28.304862" lon="-16.502103">
        <ele>2323.984553</ele>
        <time>2021-03-13T04:14:47.782Z</time>
      </trkpt>
      <trkpt lat="28.304814" lon="-16.502144">
        <ele>2324.282734</ele>
        <time>2021-03-13T04:14:50.246Z</time>
      </trkpt>
      <trkpt lat="28.304777" lon="-16.502182">
        <ele>2324.530396</ele>
        <time>2021-03-13T04:14:52.294Z</time>
      </trkpt>
      <trkpt lat="28.30474" lon="-16.502216"/>
      <trkpt lat="28.304703" lon="-16.502246">
        <ele>2324.992390</ele>
        <time>2021-03-13T04:14:56.112Z</time>
      </trkpt>
      <trkpt lat="28.304661" lon="-16.502287">
        <ele>2325.267347</ele>
        <time>2021-03-13T04:14:58.383Z</time>
      </trkpt>
      <trkpt lat="28.304623" lon="-16.502324">
        <ele>2325.515846</ele>
        <time>2021-03-13T04:15:00.477Z</time>
      </trkpt>
      <trkpt lat="28.304587" lon="-16.502367">
        <ele>2325.775221</ele>
        <time>2021-03-13T04:15:02.621Z</time>
      </trkpt>
      <trkpt lat="28.304557" lon="-16.502406">
        <ele>2326.001600</ele>
        <time>2021-03-13T04:15:04.493Z</time>
      </trkpt>
      <trkpt lat="28.304528" lon="-16.502452">
        <ele>2326.248909</ele>
        <time>2021-03-13T04:15:06.539Z</time>
      </trkpt>
      <trkpt lat="28.3045" lon="-16.502495"/>
      <trkpt lat="28.304466" lon="-16.502539">
        <ele>2326.738598</ele>
        <time>2021-03-13T04:15:10.590Z</time>
      </trkpt>
      <trkpt lat="28.304421" lon="-16.502549">
        <ele>2326.966250</ele>
        <time>2021-03-13T04:15:12.467Z</time>
      </trkpt>
      <trkpt lat="28.304374" lon="-16.502572">
        <ele>2327.220334</ele>
        <time>2021-03-13T04:15:14.598Z</time>
      </trkpt>
      <trkpt lat="28.30434" lon="-16.502607"/>
      <trkpt lat="28.304304" lon="-16.502646">
        <ele>2327.695152</ele>
        <time>2021-03-13T04:15:18.522Z</time>
      </trkpt>
      <trkpt lat="28.304267" lon="-16.502688">
        <ele>2327.954866</ele>
        <time>2021-03-13T04:15:20.669Z</time>
      </trkpt>
      <trkpt lat="28.304223" lon="-16.502714">
        <ele>2328.201114</ele>
        <time>2021-03-13T04:15:22.701Z</time>
      </trkpt>
      <trkpt lat="28.304195" lon="-16.502763">
        <ele>2328.456462</ele>
        <time>2021-03-13T04:15:24.814Z</time>
      </trkpt>
      <trkpt lat="28.30419" lon="-16.502818"/>
      <trkpt lat="28.30417" lon="-16.502792"/>
      <trkpt lat="28.30417" lon="-16.502792"/>
      <trkpt lat="28.301212" lon="-16.50563"/>
      <trkpt lat="28.297906" lon="-16.508802">
        <ele>2330.775776</ele>
        <time>2021-03-13T04:21:07.286Z</time>
      </trkpt>
      <trkpt lat="28.297157" lon="-16.509523">
        <ele>2330.623175</ele>
        <time>2021-03-13T04:21:48.015Z</time>
      </trkpt>
      <trkpt lat="28.297157" lon="-16.509523">
        <ele>2330.623175</ele>
        <time>2021-03-13T04:21:48.015Z</time>
      </trkpt>
      <trkpt lat="28.297058" lon="-16.509618">
        <ele>2330.589483</ele>
        <time>2021-03-13T04:21:53.834Z</time>
      </trkpt>
      <trkpt lat="28.29676" lon="-16.510005"/>
      <trkpt lat="28.296676" lon="-16.510396">
        <ele>2330.356913</ele>
        <time>2021-03-13T04:22:28.980Z</time>
      </trkpt>
      <trkpt lat="28.296735" lon="-16.510746">
        <ele>2330.266492</ele>
        <time>2021-03-13T04:22:41.879Z</time>
      </trkpt>
      <trkpt lat="28.297021" lon="-16.51111"/>
      <trkpt lat="28.297067" lon="-16.511145">
        <ele>2330.126751</ele>
        <time>2021-03-13T04:23:01.203Z</time>
      </trkpt>
      <trkpt lat="28.297121" lon="-16.511181">
        <ele>2330.108707</ele>
        <time>2021-03-13T04:23:03.595Z</time>
      </trkpt>
      <trkpt lat="28.297219" lon="-16.511237">
        <ele>2329.649333</ele>
        <time>2021-03-13T04:23:07.769Z</time>
      </trkpt>
      <trkpt lat="28.297506" lon="-16.511398">
        <ele>2327.876838</ele>
        <time>2021-03-13T04:23:19.743Z</time>
      </trkpt>
      <trkpt lat="28.298129" lon="-16.511742">
        <ele>2324.041006</ele>
        <time>2021-03-13T04:23:44.768Z</time>
      </trkpt>
      <trkpt lat="28.29837" lon="-16.511914"/>
      <trkpt lat="28.298521" lon="-16.512118">
        <ele>2321.165538</ele>
        <time>2021-03-13T04:24:02.761Z</time>
      </trkpt>
      <trkpt lat="28.298627" lon="-16.512456">
        <ele>2319.439513</ele>
        <time>2021-03-13T04:24:13.424Z</time>
      </trkpt>
      <trkpt lat="28.298863" lon="-16.513716">
        <ele>2313.360912</ele>
        <time>2021-03-13T04:24:53.907Z</time>
      </trkpt>
      <trkpt lat="28.299061" lon="-16.514053">
        <ele>2311.449183</ele>
        <time>2021-03-13T04:25:07.458Z</time>
      </trkpt>
      <trkpt lat="28.299318" lon="-16.514275">
        <ele>2310.212628</ele>
        <time>2021-03-13T04:25:20.041Z</time>
      </trkpt>
      <trkpt lat="28.300111" lon="-16.514569">
        <ele>2308.562045</ele>
        <time>2021-03-13T04:25:53.149Z</time>
      </trkpt>
      <trkpt lat="28.300522" lon="-16.514648">
        <ele>2307.737240</ele>
        <time>2021-03-13T04:26:09.945Z</time>
      </trkpt>
      <trkpt lat="28.300884" lon="-16.514634">
        <ele>2307.020541</ele>
        <time>2021-03-13T04:26:24.221Z</time>
      </trkpt>
      <trkpt lat="28.302182" lon="-16.514434">
        <ele>2306.942746</ele>
        <time>2021-03-13T04:27:12.108Z</time>
      </trkpt>
      <trkpt lat="28.302361" lon="-16.514389">
        <ele>2306.942746</ele>
        <time>2021-03-13T04:27:18.533Z</time>
      </trkpt>
      <trkpt lat="28.302376" lon="-16.51449"/>
      <trkpt lat="28.302318" lon="-16.514589">
        <ele>2306.942746</ele>
        <time>2021-03-13T04:27:25.589Z</time>
      </trkpt>
      <trkpt lat="28.302334" lon="-16.514562">
        <ele>2288.405022</ele>
        <time>2021-03-02T12:54:15.011Z</time>
      </trkpt>
      <trkpt lat="28.302318" lon="-16.514589">
        <ele>2288.405022</ele>
        <time>2021-03-02T12:54:18.240Z</time>
      </trkpt>
      <trkpt lat="28.302384" lon="-16.51462"/>
      <trkpt lat="28.302527" lon="-16.514746">
        <ele>2288.405022</ele>
        <time>2021-03-02T12:54:46.392Z</time>
      </trkpt>
      <trkpt lat="28.302647" lon="-16.515182">
        <ele>2288.405022</ele>
        <time>2021-03-02T12:55:31.174Z</time>
      </trkpt>
      <trkpt lat="28.302862" lon="-16.515191">
        <ele>2288.405022</ele>
        <time>2021-03-02T12:55:55.800Z</time>
      </trkpt>
      <trkpt lat="28.302958" lon="-16.515342">
        <ele>2287.813621</ele>
        <time>2021-03-02T12:56:13.521Z</time>
      </trkpt>
      <trkpt lat="28.302958" lon="-16.515479">
        <ele>2287.376167</ele>
        <time>2021-03-02T12:56:28.042Z</time>
      </trkpt>
      <trkpt lat="28.303019" lon="-16.51556"/>
      <trkpt lat="28.303012" lon="-16.515745">
        <ele>2286.444553</ele>
        <time>2021-03-02T12:56:55.881Z</time>
      </trkpt>
      <trkpt lat="28.303159" lon="-16.515809">
        <ele>2285.873609</ele>
        <time>2021-03-02T12:57:14.211Z</time>
      </trkpt>
      <trkpt lat="28.303176" lon="-16.516261">
        <ele>2284.429016</ele>
        <time>2021-03-02T12:57:56.957Z</time>
      </trkpt>
      <trkpt lat="28.303135" lon="-16.516402">
        <ele>2283.954871</ele>
        <time>2021-03-02T12:58:10.780Z</time>
      </trkpt>
      <trkpt lat="28.303062" lon="-16.516468">
        <ele>2283.616488</ele>
        <time>2021-03-02T12:58:20.581Z</time>
      </trkpt>
      <trkpt lat="28.30302" lon="-16.516632"/>
      <trkpt lat="28.302974" lon="-16.516813">
        <ele>2282.469572</ele>
        <time>2021-03-02T12:58:53.457Z</time>
      </trkpt>
      <trkpt lat="28.303035" lon="-16.517272">
        <ele>2282.152355</ele>
        <time>2021-03-02T12:59:34.748Z</time>
      </trkpt>
      <trkpt lat="28.302873" lon="-16.517591">
        <ele>2282.507749</ele>
        <time>2021-03-02T13:00:07.839Z</time>
      </trkpt>
      <trkpt lat="28.302913" lon="-16.517716">
        <ele>2282.636103</ele>
        <time>2021-03-02T13:00:20.145Z</time>
      </trkpt>
      <trkpt lat="28.30285" lon="-16.517903"/>
      <trkpt lat="28.302927" lon="-16.518445">
        <ele>2283.359160</ele>
        <time>2021-03-02T13:01:30.099Z</time>
      </trkpt>
      <trkpt lat="28.302874" lon="-16.518623">
        <ele>2283.540498</ele>
        <time>2021-03-02T13:01:48.233Z</time>
      </trkpt>
      <trkpt lat="28.302579" lon="-16.519622">
        <ele>2284.962382</ele>
        <time>2021-03-02T13:03:28.468Z</time>
      </trkpt>
      <trkpt lat="28.302567" lon="-16.519807">
        <ele>2285.244404</ele>
        <time>2021-03-02T13:03:46.085Z</time>
      </trkpt>
      <trkpt lat="28.302659" lon="-16.52046"/>
      <trkpt lat="28.302561" lon="-16.520592">
        <ele>2286.512311</ele>
        <time>2021-03-02T13:05:03.558Z</time>
      </trkpt>
      <trkpt lat="28.302601" lon="-16.520693">
        <ele>2286.680683</ele>
        <time>2021-03-02T13:05:13.866Z</time>
      </trkpt>
      <trkpt lat="28.302493" lon="-16.520948">
        <ele>2287.017255</ele>
        <time>2021-03-02T13:05:39.554Z</time>
      </trkpt>
      <trkpt lat="28.302542" lon="-16.521173">
        <ele>2287.152039</ele>
        <time>2021-03-02T13:06:01.021Z</time>
      </trkpt>
      <trkpt lat="28.302392" lon="-16.521307">
        <ele>2287.278083</ele>
        <time>2021-03-02T13:06:20.099Z</time>
      </trkpt>
      <trkpt lat="28.302403" lon="-16.521491">
        <ele>2287.385329</ele>
        <time>2021-03-02T13:06:37.199Z</time>
      </trkpt>
      <trkpt lat="28.302385" lon="-16.521566">
        <ele>2287.430534</ele>
        <time>2021-03-02T13:06:44.140Z</time>
      </trkpt>
      <trkpt lat="28.302353" lon="-16.521699">
        <ele>2287.510711</ele>
        <time>2021-03-02T13:06:56.334Z</time>
      </trkpt>
      <trkpt lat="28.302477" lon="-16.521914"/>
      <trkpt lat="28.302742" lon="-16.521957"/>
      <trkpt lat="28.302482" lon="-16.522"/>
      <trkpt lat="28.302273" lon="-16.521787">
        <ele>2287.599496</ele>
        <time>2021-03-02T13:07:10.354Z</time>
      </trkpt>
      <trkpt lat="28.30173" lon="-16.522064"/>
      <trkpt lat="28.301626" lon="-16.522181">
        <ele>2288.089328</ele>
        <time>2021-03-02T13:08:25.486Z</time>
      </trkpt>
      <trkpt lat="28.300408" lon="-16.521945">
        <ele>2289.145680</ele>
        <time>2021-03-02T13:10:30.807Z</time>
      </trkpt>
      <trkpt lat="28.300158" lon="-16.521977">
        <ele>2289.364502</ele>
        <time>2021-03-02T13:10:56.819Z</time>
      </trkpt>
      <trkpt lat="28.2996" lon="-16.522155"/>
      <trkpt lat="28.298495" lon="-16.522562">
        <ele>2293.019131</ele>
        <time>2021-03-02T13:14:03.157Z</time>
      </trkpt>
      <trkpt lat="28.297442" lon="-16.523179">
        <ele>2296.776621</ele>
        <time>2021-03-02T13:16:15.865Z</time>
      </trkpt>
      <trkpt lat="28.296951" lon="-16.523533">
        <ele>2298.878568</ele>
        <time>2021-03-02T13:17:21.592Z</time>
      </trkpt>
      <trkpt lat="28.296516" lon="-16.523984">
        <ele>2301.034898</ele>
        <time>2021-03-02T13:18:28.256Z</time>
      </trkpt>
      <trkpt lat="28.296072" lon="-16.524558">
        <ele>2303.651209</ele>
        <time>2021-03-02T13:19:44.493Z</time>
      </trkpt>
      <trkpt lat="28.295916" lon="-16.524692">
        <ele>2304.411886</ele>
        <time>2021-03-02T13:20:06.658Z</time>
      </trkpt>
      <trkpt lat="28.295595" lon="-16.525261">
        <ele>2306.725962</ele>
        <time>2021-03-02T13:21:14.331Z</time>
      </trkpt>
      <trkpt lat="28.295406" lon="-16.525427">
        <ele>2307.655886</ele>
        <time>2021-03-02T13:21:41.556Z</time>
      </trkpt>
      <trkpt lat="28.295066" lon="-16.526242">
        <ele>2310.890910</ele>
        <time>2021-03-02T13:23:12.610Z</time>
      </trkpt>
      <trkpt lat="28.294957" lon="-16.526655">
        <ele>2312.437508</ele>
        <time>2021-03-02T13:23:56.096Z</time>
      </trkpt>
      <trkpt lat="28.294951" lon="-16.526812">
        <ele>2313.001216</ele>
        <time>2021-03-02T13:24:11.976Z</time>
      </trkpt>
      <trkpt lat="28.294938" lon="-16.527133">
        <ele>2314.153900</ele>
        <time>2021-03-02T13:24:44.217Z</time>
      </trkpt>
      <trkpt lat="28.295019" lon="-16.527524">
        <ele>2315.495067</ele>
        <time>2021-03-02T13:25:25.115Z</time>
      </trkpt>
      <trkpt lat="28.295529" lon="-16.528812">
        <ele>2319.756194</ele>
        <time>2021-03-02T13:27:45.013Z</time>
      </trkpt>
      <trkpt lat="28.295604" lon="-16.528887">
        <ele>2320.098627</ele>
        <time>2021-03-02T13:27:55.956Z</time>
      </trkpt>
      <trkpt lat="28.295632" lon="-16.528963">
        <ele>2320.347204</ele>
        <time>2021-03-02T13:28:04.429Z</time>
      </trkpt>
      <trkpt lat="28.29577" lon="-16.529348"/>
      <trkpt lat="28.295946" lon="-16.52958"/>
      <trkpt lat="28.296145" lon="-16.530062">
        <ele>2323.051348</ele>
        <time>2021-03-02T13:30:04.625Z</time>
      </trkpt>
      <trkpt lat="28.296475" lon="-16.530266">
        <ele>2323.875364</ele>
        <time>2021-03-02T13:30:44.979Z</time>
      </trkpt>
      <trkpt lat="28.296584" lon="-16.530581">
        <ele>2324.528949</ele>
        <time>2021-03-02T13:31:16.453Z</time>
      </trkpt>
      <trkpt lat="28.296758" lon="-16.531082">
        <ele>2325.316113</ele>
        <time>2021-03-02T13:32:06.737Z</time>
      </trkpt>
      <trkpt lat="28.296748" lon="-16.531243">
        <ele>2325.468128</ele>
        <time>2021-03-02T13:32:21.806Z</time>
      </trkpt>
      <trkpt lat="28.296626" lon="-16.531532">
        <ele>2325.769992</ele>
        <time>2021-03-02T13:32:51.735Z</time>
      </trkpt>
      <trkpt lat="28.296427" lon="-16.53179"/>
      <trkpt lat="28.296163" lon="-16.532509">
        <ele>2326.826760</ele>
        <time>2021-03-02T13:34:34.354Z</time>
      </trkpt>
      <trkpt lat="28.295917" lon="-16.532745">
        <ele>2326.874123</ele>
        <time>2021-03-02T13:35:06.675Z</time>
      </trkpt>
      <trkpt lat="28.295539" lon="-16.532852">
        <ele>2326.570556</ele>
        <time>2021-03-02T13:35:45.889Z</time>
      </trkpt>
      <trkpt lat="28.295086" lon="-16.532873">
        <ele>2326.217264</ele>
        <time>2021-03-02T13:36:32.126Z</time>
      </trkpt>
      <trkpt lat="28.294566" lon="-16.532831">
        <ele>2325.811033</ele>
        <time>2021-03-02T13:37:25.617Z</time>
      </trkpt>
      <trkpt lat="28.294065" lon="-16.532498">
        <ele>2325.596839</ele>
        <time>2021-03-02T13:38:25.103Z</time>
      </trkpt>
      <trkpt lat="28.293801" lon="-16.532391">
        <ele>2325.596005</ele>
        <time>2021-03-02T13:38:53.604Z</time>
      </trkpt>
      <trkpt lat="28.293225" lon="-16.532273">
        <ele>2325.594265</ele>
        <time>2021-03-02T13:39:52.254Z</time>
      </trkpt>
      <trkpt lat="28.292828" lon="-16.532316">
        <ele>2325.593079</ele>
        <time>2021-03-02T13:40:33.185Z</time>
      </trkpt>
      <trkpt lat="28.292582" lon="-16.532487">
        <ele>2325.640608</ele>
        <time>2021-03-02T13:41:03.422Z</time>
      </trkpt>
      <trkpt lat="28.292461" lon="-16.532695">
        <ele>2325.814134</ele>
        <time>2021-03-02T13:41:26.892Z</time>
      </trkpt>
      <trkpt lat="28.292176" lon="-16.533185">
        <ele>2326.222901</ele>
        <time>2021-03-02T13:42:21.818Z</time>
      </trkpt>
      <trkpt lat="28.292053" lon="-16.533313">
        <ele>2326.354782</ele>
        <time>2021-03-02T13:42:39.668Z</time>
      </trkpt>
      <trkpt lat="28.292025" lon="-16.533775">
        <ele>2326.677130</ele>
        <time>2021-03-02T13:43:21.984Z</time>
      </trkpt>
      <trkpt lat="28.291949" lon="-16.534064">
        <ele>2326.887076</ele>
        <time>2021-03-02T13:43:48.791Z</time>
      </trkpt>
      <trkpt lat="28.291949" lon="-16.534451">
        <ele>2326.293179</ele>
        <time>2021-03-02T13:44:23.508Z</time>
      </trkpt>
      <trkpt lat="28.291826" lon="-16.534966">
        <ele>2324.409907</ele>
        <time>2021-03-02T13:45:12.821Z</time>
      </trkpt>
      <trkpt lat="28.291714" lon="-16.535835">
        <ele>2321.310246</ele>
        <time>2021-03-02T13:46:37.647Z</time>
      </trkpt>
      <trkpt lat="28.291487" lon="-16.536188">
        <ele>2319.731310</ele>
        <time>2021-03-02T13:47:21.291Z</time>
      </trkpt>
      <trkpt lat="28.291364" lon="-16.536682">
        <ele>2316.171574</ele>
        <time>2021-03-02T13:48:13.329Z</time>
      </trkpt>
      <trkpt lat="28.291005" lon="-16.536897">
        <ele>2312.975543</ele>
        <time>2021-03-02T13:49:00.321Z</time>
      </trkpt>
      <trkpt lat="28.290857" lon="-16.537206">
        <ele>2310.536449</ele>
        <time>2021-03-02T13:49:36.440Z</time>
      </trkpt>
      <trkpt lat="28.290778" lon="-16.537369">
        <ele>2309.246295</ele>
        <time>2021-03-02T13:49:55.645Z</time>
      </trkpt>
      <trkpt lat="28.290996" lon="-16.537959">
        <ele>2304.939243</ele>
        <time>2021-03-02T13:51:01.907Z</time>
      </trkpt>
      <trkpt lat="28.29109" lon="-16.538345"/>
      <trkpt lat="28.291515" lon="-16.538527">
        <ele>2299.575856</ele>
        <time>2021-03-02T13:52:34.631Z</time>
      </trkpt>
      <trkpt lat="28.291621" lon="-16.538726">
        <ele>2298.214539</ele>
        <time>2021-03-02T13:52:57.959Z</time>
      </trkpt>
      <trkpt lat="28.291765" lon="-16.538996">
        <ele>2296.366904</ele>
        <time>2021-03-02T13:53:28.908Z</time>
      </trkpt>
      <trkpt lat="28.291838" lon="-16.538974">
        <ele>2295.864863</ele>
        <time>2021-03-02T13:53:37.366Z</time>
      </trkpt>
      <trkpt lat="28.292206" lon="-16.538944">
        <ele>2293.556019</ele>
        <time>2021-03-02T13:54:18.088Z</time>
      </trkpt>
      <trkpt lat="28.292632" lon="-16.538853">
        <ele>2292.190851</ele>
        <time>2021-03-02T13:55:05.094Z</time>
      </trkpt>
      <trkpt lat="28.292992" lon="-16.538716">
        <ele>2290.995110</ele>
        <time>2021-03-02T13:55:45.741Z</time>
      </trkpt>
      <trkpt lat="28.293196" lon="-16.538692">
        <ele>2290.349196</ele>
        <time>2021-03-02T13:56:07.506Z</time>
      </trkpt>
      <trkpt lat="28.293348" lon="-16.538675">
        <ele>2289.868173</ele>
        <time>2021-03-02T13:56:23.263Z</time>
      </trkpt>
      <trkpt lat="28.293534" lon="-16.53867"/>
      <trkpt lat="28.293498" lon="-16.538775">
        <ele>2288.969749</ele>
        <time>2021-03-02T13:56:52.890Z</time>
      </trkpt>
      <trkpt lat="28.293153" lon="-16.539783">
        <ele>2286.982782</ele>
        <time>2021-03-02T13:58:31.891Z</time>
      </trkpt>
      <trkpt lat="28.292715" lon="-16.540732">
        <ele>2285.478403</ele>
        <time>2021-03-02T14:00:09.367Z</time>
      </trkpt>
      <trkpt lat="28.292259" lon="-16.541719">
        <ele>2284.389912</ele>
        <time>2021-03-02T14:01:50.290Z</time>
      </trkpt>
      <trkpt lat="28.291881" lon="-16.542217">
        <ele>2283.821695</ele>
        <time>2021-03-02T14:02:49.352Z</time>
      </trkpt>
      <trkpt lat="28.291777" lon="-16.542548">
        <ele>2283.517970</ele>
        <time>2021-03-02T14:03:20.833Z</time>
      </trkpt>
      <trkpt lat="28.291545" lon="-16.543234">
        <ele>2283.276668</ele>
        <time>2021-03-02T14:04:26.227Z</time>
      </trkpt>
      <trkpt lat="28.291459" lon="-16.543588">
        <ele>2283.207013</ele>
        <time>2021-03-02T14:04:58.824Z</time>
      </trkpt>
      <trkpt lat="28.29127" lon="-16.544366"/>
      <trkpt lat="28.290987" lon="-16.545122">
        <ele>2283.012807</ele>
        <time>2021-03-02T14:07:22.729Z</time>
      </trkpt>
      <trkpt lat="28.290974" lon="-16.545167">
        <ele>2283.013941</ele>
        <time>2021-03-02T14:07:26.903Z</time>
      </trkpt>
      <trkpt lat="28.290759" lon="-16.545901">
        <ele>2283.032463</ele>
        <time>2021-03-02T14:08:35.297Z</time>
      </trkpt>
      <trkpt lat="28.290764" lon="-16.546061">
        <ele>2283.036297</ele>
        <time>2021-03-02T14:08:49.557Z</time>
      </trkpt>
      <trkpt lat="28.29076" lon="-16.546228"/>
      <trkpt lat="28.29069" lon="-16.546348"/>
      <trkpt lat="28.290698" lon="-16.546438">
        <ele>2283.045909</ele>
        <time>2021-03-02T14:09:25.188Z</time>
      </trkpt>
      <trkpt lat="28.290687" lon="-16.54674"/>
      <trkpt lat="28.29074" lon="-16.546918"/>
      <trkpt lat="28.290757" lon="-16.546962">
        <ele>2283.474278</ele>
        <time>2021-03-02T14:10:13.250Z</time>
      </trkpt>
      <trkpt lat="28.290824" lon="-16.547138">
        <ele>2283.670859</ele>
        <time>2021-03-02T14:10:30.401Z</time>
      </trkpt>
      <trkpt lat="28.290951" lon="-16.54727"/>
      <trkpt lat="28.291445" lon="-16.547345">
        <ele>2284.451590</ele>
        <time>2021-03-02T14:11:39.684Z</time>
      </trkpt>
      <trkpt lat="28.291624" lon="-16.547425">
        <ele>2284.675558</ele>
        <time>2021-03-02T14:11:59.699Z</time>
      </trkpt>
      <trkpt lat="28.292106" lon="-16.547937">
        <ele>2286.171581</ele>
        <time>2021-03-02T14:13:10.859Z</time>
      </trkpt>
      <trkpt lat="28.292433" lon="-16.548091">
        <ele>2287.580224</ele>
        <time>2021-03-02T14:13:50.289Z</time>
      </trkpt>
      <trkpt lat="28.292874" lon="-16.548428">
        <ele>2289.695333</ele>
        <time>2021-03-02T14:14:51.168Z</time>
      </trkpt>
      <trkpt lat="28.293103" lon="-16.548471">
        <ele>2290.618941</ele>
        <time>2021-03-02T14:15:18.398Z</time>
      </trkpt>
      <trkpt lat="28.293328" lon="-16.548419">
        <ele>2291.532611</ele>
        <time>2021-03-02T14:15:45.145Z</time>
      </trkpt>
      <trkpt lat="28.293998" lon="-16.548784">
        <ele>2294.694529</ele>
        <time>2021-03-02T14:17:13.189Z</time>
      </trkpt>
      <trkpt lat="28.294344" lon="-16.548901">
        <ele>2296.265566</ele>
        <time>2021-03-02T14:17:55.572Z</time>
      </trkpt>
      <trkpt lat="28.294405" lon="-16.548922">
        <ele>2296.542952</ele>
        <time>2021-03-02T14:18:03.396Z</time>
      </trkpt>
      <trkpt lat="28.294553" lon="-16.548898">
        <ele>2297.193546</ele>
        <time>2021-03-02T14:18:20.841Z</time>
      </trkpt>
      <trkpt lat="28.295178" lon="-16.548447">
        <ele>2300.048115</ele>
        <time>2021-03-02T14:19:44.128Z</time>
      </trkpt>
      <trkpt lat="28.295883" lon="-16.548172">
        <ele>2299.156054</ele>
        <time>2021-03-02T14:21:01.582Z</time>
      </trkpt>
      <trkpt lat="28.296845" lon="-16.547524">
        <ele>2297.019691</ele>
        <time>2021-03-02T14:23:00.473Z</time>
      </trkpt>
      <trkpt lat="28.297414" lon="-16.546888">
        <ele>2291.222600</ele>
        <time>2021-03-02T14:24:31.555Z</time>
      </trkpt>
      <trkpt lat="28.297738" lon="-16.546351">
        <ele>2287.060495</ele>
        <time>2021-03-02T14:25:38.785Z</time>
      </trkpt>
      <trkpt lat="28.298053" lon="-16.546017">
        <ele>2283.878925</ele>
        <time>2021-03-02T14:26:29.658Z</time>
      </trkpt>
      <trkpt lat="28.298402" lon="-16.545825">
        <ele>2280.913125</ele>
        <time>2021-03-02T14:27:15.154Z</time>
      </trkpt>
      <trkpt lat="28.298503" lon="-16.545817">
        <ele>2280.138803</ele>
        <time>2021-03-02T14:27:26.984Z</time>
      </trkpt>
      <trkpt lat="28.298584" lon="-16.54581"/>
      <trkpt lat="28.299063" lon="-16.545873">
        <ele>2275.829666</ele>
        <time>2021-03-02T14:28:32.339Z</time>
      </trkpt>
      <trkpt lat="28.299711" lon="-16.54635"/>
      <trkpt lat="28.299937" lon="-16.546579">
        <ele>2269.133382</ele>
        <time>2021-03-02T14:30:32.813Z</time>
      </trkpt>
      <trkpt lat="28.300295" lon="-16.547054">
        <ele>2266.732223</ele>
        <time>2021-03-02T14:31:32.343Z</time>
      </trkpt>
      <trkpt lat="28.300753" lon="-16.548014">
        <ele>2262.517364</ele>
        <time>2021-03-02T14:33:15.556Z</time>
      </trkpt>
      <trkpt lat="28.300902" lon="-16.548455">
        <ele>2260.652352</ele>
        <time>2021-03-02T14:34:00.292Z</time>
      </trkpt>
      <trkpt lat="28.300967" lon="-16.548559">
        <ele>2260.148789</ele>
        <time>2021-03-02T14:34:12.487Z</time>
      </trkpt>
      <trkpt lat="28.301042" lon="-16.548558">
        <ele>2259.812441</ele>
        <time>2021-03-02T14:34:20.589Z</time>
      </trkpt>
      <trkpt lat="28.301093" lon="-16.548515">
        <ele>2259.527610</ele>
        <time>2021-03-02T14:34:27.468Z</time>
      </trkpt>
      <trkpt lat="28.30091" lon="-16.547977"/>
      <trkpt lat="28.300699" lon="-16.546162">
        <ele>2248.454152</ele>
        <time>2021-03-02T14:38:23.829Z</time>
      </trkpt>
      <trkpt lat="28.300718" lon="-16.546047">
        <ele>2247.853564</ele>
        <time>2021-03-02T14:38:35.142Z</time>
      </trkpt>
      <trkpt lat="28.300814" lon="-16.546007">
        <ele>2247.257437</ele>
        <time>2021-03-02T14:38:46.354Z</time>
      </trkpt>
      <trkpt lat="28.300878" lon="-16.546058">
        <ele>2246.801659</ele>
        <time>2021-03-02T14:38:55.587Z</time>
      </trkpt>
      <trkpt lat="28.300895" lon="-16.546259">
        <ele>2245.765195</ele>
        <time>2021-03-02T14:39:15.194Z</time>
      </trkpt>
      <trkpt lat="28.30103" lon="-16.547007"/>
      <trkpt lat="28.301281" lon="-16.547406">
        <ele>2239.019041</ele>
        <time>2021-03-02T14:41:19.165Z</time>
      </trkpt>
      <trkpt lat="28.30145" lon="-16.547571"/>
      <trkpt lat="28.301481" lon="-16.547601">
        <ele>2237.394766</ele>
        <time>2021-03-02T14:41:49.225Z</time>
      </trkpt>
      <trkpt lat="28.30176" lon="-16.548154"/>
      <trkpt lat="28.301983" lon="-16.548702">
        <ele>2230.468660</ele>
        <time>2021-03-02T14:43:52.375Z</time>
      </trkpt>
      <trkpt lat="28.301985" lon="-16.54893"/>
      <trkpt lat="28.302426" lon="-16.549364">
        <ele>2225.327213</ele>
        <time>2021-03-02T14:45:21.666Z</time>
      </trkpt>
      <trkpt lat="28.302773" lon="-16.549788">
        <ele>2221.985934</ele>
        <time>2021-03-02T14:46:19.389Z</time>
      </trkpt>
      <trkpt lat="28.303088" lon="-16.550507">
        <ele>2218.020439</ele>
        <time>2021-03-02T14:47:38.343Z</time>
      </trkpt>
      <trkpt lat="28.303211" lon="-16.551003">
        <ele>2215.485371</ele>
        <time>2021-03-02T14:48:28.726Z</time>
      </trkpt>
      <trkpt lat="28.30326" lon="-16.551466"/>
      <trkpt lat="28.303191" lon="-16.552087">
        <ele>2209.888447</ele>
        <time>2021-03-02T14:50:15.432Z</time>
      </trkpt>
      <trkpt lat="28.302888" lon="-16.553226">
        <ele>2203.276697</ele>
        <time>2021-03-02T14:52:13.018Z</time>
      </trkpt>
      <trkpt lat="28.302869" lon="-16.553601">
        <ele>2201.189457</ele>
        <time>2021-03-02T14:52:50.931Z</time>
      </trkpt>
      <trkpt lat="28.30278" lon="-16.554059"/>
      <trkpt lat="28.302721" lon="-16.554366">
        <ele>2195.215734</ele>
        <time>2021-03-02T14:54:11.184Z</time>
      </trkpt>
      <trkpt lat="28.302893" lon="-16.554764">
        <ele>2191.657200</ele>
        <time>2021-03-02T14:54:57.055Z</time>
      </trkpt>
      <trkpt lat="28.302881" lon="-16.555316">
        <ele>2187.225333</ele>
        <time>2021-03-02T14:55:54.869Z</time>
      </trkpt>
      <trkpt lat="28.301922" lon="-16.556873">
        <ele>2168.360654</ele>
        <time>2021-03-02T14:59:18.877Z</time>
      </trkpt>
      <trkpt lat="28.301732" lon="-16.557408">
        <ele>2162.260952</ele>
        <time>2021-03-02T15:00:22.814Z</time>
      </trkpt>
      <trkpt lat="28.301765" lon="-16.557838">
        <ele>2156.884261</ele>
        <time>2021-03-02T15:01:11.226Z</time>
      </trkpt>
      <trkpt lat="28.30269" lon="-16.558543"/>
      <trkpt lat="28.302804" lon="-16.558764">
        <ele>2137.933381</ele>
        <time>2021-03-02T15:04:02.597Z</time>
      </trkpt>
      <trkpt lat="28.303056" lon="-16.558914">
        <ele>2134.313527</ele>
        <time>2021-03-02T15:04:38.584Z</time>
      </trkpt>
      <trkpt lat="28.303086" lon="-16.558991">
        <ele>2133.388020</ele>
        <time>2021-03-02T15:04:47.854Z</time>
      </trkpt>
      <trkpt lat="28.303174" lon="-16.559045">
        <ele>2132.139349</ele>
        <time>2021-03-02T15:05:00.500Z</time>
      </trkpt>
      <trkpt lat="28.303267" lon="-16.559209">
        <ele>2129.995215</ele>
        <time>2021-03-02T15:05:22.039Z</time>
      </trkpt>
      <trkpt lat="28.30326" lon="-16.559307"/>
      <trkpt lat="28.303397" lon="-16.559407">
        <ele>2126.881474</ele>
        <time>2021-03-02T15:05:52.790Z</time>
      </trkpt>
      <trkpt lat="28.303525" lon="-16.559763">
        <ele>2122.654813</ele>
        <time>2021-03-02T15:06:35.325Z</time>
      </trkpt>
      <trkpt lat="28.303477" lon="-16.559837">
        <ele>2121.644546</ele>
        <time>2021-03-02T15:06:45.307Z</time>
      </trkpt>
      <trkpt lat="28.303463" lon="-16.560171">
        <ele>2117.969242</ele>
        <time>2021-03-02T15:07:21.620Z</time>
      </trkpt>
      <trkpt lat="28.30353" lon="-16.560313"/>
      <trkpt lat="28.303442" lon="-16.560383">
        <ele>2114.868417</ele>
        <time>2021-03-02T15:07:52.300Z</time>
      </trkpt>
      <trkpt lat="28.303456" lon="-16.560517">
        <ele>2113.767053</ele>
        <time>2021-03-02T15:08:06.124Z</time>
      </trkpt>
      <trkpt lat="28.303458" lon="-16.560533">
        <ele>2113.635154</ele>
        <time>2021-03-02T15:08:07.971Z</time>
      </trkpt>
      <trkpt lat="28.303554" lon="-16.560774">
        <ele>2111.476196</ele>
        <time>2021-03-02T15:08:36.199Z</time>
      </trkpt>
      <trkpt lat="28.303625" lon="-16.560837">
        <ele>2110.640973</ele>
        <time>2021-03-02T15:08:46.631Z</time>
      </trkpt>
      <trkpt lat="28.303619" lon="-16.560971">
        <ele>2109.545872</ele>
        <time>2021-03-02T15:09:00.257Z</time>
      </trkpt>
      <trkpt lat="28.303611" lon="-16.561005">
        <ele>2109.258630</ele>
        <time>2021-03-02T15:09:05.162Z</time>
      </trkpt>
      <trkpt lat="28.303617" lon="-16.561079">
        <ele>2108.652098</ele>
        <time>2021-03-02T15:09:13.074Z</time>
      </trkpt>
      <trkpt lat="28.303359" lon="-16.561341">
        <ele>2105.443831</ele>
        <time>2021-03-02T15:09:53.738Z</time>
      </trkpt>
      <trkpt lat="28.30298" lon="-16.561509"/>
      <trkpt lat="28.302852" lon="-16.561691">
        <ele>2099.771159</ele>
        <time>2021-03-02T15:11:04.657Z</time>
      </trkpt>
      <trkpt lat="28.302527" lon="-16.562596">
        <ele>2092.680703</ele>
        <time>2021-03-02T15:12:45.264Z</time>
      </trkpt>
      <trkpt lat="28.30198" lon="-16.562905"/>
      <trkpt lat="28.301905" lon="-16.563028">
        <ele>2086.745307</ele>
        <time>2021-03-02T15:14:10.380Z</time>
      </trkpt>
      <trkpt lat="28.30174" lon="-16.563849"/>
      <trkpt lat="28.301632" lon="-16.564393">
        <ele>2076.714727</ele>
        <time>2021-03-02T15:16:34.592Z</time>
      </trkpt>
      <trkpt lat="28.301628" lon="-16.564713">
        <ele>2074.404240</ele>
        <time>2021-03-02T15:17:07.373Z</time>
      </trkpt>
      <trkpt lat="28.301689" lon="-16.564977">
        <ele>2072.433741</ele>
        <time>2021-03-02T15:17:35.183Z</time>
      </trkpt>
      <trkpt lat="28.301737" lon="-16.565081">
        <ele>2071.586003</ele>
        <time>2021-03-02T15:17:47.288Z</time>
      </trkpt>
      <trkpt lat="28.30181" lon="-16.565636"/>
      <trkpt lat="28.301798" lon="-16.566231">
        <ele>2063.977158</ele>
        <time>2021-03-02T15:19:45.855Z</time>
      </trkpt>
      <trkpt lat="28.30183" lon="-16.566344"/>
      <trkpt lat="28.302047" lon="-16.566348">
        <ele>2061.672884</ele>
        <time>2021-03-02T15:20:23.425Z</time>
      </trkpt>
      <trkpt lat="28.302333" lon="-16.566189">
        <ele>2059.390941</ele>
        <time>2021-03-02T15:20:59.855Z</time>
      </trkpt>
      <trkpt lat="28.302588" lon="-16.566133">
        <ele>2057.529673</ele>
        <time>2021-03-02T15:21:29.451Z</time>
      </trkpt>
      <trkpt lat="28.303043" lon="-16.566239">
        <ele>2056.063363</ele>
        <time>2021-03-02T15:22:19.945Z</time>
      </trkpt>
      <trkpt lat="28.30326" lon="-16.56625"/>
      <trkpt lat="28.303695" lon="-16.566304">
        <ele>2055.712349</ele>
        <time>2021-03-02T15:23:27.566Z</time>
      </trkpt>
      <trkpt lat="28.303726" lon="-16.566308">
        <ele>2055.695624</ele>
        <time>2021-03-02T15:23:30.704Z</time>
      </trkpt>
      <trkpt lat="28.303883" lon="-16.566365">
        <ele>2055.607268</ele>
        <time>2021-03-02T15:23:47.829Z</time>
      </trkpt>
      <trkpt lat="28.303924" lon="-16.566281">
        <ele>2055.561938</ele>
        <time>2021-03-02T15:23:56.875Z</time>
      </trkpt>
      <trkpt lat="28.304017" lon="-16.566406">
        <ele>2055.484698</ele>
        <time>2021-03-02T15:24:11.857Z</time>
      </trkpt>
      <trkpt lat="28.304136" lon="-16.566448">
        <ele>2055.417898</ele>
        <time>2021-03-02T15:24:26.292Z</time>
      </trkpt>
      <trkpt lat="28.304147" lon="-16.566456">
        <ele>2055.410897</ele>
        <time>2021-03-02T15:24:27.913Z</time>
      </trkpt>
      <trkpt lat="28.304254" lon="-16.566503">
        <ele>2055.349398</ele>
        <time>2021-03-02T15:24:39.407Z</time>
      </trkpt>
      <trkpt lat="28.304375" lon="-16.566501">
        <ele>2055.284528</ele>
        <time>2021-03-02T15:24:52.420Z</time>
      </trkpt>
      <trkpt lat="28.304382" lon="-16.566518">
        <ele>2055.275671</ele>
        <time>2021-03-02T15:24:56.462Z</time>
      </trkpt>
      <trkpt lat="28.304407" lon="-16.566692">
        <ele>2055.736272</ele>
        <time>2021-03-02T15:25:13.024Z</time>
      </trkpt>
      <trkpt lat="28.304477" lon="-16.566789">
        <ele>2056.238987</ele>
        <time>2021-03-02T15:25:25.384Z</time>
      </trkpt>
      <trkpt lat="28.304715" lon="-16.567021">
        <ele>2057.666828</ele>
        <time>2021-03-02T15:26:03.539Z</time>
      </trkpt>
      <trkpt lat="28.304851" lon="-16.567271">
        <ele>2058.844737</ele>
        <time>2021-03-02T15:26:35.440Z</time>
      </trkpt>
      <trkpt lat="28.305028" lon="-16.567411">
        <ele>2059.826679</ele>
        <time>2021-03-02T15:27:00.266Z</time>
      </trkpt>
      <trkpt lat="28.30509" lon="-16.567524"/>
      <trkpt lat="28.305083" lon="-16.567655">
        <ele>2060.886405</ele>
        <time>2021-03-02T15:27:28.593Z</time>
      </trkpt>
      <trkpt lat="28.30507" lon="-16.567802"/>
      <trkpt lat="28.304963" lon="-16.568029">
        <ele>2062.510641</ele>
        <time>2021-03-02T15:28:09.984Z</time>
      </trkpt>
      <trkpt lat="28.304886" lon="-16.568105">
        <ele>2062.975055</ele>
        <time>2021-03-02T15:28:21.325Z</time>
      </trkpt>
      <trkpt lat="28.304771" lon="-16.568208">
        <ele>2063.538387</ele>
        <time>2021-03-02T15:28:37.717Z</time>
      </trkpt>
      <trkpt lat="28.304716" lon="-16.56829"/>
      <trkpt lat="28.304627" lon="-16.568425">
        <ele>2064.074436</ele>
        <time>2021-03-02T15:29:03.744Z</time>
      </trkpt>
      <trkpt lat="28.304533" lon="-16.568484">
        <ele>2064.315070</ele>
        <time>2021-03-02T15:29:16.219Z</time>
      </trkpt>
      <trkpt lat="28.304533" lon="-16.568484">
        <ele>2064.315070</ele>
        <time>2021-03-02T15:29:16.219Z</time>
      </trkpt>
      <trkpt lat="28.3045" lon="-16.568493"/>
      <trkpt lat="28.304469" lon="-16.568709">
        <ele>2064.822835</ele>
        <time>2021-03-02T15:29:40.979Z</time>
      </trkpt>
      <trkpt lat="28.304604" lon="-16.568934">
        <ele>2065.359956</ele>
        <time>2021-03-02T15:30:07.334Z</time>
      </trkpt>
      <trkpt lat="28.304568" lon="-16.569008">
        <ele>2065.526737</ele>
        <time>2021-03-02T15:30:15.736Z</time>
      </trkpt>
      <trkpt lat="28.304491" lon="-16.56907"/>
      <trkpt lat="28.30438" lon="-16.569333"/>
      <trkpt lat="28.3043" lon="-16.569454"/>
      <trkpt lat="28.304329" lon="-16.569595">
        <ele>2066.897705</ele>
        <time>2021-03-02T15:31:19.670Z</time>
      </trkpt>
      <trkpt lat="28.304283" lon="-16.569747">
        <ele>2067.214773</ele>
        <time>2021-03-02T15:31:34.395Z</time>
      </trkpt>
      <trkpt lat="28.304369" lon="-16.570127">
        <ele>2067.621857</ele>
        <time>2021-03-02T15:32:10.093Z</time>
      </trkpt>
      <trkpt lat="28.30433" lon="-16.570232"/>
      <trkpt lat="28.304234" lon="-16.5703"/>
      <trkpt lat="28.304039" lon="-16.570322">
        <ele>2067.892691</ele>
        <time>2021-03-02T15:32:52.495Z</time>
      </trkpt>
      <trkpt lat="28.303919" lon="-16.570735">
        <ele>2068.145980</ele>
        <time>2021-03-02T15:33:32.641Z</time>
      </trkpt>
      <trkpt lat="28.303735" lon="-16.570933">
        <ele>2068.313644</ele>
        <time>2021-03-02T15:33:58.608Z</time>
      </trkpt>
      <trkpt lat="28.30343" lon="-16.57093"/>
      <trkpt lat="28.303319" lon="-16.571015">
        <ele>2068.603957</ele>
        <time>2021-03-02T15:34:43.028Z</time>
      </trkpt>
      <trkpt lat="28.303091" lon="-16.571352">
        <ele>2068.070382</ele>
        <time>2021-03-02T15:35:20.926Z</time>
      </trkpt>
      <trkpt lat="28.302934" lon="-16.571454">
        <ele>2067.707197</ele>
        <time>2021-03-02T15:35:39.465Z</time>
      </trkpt>
      <trkpt lat="28.302874" lon="-16.571648">
        <ele>2067.343673</ele>
        <time>2021-03-02T15:35:58.177Z</time>
      </trkpt>
      <trkpt lat="28.302859" lon="-16.57195"/>
      <trkpt lat="28.302598" lon="-16.57228"/>
      <trkpt lat="28.30257" lon="-16.572316"/>
      <trkpt lat="28.302628" lon="-16.572973">
        <ele>2064.918735</ele>
        <time>2021-03-02T15:38:14.390Z</time>
      </trkpt>
      <trkpt lat="28.302598" lon="-16.573131">
        <ele>2064.785666</ele>
        <time>2021-03-02T15:38:29.904Z</time>
      </trkpt>
      <trkpt lat="28.302735" lon="-16.57335"/>
      <trkpt lat="28.302746" lon="-16.573457">
        <ele>2064.475802</ele>
        <time>2021-03-02T15:39:04.384Z</time>
      </trkpt>
      <trkpt lat="28.302979" lon="-16.573705">
        <ele>2064.177216</ele>
        <time>2021-03-02T15:39:36.878Z</time>
      </trkpt>
      <trkpt lat="28.303303" lon="-16.573727">
        <ele>2063.873715</ele>
        <time>2021-03-02T15:40:09.526Z</time>
      </trkpt>
      <trkpt lat="28.303366" lon="-16.573742">
        <ele>2063.813525</ele>
        <time>2021-03-02T15:40:16.400Z</time>
      </trkpt>
      <trkpt lat="28.30355" lon="-16.573791"/>
      <trkpt lat="28.303644" lon="-16.573911">
        <ele>2063.504574</ele>
        <time>2021-03-02T15:40:50.370Z</time>
      </trkpt>
      <trkpt lat="28.303652" lon="-16.574148">
        <ele>2063.520384</ele>
        <time>2021-03-02T15:41:11.953Z</time>
      </trkpt>
      <trkpt lat="28.303656" lon="-16.574284">
        <ele>2063.837291</ele>
        <time>2021-03-02T15:41:25.326Z</time>
      </trkpt>
      <trkpt lat="28.303698" lon="-16.574743">
        <ele>2064.912011</ele>
        <time>2021-03-02T15:42:08.664Z</time>
      </trkpt>
      <trkpt lat="28.303519" lon="-16.575651">
        <ele>2067.079008</ele>
        <time>2021-03-02T15:43:41.506Z</time>
      </trkpt>
      <trkpt lat="28.303291" lon="-16.576131">
        <ele>2068.096667</ele>
        <time>2021-03-02T15:44:35.705Z</time>
      </trkpt>
      <trkpt lat="28.303275" lon="-16.576385">
        <ele>2068.030294</ele>
        <time>2021-03-02T15:44:58.992Z</time>
      </trkpt>
      <trkpt lat="28.303346" lon="-16.576512">
        <ele>2067.991083</ele>
        <time>2021-03-02T15:45:13.437Z</time>
      </trkpt>
      <trkpt lat="28.303388" lon="-16.576541">
        <ele>2067.976532</ele>
        <time>2021-03-02T15:45:18.517Z</time>
      </trkpt>
      <trkpt lat="28.303698" lon="-16.576776">
        <ele>2067.866199</ele>
        <time>2021-03-02T15:45:56.317Z</time>
      </trkpt>
      <trkpt lat="28.304132" lon="-16.576991">
        <ele>2067.726030</ele>
        <time>2021-03-02T15:46:44.424Z</time>
      </trkpt>
      <trkpt lat="28.3043" lon="-16.577231"/>
      <trkpt lat="28.304265" lon="-16.57776"/>
      <trkpt lat="28.304183" lon="-16.578019">
        <ele>2064.929952</ele>
        <time>2021-03-02T15:48:29.143Z</time>
      </trkpt>
      <trkpt lat="28.304896" lon="-16.578598">
        <ele>2060.434528</ele>
        <time>2021-03-02T15:50:07.941Z</time>
      </trkpt>
      <trkpt lat="28.305167" lon="-16.578966">
        <ele>2058.329466</ele>
        <time>2021-03-02T15:50:54.864Z</time>
      </trkpt>
      <trkpt lat="28.305348" lon="-16.579087">
        <ele>2057.937222</ele>
        <time>2021-03-02T15:51:18.417Z</time>
      </trkpt>
      <trkpt lat="28.305451" lon="-16.579293">
        <ele>2057.547684</ele>
        <time>2021-03-02T15:51:40.783Z</time>
      </trkpt>
      <trkpt lat="28.305543" lon="-16.579455">
        <ele>2057.230699</ele>
        <time>2021-03-02T15:51:59.240Z</time>
      </trkpt>
      <trkpt lat="28.30572" lon="-16.579632"/>
      <trkpt lat="28.306026" lon="-16.579841">
        <ele>2056.123408</ele>
        <time>2021-03-02T15:53:01.218Z</time>
      </trkpt>
      <trkpt lat="28.305918" lon="-16.580242">
        <ele>2055.433883</ele>
        <time>2021-03-02T15:53:38.696Z</time>
      </trkpt>
      <trkpt lat="28.30604" lon="-16.580557"/>
      <trkpt lat="28.306274" lon="-16.580659">
        <ele>2056.441451</ele>
        <time>2021-03-02T15:54:39.286Z</time>
      </trkpt>
      <trkpt lat="28.306512" lon="-16.580639">
        <ele>2057.498500</ele>
        <time>2021-03-02T15:55:06.942Z</time>
      </trkpt>
      <trkpt lat="28.306493" lon="-16.580838">
        <ele>2058.279079</ele>
        <time>2021-03-02T15:55:27.721Z</time>
      </trkpt>
      <trkpt lat="28.306561" lon="-16.581036">
        <ele>2059.107872</ele>
        <time>2021-03-02T15:55:49.836Z</time>
      </trkpt>
      <trkpt lat="28.306444" lon="-16.581785">
        <ele>2062.074320</ele>
        <time>2021-03-02T15:57:09.885Z</time>
      </trkpt>
      <trkpt lat="28.306668" lon="-16.582073">
        <ele>2063.500772</ele>
        <time>2021-03-02T15:57:50.034Z</time>
      </trkpt>
      <trkpt lat="28.306885" lon="-16.582136">
        <ele>2064.373731</ele>
        <time>2021-03-02T15:58:16.205Z</time>
      </trkpt>
      <trkpt lat="28.307231" lon="-16.582562">
        <ele>2066.362567</ele>
        <time>2021-03-02T15:59:15.124Z</time>
      </trkpt>
      <trkpt lat="28.30722" lon="-16.582753"/>
      <trkpt lat="28.307133" lon="-16.583093">
        <ele>2068.234355</ele>
        <time>2021-03-02T16:00:09.303Z</time>
      </trkpt>
      <trkpt lat="28.307068" lon="-16.583351">
        <ele>2069.155209</ele>
        <time>2021-03-02T16:00:35.496Z</time>
      </trkpt>
      <trkpt lat="28.3073" lon="-16.58365"/>
      <trkpt lat="28.307492" lon="-16.584135">
        <ele>2071.173211</ele>
        <time>2021-03-02T16:02:03.822Z</time>
      </trkpt>
      <trkpt lat="28.307412" lon="-16.584576">
        <ele>2071.951112</ele>
        <time>2021-03-02T16:02:45.966Z</time>
      </trkpt>
      <trkpt lat="28.307456" lon="-16.584951">
        <ele>2072.604710</ele>
        <time>2021-03-02T16:03:21.415Z</time>
      </trkpt>
      <trkpt lat="28.307502" lon="-16.585045">
        <ele>2072.790510</ele>
        <time>2021-03-02T16:03:31.437Z</time>
      </trkpt>
      <trkpt lat="28.307615" lon="-16.58514"/>
      <trkpt lat="28.307775" lon="-16.58548"/>
      <trkpt lat="28.307949" lon="-16.585542">
        <ele>2074.093267</ele>
        <time>2021-03-02T16:04:41.867Z</time>
      </trkpt>
      <trkpt lat="28.308241" lon="-16.585876">
        <ele>2074.910662</ele>
        <time>2021-03-02T16:05:26.214Z</time>
      </trkpt>
      <trkpt lat="28.308481" lon="-16.586464">
        <ele>2076.036153</ele>
        <time>2021-03-02T16:06:27.895Z</time>
      </trkpt>
      <trkpt lat="28.308477" lon="-16.58659"/>
      <trkpt lat="28.308781" lon="-16.586916">
        <ele>2077.049634</ele>
        <time>2021-03-02T16:07:24.875Z</time>
      </trkpt>
      <trkpt lat="28.309235" lon="-16.587143">
        <ele>2076.562166</ele>
        <time>2021-03-02T16:08:17.406Z</time>
      </trkpt>
      <trkpt lat="28.309459" lon="-16.587527">
        <ele>2076.163627</ele>
        <time>2021-03-02T16:08:58.203Z</time>
      </trkpt>
      <trkpt lat="28.309883" lon="-16.587683">
        <ele>2075.725640</ele>
        <time>2021-03-02T16:09:44.149Z</time>
      </trkpt>
      <trkpt lat="28.309936" lon="-16.587702">
        <ele>2075.671024</ele>
        <time>2021-03-02T16:09:50.117Z</time>
      </trkpt>
      <trkpt lat="28.310026" lon="-16.587779">
        <ele>2075.560297</ele>
        <time>2021-03-02T16:10:02.047Z</time>
      </trkpt>
      <trkpt lat="28.310047" lon="-16.587896">
        <ele>2075.456989</ele>
        <time>2021-03-02T16:10:13.042Z</time>
      </trkpt>
      <trkpt lat="28.310118" lon="-16.587982">
        <ele>2075.354987</ele>
        <time>2021-03-02T16:10:24.296Z</time>
      </trkpt>
      <trkpt lat="28.310303" lon="-16.588266">
        <ele>2073.579276</ele>
        <time>2021-03-02T16:10:58.081Z</time>
      </trkpt>
      <trkpt lat="28.310371" lon="-16.58838"/>
      <trkpt lat="28.310714" lon="-16.588604">
        <ele>2069.995388</ele>
        <time>2021-03-02T16:11:56.594Z</time>
      </trkpt>
      <trkpt lat="28.310612" lon="-16.588538">
        <ele>2064.071353</ele>
        <time>2021-03-01T22:30:45.804Z</time>
      </trkpt>
      <trkpt lat="28.310714" lon="-16.588604">
        <ele>2064.071353</ele>
        <time>2021-03-01T22:30:50.774Z</time>
      </trkpt>
      <trkpt lat="28.310901" lon="-16.588821">
        <ele>2064.071353</ele>
        <time>2021-03-01T22:31:02.126Z</time>
      </trkpt>
      <trkpt lat="28.311054" lon="-16.588813">
        <ele>2064.071353</ele>
        <time>2021-03-01T22:31:08.475Z</time>
      </trkpt>
      <trkpt lat="28.311153" lon="-16.58916"/>
      <trkpt lat="28.311448" lon="-16.589539">
        <ele>2062.187590</ele>
        <time>2021-03-01T22:31:39.729Z</time>
      </trkpt>
      <trkpt lat="28.311493" lon="-16.589984">
        <ele>2060.353702</ele>
        <time>2021-03-01T22:31:55.845Z</time>
      </trkpt>
      <trkpt lat="28.31187" lon="-16.590412"/>
      <trkpt lat="28.31228" lon="-16.591112"/>
      <trkpt lat="28.312455" lon="-16.591248">
        <ele>2058.616634</ele>
        <time>2021-03-01T22:33:05.591Z</time>
      </trkpt>
      <trkpt lat="28.313305" lon="-16.591645">
        <ele>2064.118939</ele>
        <time>2021-03-01T22:34:02.707Z</time>
      </trkpt>
      <trkpt lat="28.313858" lon="-16.592067">
        <ele>2068.974789</ele>
        <time>2021-03-01T22:35:01.237Z</time>
      </trkpt>
      <trkpt lat="28.313944" lon="-16.592236">
        <ele>2070.550317</ele>
        <time>2021-03-01T22:35:16.171Z</time>
      </trkpt>
      <trkpt lat="28.314037" lon="-16.59213"/>
      <trkpt lat="28.314083" lon="-16.59216"/>
      <trkpt lat="28.314221" lon="-16.592108">
        <ele>2073.577493</ele>
        <time>2021-03-01T22:35:42.243Z</time>
      </trkpt>
      <trkpt lat="28.314284" lon="-16.592152">
        <ele>2074.255529</ele>
        <time>2021-03-01T22:35:48.582Z</time>
      </trkpt>
      <trkpt lat="28.314459" lon="-16.592092">
        <ele>2075.931445</ele>
        <time>2021-03-01T22:36:00.796Z</time>
      </trkpt>
      <trkpt lat="28.314637" lon="-16.592124">
        <ele>2077.583683</ele>
        <time>2021-03-01T22:36:15.751Z</time>
      </trkpt>
      <trkpt lat="28.314843" lon="-16.592091">
        <ele>2079.491006</ele>
        <time>2021-03-01T22:36:29.160Z</time>
      </trkpt>
      <trkpt lat="28.315577" lon="-16.591613">
        <ele>2083.453112</ele>
        <time>2021-03-01T22:37:20.854Z</time>
      </trkpt>
      <trkpt lat="28.315772" lon="-16.591404">
        <ele>2083.733038</ele>
        <time>2021-03-01T22:37:34.919Z</time>
      </trkpt>
      <trkpt lat="28.316126" lon="-16.591445">
        <ele>2084.104567</ele>
        <time>2021-03-01T22:37:52.492Z</time>
      </trkpt>
      <trkpt lat="28.316352" lon="-16.591408">
        <ele>2084.342972</ele>
        <time>2021-03-01T22:38:02.927Z</time>
      </trkpt>
      <trkpt lat="28.316596" lon="-16.591292">
        <ele>2084.619146</ele>
        <time>2021-03-01T22:38:14.740Z</time>
      </trkpt>
      <trkpt lat="28.316618" lon="-16.591235">
        <ele>2084.676352</ele>
        <time>2021-03-01T22:38:17.385Z</time>
      </trkpt>
      <trkpt lat="28.316707" lon="-16.591009">
        <ele>2084.636183</ele>
        <time>2021-03-01T22:38:27.189Z</time>
      </trkpt>
      <trkpt lat="28.3168" lon="-16.590919"/>
      <trkpt lat="28.317008" lon="-16.590867">
        <ele>2083.438680</ele>
        <time>2021-03-01T22:38:42.217Z</time>
      </trkpt>
      <trkpt lat="28.317109" lon="-16.590709">
        <ele>2082.824496</ele>
        <time>2021-03-01T22:38:49.902Z</time>
      </trkpt>
      <trkpt lat="28.317103" lon="-16.590434">
        <ele>2081.959230</ele>
        <time>2021-03-01T22:39:00.624Z</time>
      </trkpt>
      <trkpt lat="28.317188" lon="-16.590336">
        <ele>2081.526496</ele>
        <time>2021-03-01T22:39:06.038Z</time>
      </trkpt>
      <trkpt lat="28.317662" lon="-16.590248">
        <ele>2079.810415</ele>
        <time>2021-03-01T22:39:27.055Z</time>
      </trkpt>
      <trkpt lat="28.317823" lon="-16.590023">
        <ele>2078.898390</ele>
        <time>2021-03-01T22:39:38.312Z</time>
      </trkpt>
      <trkpt lat="28.317967" lon="-16.589691">
        <ele>2077.502241</ele>
        <time>2021-03-01T22:39:52.689Z</time>
      </trkpt>
      <trkpt lat="28.318089" lon="-16.589374">
        <ele>2076.044143</ele>
        <time>2021-03-01T22:40:06.040Z</time>
      </trkpt>
      <trkpt lat="28.318141" lon="-16.589025">
        <ele>2074.552353</ele>
        <time>2021-03-01T22:40:19.659Z</time>
      </trkpt>
      <trkpt lat="28.318769" lon="-16.588767">
        <ele>2071.355246</ele>
        <time>2021-03-01T22:40:48.326Z</time>
      </trkpt>
      <trkpt lat="28.31923" lon="-16.588304"/>
      <trkpt lat="28.319562" lon="-16.58778"/>
      <trkpt lat="28.320219" lon="-16.587377">
        <ele>2058.807719</ele>
        <time>2021-03-01T22:42:08.845Z</time>
      </trkpt>
      <trkpt lat="28.320802" lon="-16.586922">
        <ele>2052.466420</ele>
        <time>2021-03-01T22:42:37.144Z</time>
      </trkpt>
      <trkpt lat="28.321339" lon="-16.586663">
        <ele>2046.775668</ele>
        <time>2021-03-01T22:42:59.711Z</time>
      </trkpt>
      <trkpt lat="28.32146" lon="-16.586553"/>
      <trkpt lat="28.32153" lon="-16.586383"/>
      <trkpt lat="28.32161" lon="-16.586304"/>
      <trkpt lat="28.321673" lon="-16.586354">
        <ele>2041.868727</ele>
        <time>2021-03-01T22:43:19.546Z</time>
      </trkpt>
      <trkpt lat="28.321685" lon="-16.586459">
        <ele>2040.959539</ele>
        <time>2021-03-01T22:43:23.097Z</time>
      </trkpt>
      <trkpt lat="28.321616" lon="-16.586774">
        <ele>2037.654007</ele>
        <time>2021-03-01T22:43:34.061Z</time>
      </trkpt>
      <trkpt lat="28.321746" lon="-16.58669"/>
      <trkpt lat="28.32191" lon="-16.586714"/>
      <trkpt lat="28.322327" lon="-16.586917">
        <ele>2027.970395</ele>
        <time>2021-03-01T22:44:03.133Z</time>
      </trkpt>
      <trkpt lat="28.322708" lon="-16.58704"/>
      <trkpt lat="28.323134" lon="-16.587286">
        <ele>2016.931629</ele>
        <time>2021-03-01T22:44:36.118Z</time>
      </trkpt>
      <trkpt lat="28.324372" lon="-16.587681">
        <ele>1999.374429</ele>
        <time>2021-03-01T22:45:24.578Z</time>
      </trkpt>
      <trkpt lat="28.32447" lon="-16.587754"/>
      <trkpt lat="28.324622" lon="-16.587866">
        <ele>1995.300692</ele>
        <time>2021-03-01T22:45:35.834Z</time>
      </trkpt>
      <trkpt lat="28.324815" lon="-16.587864">
        <ele>1992.669648</ele>
        <time>2021-03-01T22:45:43.095Z</time>
      </trkpt>
      <trkpt lat="28.32516" lon="-16.587961"/>
      <trkpt lat="28.325372" lon="-16.587952">
        <ele>1985.427976</ele>
        <time>2021-03-01T22:46:04.815Z</time>
      </trkpt>
      <trkpt lat="28.325575" lon="-16.587861">
        <ele>1982.643460</ele>
        <time>2021-03-01T22:46:13.098Z</time>
      </trkpt>
      <trkpt lat="28.325795" lon="-16.587695">
        <ele>1979.273629</ele>
        <time>2021-03-01T22:46:23.059Z</time>
      </trkpt>
      <trkpt lat="28.325849" lon="-16.587515">
        <ele>1977.137755</ele>
        <time>2021-03-01T22:46:29.517Z</time>
      </trkpt>
      <trkpt lat="28.325996" lon="-16.587467">
        <ele>1975.186186</ele>
        <time>2021-03-01T22:46:35.260Z</time>
      </trkpt>
      <trkpt lat="28.326" lon="-16.587574"/>
      <trkpt lat="28.325917" lon="-16.588089">
        <ele>1967.765348</ele>
        <time>2021-03-01T22:46:56.327Z</time>
      </trkpt>
      <trkpt lat="28.326506" lon="-16.587673">
        <ele>1957.135083</ele>
        <time>2021-03-01T22:47:22.444Z</time>
      </trkpt>
      <trkpt lat="28.326591" lon="-16.587671">
        <ele>1955.831986</ele>
        <time>2021-03-01T22:47:25.628Z</time>
      </trkpt>
      <trkpt lat="28.326688" lon="-16.587754">
        <ele>1953.970687</ele>
        <time>2021-03-01T22:47:30.203Z</time>
      </trkpt>
      <trkpt lat="28.326987" lon="-16.588197">
        <ele>1946.439016</ele>
        <time>2021-03-01T22:47:48.725Z</time>
      </trkpt>
      <trkpt lat="28.327155" lon="-16.588358">
        <ele>1943.070196</ele>
        <time>2021-03-01T22:47:56.925Z</time>
      </trkpt>
      <trkpt lat="28.327742" lon="-16.588782">
        <ele>1930.728560</ele>
        <time>2021-03-01T22:48:22.931Z</time>
      </trkpt>
      <trkpt lat="28.328432" lon="-16.589064">
        <ele>1917.563216</ele>
        <time>2021-03-01T22:48:50.373Z</time>
      </trkpt>
      <trkpt lat="28.328718" lon="-16.589229">
        <ele>1911.804272</ele>
        <time>2021-03-01T22:49:02.365Z</time>
      </trkpt>
      <trkpt lat="28.328949" lon="-16.58924"/>
      <trkpt lat="28.329096" lon="-16.589342">
        <ele>1904.236353</ele>
        <time>2021-03-01T22:49:17.406Z</time>
      </trkpt>
      <trkpt lat="28.329209" lon="-16.589306">
        <ele>1902.001755</ele>
        <time>2021-03-01T22:49:21.777Z</time>
      </trkpt>
      <trkpt lat="28.329427" lon="-16.589114">
        <ele>1896.749606</ele>
        <time>2021-03-01T22:49:32.090Z</time>
      </trkpt>
      <trkpt lat="28.329533" lon="-16.589087">
        <ele>1894.681185</ele>
        <time>2021-03-01T22:49:36.102Z</time>
      </trkpt>
      <trkpt lat="28.32974" lon="-16.589278"/>
      <trkpt lat="28.329855" lon="-16.589324">
        <ele>1887.282097</ele>
        <time>2021-03-01T22:49:50.653Z</time>
      </trkpt>
      <trkpt lat="28.330213" lon="-16.589328">
        <ele>1880.465201</ele>
        <time>2021-03-01T22:50:03.968Z</time>
      </trkpt>
      <trkpt lat="28.330555" lon="-16.58944"/>
      <trkpt lat="28.33069" lon="-16.589414"/>
      <trkpt lat="28.330874" lon="-16.589288">
        <ele>1867.616575</ele>
        <time>2021-03-01T22:50:30.372Z</time>
      </trkpt>
      <trkpt lat="28.331001" lon="-16.589273">
        <ele>1865.360767</ele>
        <time>2021-03-01T22:50:35.168Z</time>
      </trkpt>
      <trkpt lat="28.331432" lon="-16.589503">
        <ele>1856.948076</ele>
        <time>2021-03-01T22:50:52.923Z</time>
      </trkpt>
      <trkpt lat="28.331705" lon="-16.589581">
        <ele>1851.974785</ele>
        <time>2021-03-01T22:51:03.429Z</time>
      </trkpt>
      <trkpt lat="28.332012" lon="-16.589886">
        <ele>1844.769692</ele>
        <time>2021-03-01T22:51:18.762Z</time>
      </trkpt>
      <trkpt lat="28.332669" lon="-16.590193">
        <ele>1834.828780</ele>
        <time>2021-03-01T22:51:45.541Z</time>
      </trkpt>
      <trkpt lat="28.333033" lon="-16.590269">
        <ele>1829.751697</ele>
        <time>2021-03-01T22:51:59.512Z</time>
      </trkpt>
      <trkpt lat="28.333706" lon="-16.590604">
        <ele>1819.672016</ele>
        <time>2021-03-01T22:52:27.262Z</time>
      </trkpt>
      <trkpt lat="28.334136" lon="-16.590991">
        <ele>1811.443969</ele>
        <time>2021-03-01T22:52:48.040Z</time>
      </trkpt>
      <trkpt lat="28.334605" lon="-16.591137">
        <ele>1804.110452</ele>
        <time>2021-03-01T22:53:06.374Z</time>
      </trkpt>
      <trkpt lat="28.335012" lon="-16.591133">
        <ele>1797.972408</ele>
        <time>2021-03-01T22:53:21.645Z</time>
      </trkpt>
      <trkpt lat="28.335779" lon="-16.591328">
        <ele>1783.739699</ele>
        <time>2021-03-01T22:53:50.967Z</time>
      </trkpt>
      <trkpt lat="28.336078" lon="-16.591571">
        <ele>1775.988269</ele>
        <time>2021-03-01T22:54:04.674Z</time>
      </trkpt>
      <trkpt lat="28.33635" lon="-16.591521"/>
      <trkpt lat="28.336659" lon="-16.591352">
        <ele>1762.947549</ele>
        <time>2021-03-01T22:54:27.579Z</time>
      </trkpt>
      <trkpt lat="28.337005" lon="-16.591599">
        <ele>1754.331457</ele>
        <time>2021-03-01T22:54:42.808Z</time>
      </trkpt>
      <trkpt lat="28.337364" lon="-16.591656">
        <ele>1746.105339</ele>
        <time>2021-03-01T22:54:56.330Z</time>
      </trkpt>
      <trkpt lat="28.337753" lon="-16.591637">
        <ele>1737.256056</ele>
        <time>2021-03-01T22:55:10.850Z</time>
      </trkpt>
      <trkpt lat="28.337841" lon="-16.591945">
        <ele>1730.778267</ele>
        <time>2021-03-01T22:55:21.454Z</time>
      </trkpt>
      <trkpt lat="28.338823" lon="-16.592202">
        <ele>1707.966902</ele>
        <time>2021-03-01T22:55:58.797Z</time>
      </trkpt>
      <trkpt lat="28.33915" lon="-16.592248"/>
      <trkpt lat="28.339382" lon="-16.592218">
        <ele>1695.388107</ele>
        <time>2021-03-01T22:56:19.673Z</time>
      </trkpt>
      <trkpt lat="28.339961" lon="-16.592458">
        <ele>1681.617679</ele>
        <time>2021-03-01T22:56:42.565Z</time>
      </trkpt>
      <trkpt lat="28.340213" lon="-16.592486">
        <ele>1675.960471</ele>
        <time>2021-03-01T22:56:52.027Z</time>
      </trkpt>
      <trkpt lat="28.340386" lon="-16.592506">
        <ele>1672.008975</ele>
        <time>2021-03-01T22:56:58.597Z</time>
      </trkpt>
      <trkpt lat="28.340709" lon="-16.592618">
        <ele>1663.978635</ele>
        <time>2021-03-01T22:57:11.502Z</time>
      </trkpt>
      <trkpt lat="28.340848" lon="-16.592747">
        <ele>1659.710859</ele>
        <time>2021-03-01T22:57:18.413Z</time>
      </trkpt>
      <trkpt lat="28.34138" lon="-16.592732"/>
      <trkpt lat="28.341625" lon="-16.592591">
        <ele>1640.525944</ele>
        <time>2021-03-01T22:57:48.866Z</time>
      </trkpt>
      <trkpt lat="28.341951" lon="-16.592521">
        <ele>1632.636774</ele>
        <time>2021-03-01T22:58:01.315Z</time>
      </trkpt>
      <trkpt lat="28.342128" lon="-16.592594">
        <ele>1628.460987</ele>
        <time>2021-03-01T22:58:08.315Z</time>
      </trkpt>
      <trkpt lat="28.342423" lon="-16.592475">
        <ele>1622.049246</ele>
        <time>2021-03-01T22:58:19.960Z</time>
      </trkpt>
      <trkpt lat="28.342592" lon="-16.592485">
        <ele>1618.583074</ele>
        <time>2021-03-01T22:58:26.241Z</time>
      </trkpt>
      <trkpt lat="28.342754" lon="-16.59256"/>
      <trkpt lat="28.343316" lon="-16.592664">
        <ele>1603.337457</ele>
        <time>2021-03-01T22:58:53.881Z</time>
      </trkpt>
      <trkpt lat="28.343749" lon="-16.592638">
        <ele>1594.456315</ele>
        <time>2021-03-01T22:59:10.123Z</time>
      </trkpt>
      <trkpt lat="28.344136" lon="-16.59237"/>
      <trkpt lat="28.344267" lon="-16.592413">
        <ele>1584.848268</ele>
        <time>2021-03-01T22:59:32.204Z</time>
      </trkpt>
      <trkpt lat="28.344395" lon="-16.592487">
        <ele>1582.559739</ele>
        <time>2021-03-01T22:59:37.610Z</time>
      </trkpt>
      <trkpt lat="28.344482" lon="-16.592361">
        <ele>1580.313726</ele>
        <time>2021-03-01T22:59:42.913Z</time>
      </trkpt>
      <trkpt lat="28.344728" lon="-16.592385">
        <ele>1576.379289</ele>
        <time>2021-03-01T22:59:52.164Z</time>
      </trkpt>
      <trkpt lat="28.344858" lon="-16.592619">
        <ele>1572.498425</ele>
        <time>2021-03-01T23:00:01.362Z</time>
      </trkpt>
      <trkpt lat="28.344918" lon="-16.592645">
        <ele>1571.475151</ele>
        <time>2021-03-01T23:00:03.793Z</time>
      </trkpt>
      <trkpt lat="28.345108" lon="-16.592517">
        <ele>1567.955324</ele>
        <time>2021-03-01T23:00:12.125Z</time>
      </trkpt>
      <trkpt lat="28.345135" lon="-16.592532">
        <ele>1567.476403</ele>
        <time>2021-03-01T23:00:13.234Z</time>
      </trkpt>
      <trkpt lat="28.345266" lon="-16.59279"/>
      <trkpt lat="28.345424" lon="-16.592705">
        <ele>1560.550115</ele>
        <time>2021-03-01T23:00:29.726Z</time>
      </trkpt>
      <trkpt lat="28.345538" lon="-16.592833">
        <ele>1558.017881</ele>
        <time>2021-03-01T23:00:35.748Z</time>
      </trkpt>
      <trkpt lat="28.345568" lon="-16.592971">
        <ele>1556.041270</ele>
        <time>2021-03-01T23:00:40.434Z</time>
      </trkpt>
      <trkpt lat="28.346247" lon="-16.59321"/>
      <trkpt lat="28.346706" lon="-16.593454">
        <ele>1536.803768</ele>
        <time>2021-03-01T23:01:26.146Z</time>
      </trkpt>
      <trkpt lat="28.346993" lon="-16.593683">
        <ele>1530.954024</ele>
        <time>2021-03-01T23:01:39.317Z</time>
      </trkpt>
      <trkpt lat="28.347296" lon="-16.593799">
        <ele>1525.599533</ele>
        <time>2021-03-01T23:01:51.294Z</time>
      </trkpt>
      <trkpt lat="28.347734" lon="-16.593876">
        <ele>1518.177261</ele>
        <time>2021-03-01T23:02:07.901Z</time>
      </trkpt>
      <trkpt lat="28.347893" lon="-16.59385"/>
      <trkpt lat="28.348029" lon="-16.593516">
        <ele>1510.063178</ele>
        <time>2021-03-01T23:02:26.092Z</time>
      </trkpt>
      <trkpt lat="28.348295" lon="-16.593314">
        <ele>1504.309643</ele>
        <time>2021-03-01T23:02:38.112Z</time>
      </trkpt>
      <trkpt lat="28.348471" lon="-16.59328"/>
      <trkpt lat="28.348597" lon="-16.59355"/>
      <trkpt lat="28.348811" lon="-16.593654">
        <ele>1490.083229</ele>
        <time>2021-03-01T23:03:03.457Z</time>
      </trkpt>
      <trkpt lat="28.349023" lon="-16.593694">
        <ele>1485.588771</ele>
        <time>2021-03-01T23:03:11.443Z</time>
      </trkpt>
      <trkpt lat="28.349266" lon="-16.593764">
        <ele>1480.345918</ele>
        <time>2021-03-01T23:03:20.779Z</time>
      </trkpt>
      <trkpt lat="28.349473" lon="-16.5939"/>
      <trkpt lat="28.34959" lon="-16.594063"/>
      <trkpt lat="28.349689" lon="-16.594056">
        <ele>1469.399216</ele>
        <time>2021-03-01T23:03:41.185Z</time>
      </trkpt>
      <trkpt lat="28.349881" lon="-16.593966">
        <ele>1464.270989</ele>
        <time>2021-03-01T23:03:48.938Z</time>
      </trkpt>
      <trkpt lat="28.34994" lon="-16.593865"/>
      <trkpt lat="28.349944" lon="-16.593519">
        <ele>1453.808805</ele>
        <time>2021-03-01T23:04:04.643Z</time>
      </trkpt>
      <trkpt lat="28.350005" lon="-16.593506">
        <ele>1452.229770</ele>
        <time>2021-03-01T23:04:07.476Z</time>
      </trkpt>
      <trkpt lat="28.350286" lon="-16.593637">
        <ele>1444.502193</ele>
        <time>2021-03-01T23:04:18.859Z</time>
      </trkpt>
      <trkpt lat="28.350991" lon="-16.593314">
        <ele>1425.162306</ele>
        <time>2021-03-01T23:04:49.288Z</time>
      </trkpt>
      <trkpt lat="28.351732" lon="-16.593202">
        <ele>1410.603505</ele>
        <time>2021-03-01T23:05:16.992Z</time>
      </trkpt>
      <trkpt lat="28.351837" lon="-16.593134">
        <ele>1408.346225</ele>
        <time>2021-03-01T23:05:21.532Z</time>
      </trkpt>
      <trkpt lat="28.352047" lon="-16.59312"/>
      <trkpt lat="28.3522" lon="-16.593087"/>
      <trkpt lat="28.353086" lon="-16.592699">
        <ele>1386.348034</ele>
        <time>2021-03-01T23:06:10.929Z</time>
      </trkpt>
      <trkpt lat="28.353226" lon="-16.592737">
        <ele>1384.906662</ele>
        <time>2021-03-01T23:06:16.391Z</time>
      </trkpt>
      <trkpt lat="28.353632" lon="-16.59306"/>
      <trkpt lat="28.353767" lon="-16.593258">
        <ele>1377.736384</ele>
        <time>2021-03-01T23:06:44.821Z</time>
      </trkpt>
      <trkpt lat="28.353933" lon="-16.593655">
        <ele>1373.863009</ele>
        <time>2021-03-01T23:07:00.451Z</time>
      </trkpt>
      <trkpt lat="28.354213" lon="-16.593831">
        <ele>1370.674473</ele>
        <time>2021-03-01T23:07:13.438Z</time>
      </trkpt>
      <trkpt lat="28.354474" lon="-16.593923">
        <ele>1368.003839</ele>
        <time>2021-03-01T23:07:24.486Z</time>
      </trkpt>
      <trkpt lat="28.354995" lon="-16.594267">
        <ele>1362.115016</ele>
        <time>2021-03-01T23:07:48.743Z</time>
      </trkpt>
      <trkpt lat="28.355048" lon="-16.594387">
        <ele>1360.960285</ele>
        <time>2021-03-01T23:07:53.187Z</time>
      </trkpt>
      <trkpt lat="28.355002" lon="-16.594567">
        <ele>1359.348264</ele>
        <time>2021-03-01T23:08:00.528Z</time>
      </trkpt>
      <trkpt lat="28.355032" lon="-16.594713">
        <ele>1358.058834</ele>
        <time>2021-03-01T23:08:05.474Z</time>
      </trkpt>
      <trkpt lat="28.354964" lon="-16.594919">
        <ele>1356.166619</ele>
        <time>2021-03-01T23:08:13.583Z</time>
      </trkpt>
      <trkpt lat="28.354824" lon="-16.595094">
        <ele>1354.132603</ele>
        <time>2021-03-01T23:08:21.406Z</time>
      </trkpt>
      <trkpt lat="28.354837" lon="-16.595222">
        <ele>1352.709122</ele>
        <time>2021-03-01T23:08:26.741Z</time>
      </trkpt>
      <trkpt lat="28.355008" lon="-16.595218">
        <ele>1350.294786</ele>
        <time>2021-03-01T23:08:33.128Z</time>
      </trkpt>
      <trkpt lat="28.355342" lon="-16.595142">
        <ele>1345.486469</ele>
        <time>2021-03-01T23:08:46.021Z</time>
      </trkpt>
      <trkpt lat="28.355604" lon="-16.595139">
        <ele>1341.787907</ele>
        <time>2021-03-01T23:08:55.935Z</time>
      </trkpt>
      <trkpt lat="28.355812" lon="-16.595043">
        <ele>1338.618852</ele>
        <time>2021-03-01T23:09:04.354Z</time>
      </trkpt>
      <trkpt lat="28.355878" lon="-16.595094">
        <ele>1337.492202</ele>
        <time>2021-03-01T23:09:07.711Z</time>
      </trkpt>
      <trkpt lat="28.355816" lon="-16.595522">
        <ele>1332.103937</ele>
        <time>2021-03-01T23:09:22.115Z</time>
      </trkpt>
      <trkpt lat="28.355997" lon="-16.595642">
        <ele>1329.145892</ele>
        <time>2021-03-01T23:09:29.919Z</time>
      </trkpt>
      <trkpt lat="28.356201" lon="-16.595625">
        <ele>1325.870311</ele>
        <time>2021-03-01T23:09:37.624Z</time>
      </trkpt>
      <trkpt lat="28.356443" lon="-16.595711">
        <ele>1321.625018</ele>
        <time>2021-03-01T23:09:47.123Z</time>
      </trkpt>
      <trkpt lat="28.356498" lon="-16.595764">
        <ele>1320.417632</ele>
        <time>2021-03-01T23:09:49.829Z</time>
      </trkpt>
      <trkpt lat="28.356594" lon="-16.595857">
        <ele>1318.305509</ele>
        <time>2021-03-01T23:09:54.554Z</time>
      </trkpt>
      <trkpt lat="28.356511" lon="-16.596132">
        <ele>1314.022004</ele>
        <time>2021-03-01T23:10:04.157Z</time>
      </trkpt>
      <trkpt lat="28.356255" lon="-16.59641"/>
      <trkpt lat="28.35632" lon="-16.596494"/>
      <trkpt lat="28.356594" lon="-16.596535">
        <ele>1301.818130</ele>
        <time>2021-03-01T23:10:31.475Z</time>
      </trkpt>
      <trkpt lat="28.356919" lon="-16.596458">
        <ele>1295.974903</ele>
        <time>2021-03-01T23:10:43.910Z</time>
      </trkpt>
      <trkpt lat="28.357251" lon="-16.596501">
        <ele>1289.571662</ele>
        <time>2021-03-01T23:10:56.446Z</time>
      </trkpt>
      <trkpt lat="28.357599" lon="-16.596707">
        <ele>1282.052451</ele>
        <time>2021-03-01T23:11:11.098Z</time>
      </trkpt>
      <trkpt lat="28.357833" lon="-16.597205">
        <ele>1272.532374</ele>
        <time>2021-03-01T23:11:29.623Z</time>
      </trkpt>
      <trkpt lat="28.357825" lon="-16.597574">
        <ele>1266.307951</ele>
        <time>2021-03-01T23:11:41.731Z</time>
      </trkpt>
      <trkpt lat="28.357939" lon="-16.597685">
        <ele>1263.403125</ele>
        <time>2021-03-01T23:11:47.313Z</time>
      </trkpt>
      <trkpt lat="28.358242" lon="-16.59772"/>
      <trkpt lat="28.358837" lon="-16.597947">
        <ele>1244.030906</ele>
        <time>2021-03-01T23:12:21.982Z</time>
      </trkpt>
      <trkpt lat="28.358967" lon="-16.597819">
        <ele>1240.456327</ele>
        <time>2021-03-01T23:12:28.382Z</time>
      </trkpt>
      <trkpt lat="28.35914" lon="-16.597882"/>
      <trkpt lat="28.3593" lon="-16.598001"/>
      <trkpt lat="28.359459" lon="-16.598292">
        <ele>1226.443321</ele>
        <time>2021-03-01T23:12:53.451Z</time>
      </trkpt>
      <trkpt lat="28.359564" lon="-16.598317">
        <ele>1224.437055</ele>
        <time>2021-03-01T23:12:57.447Z</time>
      </trkpt>
      <trkpt lat="28.359668" lon="-16.598192">
        <ele>1221.614551</ele>
        <time>2021-03-01T23:13:03.121Z</time>
      </trkpt>
      <trkpt lat="28.359774" lon="-16.598184">
        <ele>1219.633795</ele>
        <time>2021-03-01T23:13:07.053Z</time>
      </trkpt>
      <trkpt lat="28.359908" lon="-16.598442">
        <ele>1214.718326</ele>
        <time>2021-03-01T23:13:16.886Z</time>
      </trkpt>
      <trkpt lat="28.360014" lon="-16.598436">
        <ele>1212.739474</ele>
        <time>2021-03-01T23:13:20.838Z</time>
      </trkpt>
      <trkpt lat="28.360061" lon="-16.598252">
        <ele>1209.595879</ele>
        <time>2021-03-01T23:13:27.211Z</time>
      </trkpt>
      <trkpt lat="28.360168" lon="-16.598222">
        <ele>1207.541007</ele>
        <time>2021-03-01T23:13:31.323Z</time>
      </trkpt>
      <trkpt lat="28.360303" lon="-16.598441">
        <ele>1203.153844</ele>
        <time>2021-03-01T23:13:40.102Z</time>
      </trkpt>
      <trkpt lat="28.360697" lon="-16.598768">
        <ele>1194.056975</ele>
        <time>2021-03-01T23:13:58.453Z</time>
      </trkpt>
      <trkpt lat="28.360737" lon="-16.598894">
        <ele>1191.732761</ele>
        <time>2021-03-01T23:14:02.864Z</time>
      </trkpt>
      <trkpt lat="28.360887" lon="-16.598701">
        <ele>1186.967895</ele>
        <time>2021-03-01T23:14:10.079Z</time>
      </trkpt>
      <trkpt lat="28.360925" lon="-16.598645">
        <ele>1185.659332</ele>
        <time>2021-03-01T23:14:12.039Z</time>
      </trkpt>
      <trkpt lat="28.360966" lon="-16.598707">
        <ele>1184.224214</ele>
        <time>2021-03-01T23:14:14.586Z</time>
      </trkpt>
      <trkpt lat="28.360991" lon="-16.599029">
        <ele>1178.242648</ele>
        <time>2021-03-01T23:14:25.309Z</time>
      </trkpt>
      <trkpt lat="28.360967" lon="-16.59908"/>
      <trkpt lat="28.361012" lon="-16.599086">
        <ele>1176.219683</ele>
        <time>2021-03-01T23:14:30.017Z</time>
      </trkpt>
      <trkpt lat="28.361141" lon="-16.599118">
        <ele>1173.443143</ele>
        <time>2021-03-01T23:14:34.980Z</time>
      </trkpt>
      <trkpt lat="28.361182" lon="-16.599128">
        <ele>1172.561344</ele>
        <time>2021-03-01T23:14:36.535Z</time>
      </trkpt>
      <trkpt lat="28.361407" lon="-16.599045">
        <ele>1167.586918</ele>
        <time>2021-03-01T23:14:45.307Z</time>
      </trkpt>
      <trkpt lat="28.361751" lon="-16.599015">
        <ele>1160.331879</ele>
        <time>2021-03-01T23:14:58.454Z</time>
      </trkpt>
      <trkpt lat="28.361884" lon="-16.599019">
        <ele>1157.534122</ele>
        <time>2021-03-01T23:15:03.400Z</time>
      </trkpt>
      <trkpt lat="28.362009" lon="-16.599026">
        <ele>1154.886000</ele>
        <time>2021-03-01T23:15:08.074Z</time>
      </trkpt>
      <trkpt lat="28.362053" lon="-16.599023">
        <ele>1153.836357</ele>
        <time>2021-03-01T23:15:10.158Z</time>
      </trkpt>
      <trkpt lat="28.362256" lon="-16.599032">
        <ele>1148.998701</ele>
        <time>2021-03-01T23:15:17.846Z</time>
      </trkpt>
      <trkpt lat="28.362391" lon="-16.599014">
        <ele>1145.761935</ele>
        <time>2021-03-01T23:15:22.907Z</time>
      </trkpt>
      <trkpt lat="28.36244" lon="-16.59899"/>
      <trkpt lat="28.362533" lon="-16.5988"/>
      <trkpt lat="28.362523" lon="-16.59869"/>
      <trkpt lat="28.362387" lon="-16.598462">
        <ele>1131.846582</ele>
        <time>2021-03-01T23:15:46.478Z</time>
      </trkpt>
      <trkpt lat="28.36241" lon="-16.598379"/>
      <trkpt lat="28.362501" lon="-16.598358">
        <ele>1127.811998</ele>
        <time>2021-03-01T23:15:53.627Z</time>
      </trkpt>
      <trkpt lat="28.362631" lon="-16.598296">
        <ele>1124.454785</ele>
        <time>2021-03-01T23:15:58.864Z</time>
      </trkpt>
      <trkpt lat="28.362822" lon="-16.598175">
        <ele>1119.247589</ele>
        <time>2021-03-01T23:16:07.117Z</time>
      </trkpt>
      <trkpt lat="28.36299" lon="-16.597991"/>
      <trkpt lat="28.363065" lon="-16.597909">
        <ele>1111.445752</ele>
        <time>2021-03-01T23:16:20.412Z</time>
      </trkpt>
      <trkpt lat="28.363113" lon="-16.59785"/>
      <trkpt lat="28.36394" lon="-16.597937"/>
      <trkpt lat="28.364331" lon="-16.597873">
        <ele>1087.884119</ele>
        <time>2021-03-01T23:17:09.141Z</time>
      </trkpt>
      <trkpt lat="28.364433" lon="-16.597831">
        <ele>1085.912181</ele>
        <time>2021-03-01T23:17:13.177Z</time>
      </trkpt>
      <trkpt lat="28.364598" lon="-16.597724">
        <ele>1082.459149</ele>
        <time>2021-03-01T23:17:20.329Z</time>
      </trkpt>
      <trkpt lat="28.364694" lon="-16.59766"/>
      <trkpt lat="28.364816" lon="-16.597592">
        <ele>1078.664720</ele>
        <time>2021-03-01T23:17:29.690Z</time>
      </trkpt>
      <trkpt lat="28.364993" lon="-16.59752"/>
      <trkpt lat="28.36536" lon="-16.597423"/>
      <trkpt lat="28.365847" lon="-16.597147">
        <ele>1067.670641</ele>
        <time>2021-03-01T23:18:12.121Z</time>
      </trkpt>
      <trkpt lat="28.365904" lon="-16.597133">
        <ele>1067.092519</ele>
        <time>2021-03-01T23:18:14.340Z</time>
      </trkpt>
      <trkpt lat="28.365933" lon="-16.597047">
        <ele>1066.289115</ele>
        <time>2021-03-01T23:18:17.334Z</time>
      </trkpt>
      <trkpt lat="28.36612" lon="-16.596799"/>
      <trkpt lat="28.366195" lon="-16.596769">
        <ele>1062.651863</ele>
        <time>2021-03-01T23:18:33.308Z</time>
      </trkpt>
      <trkpt lat="28.366233" lon="-16.596768">
        <ele>1062.275045</ele>
        <time>2021-03-01T23:18:37.006Z</time>
      </trkpt>
      <trkpt lat="28.366399" lon="-16.596784">
        <ele>1061.090619</ele>
        <time>2021-03-01T23:18:44.737Z</time>
      </trkpt>
      <trkpt lat="28.366507" lon="-16.596802">
        <ele>1060.490749</ele>
        <time>2021-03-01T23:18:49.093Z</time>
      </trkpt>
      <trkpt lat="28.366564" lon="-16.596853">
        <ele>1060.092069</ele>
        <time>2021-03-01T23:18:52.907Z</time>
      </trkpt>
      <trkpt lat="28.366615" lon="-16.597192">
        <ele>1058.428981</ele>
        <time>2021-03-01T23:19:06.203Z</time>
      </trkpt>
      <trkpt lat="28.366638" lon="-16.597345">
        <ele>1057.678400</ele>
        <time>2021-03-01T23:19:13.446Z</time>
      </trkpt>
      <trkpt lat="28.366787" lon="-16.597462">
        <ele>1056.683110</ele>
        <time>2021-03-01T23:19:21.530Z</time>
      </trkpt>
      <trkpt lat="28.366886" lon="-16.597717">
        <ele>1055.335320</ele>
        <time>2021-03-01T23:19:32.738Z</time>
      </trkpt>
      <trkpt lat="28.367042" lon="-16.597909">
        <ele>1054.071596</ele>
        <time>2021-03-01T23:19:42.059Z</time>
      </trkpt>
      <trkpt lat="28.367583" lon="-16.59893"/>
      <trkpt lat="28.367489" lon="-16.59911"/>
      <trkpt lat="28.367482" lon="-16.599158">
        <ele>1035.563959</ele>
        <time>2021-03-01T23:20:31.685Z</time>
      </trkpt>
      <trkpt lat="28.367532" lon="-16.599201">
        <ele>1034.381145</ele>
        <time>2021-03-01T23:20:34.529Z</time>
      </trkpt>
      <trkpt lat="28.367806" lon="-16.59931"/>
      <trkpt lat="28.368427" lon="-16.599849">
        <ele>1012.389815</ele>
        <time>2021-03-01T23:21:15.764Z</time>
      </trkpt>
      <trkpt lat="28.368599" lon="-16.599933">
        <ele>1007.160935</ele>
        <time>2021-03-01T23:21:23.097Z</time>
      </trkpt>
      <trkpt lat="28.368752" lon="-16.600054">
        <ele>1001.954663</ele>
        <time>2021-03-01T23:21:31.490Z</time>
      </trkpt>
      <trkpt lat="28.368839" lon="-16.600069">
        <ele>999.496882</ele>
        <time>2021-03-01T23:21:35.496Z</time>
      </trkpt>
      <trkpt lat="28.369215" lon="-16.600183">
        <ele>988.627613</ele>
        <time>2021-03-01T23:21:50.697Z</time>
      </trkpt>
      <trkpt lat="28.369685" lon="-16.600494">
        <ele>973.437173</ele>
        <time>2021-03-01T23:22:11.561Z</time>
      </trkpt>
      <trkpt lat="28.369777" lon="-16.600518">
        <ele>970.800716</ele>
        <time>2021-03-01T23:22:15.921Z</time>
      </trkpt>
      <trkpt lat="28.369887" lon="-16.600552">
        <ele>967.617488</ele>
        <time>2021-03-01T23:22:20.282Z</time>
      </trkpt>
      <trkpt lat="28.370093" lon="-16.600789">
        <ele>961.226521</ele>
        <time>2021-03-01T23:22:32.193Z</time>
      </trkpt>
      <trkpt lat="28.370263" lon="-16.601037">
        <ele>955.195487</ele>
        <time>2021-03-01T23:22:42.531Z</time>
      </trkpt>
      <trkpt lat="28.3706" lon="-16.601325"/>
      <trkpt lat="28.371185" lon="-16.601484">
        <ele>932.888161</ele>
        <time>2021-03-01T23:23:20.586Z</time>
      </trkpt>
      <trkpt lat="28.371917" lon="-16.602135">
        <ele>913.726367</ele>
        <time>2021-03-01T23:23:55.393Z</time>
      </trkpt>
      <trkpt lat="28.371961" lon="-16.602188">
        <ele>912.426221</ele>
        <time>2021-03-01T23:23:57.855Z</time>
      </trkpt>
      <trkpt lat="28.372053" lon="-16.602299">
        <ele>909.705375</ele>
        <time>2021-03-01T23:24:02.850Z</time>
      </trkpt>
      <trkpt lat="28.372173" lon="-16.602379">
        <ele>906.884211</ele>
        <time>2021-03-01T23:24:08.084Z</time>
      </trkpt>
      <trkpt lat="28.372483" lon="-16.602444">
        <ele>900.491816</ele>
        <time>2021-03-01T23:24:19.802Z</time>
      </trkpt>
      <trkpt lat="28.372596" lon="-16.602525">
        <ele>897.782663</ele>
        <time>2021-03-01T23:24:24.732Z</time>
      </trkpt>
      <trkpt lat="28.372716" lon="-16.602603">
        <ele>894.979388</ele>
        <time>2021-03-01T23:24:29.886Z</time>
      </trkpt>
      <trkpt lat="28.37321" lon="-16.602686"/>
      <trkpt lat="28.373694" lon="-16.602724">
        <ele>868.104750</ele>
        <time>2021-03-01T23:25:08.476Z</time>
      </trkpt>
      <trkpt lat="28.374391" lon="-16.601948">
        <ele>840.233604</ele>
        <time>2021-03-01T23:25:48.135Z</time>
      </trkpt>
      <trkpt lat="28.374532" lon="-16.6018"/>
      <trkpt lat="28.374588" lon="-16.601767">
        <ele>832.874249</ele>
        <time>2021-03-01T23:25:59.472Z</time>
      </trkpt>
      <trkpt lat="28.375339" lon="-16.601653">
        <ele>811.008816</ele>
        <time>2021-03-01T23:26:30.047Z</time>
      </trkpt>
      <trkpt lat="28.37571" lon="-16.601668"/>
      <trkpt lat="28.375911" lon="-16.601757">
        <ele>794.070137</ele>
        <time>2021-03-01T23:26:53.740Z</time>
      </trkpt>
      <trkpt lat="28.376038" lon="-16.60177"/>
      <trkpt lat="28.376666" lon="-16.60169"/>
      <trkpt lat="28.377012" lon="-16.601562">
        <ele>773.491558</ele>
        <time>2021-03-01T23:27:36.900Z</time>
      </trkpt>
      <trkpt lat="28.377085" lon="-16.60149"/>
      <trkpt lat="28.377449" lon="-16.601177">
        <ele>764.529004</ele>
        <time>2021-03-01T23:27:54.731Z</time>
      </trkpt>
      <trkpt lat="28.377581" lon="-16.601137">
        <ele>762.315295</ele>
        <time>2021-03-01T23:27:59.812Z</time>
      </trkpt>
      <trkpt lat="28.377684" lon="-16.601045">
        <ele>760.192507</ele>
        <time>2021-03-01T23:28:04.245Z</time>
      </trkpt>
      <trkpt lat="28.377784" lon="-16.600977">
        <ele>758.805211</ele>
        <time>2021-03-01T23:28:07.983Z</time>
      </trkpt>
      <trkpt lat="28.377784" lon="-16.600977">
        <ele>758.805211</ele>
        <time>2021-03-01T23:28:07.983Z</time>
      </trkpt>
      <trkpt lat="28.377801" lon="-16.600996">
        <ele>758.579958</ele>
        <time>2021-03-01T23:28:11.919Z</time>
      </trkpt>
      <trkpt lat="28.377953" lon="-16.601476">
        <ele>754.339462</ele>
        <time>2021-03-01T23:28:26.401Z</time>
      </trkpt>
      <trkpt lat="28.377972" lon="-16.601502">
        <ele>754.058516</ele>
        <time>2021-03-01T23:28:27.902Z</time>
      </trkpt>
      <trkpt lat="28.378123" lon="-16.601451">
        <ele>752.570263</ele>
        <time>2021-03-01T23:28:33.835Z</time>
      </trkpt>
      <trkpt lat="28.378135" lon="-16.601447">
        <ele>752.452116</ele>
        <time>2021-03-01T23:28:34.437Z</time>
      </trkpt>
      <trkpt lat="28.378537" lon="-16.601069">
        <ele>747.522911</ele>
        <time>2021-03-01T23:28:56.632Z</time>
      </trkpt>
      <trkpt lat="28.378696" lon="-16.600728">
        <ele>744.314966</ele>
        <time>2021-03-01T23:29:10.956Z</time>
      </trkpt>
      <trkpt lat="28.378744" lon="-16.600731">
        <ele>743.860793</ele>
        <time>2021-03-01T23:29:13.024Z</time>
      </trkpt>
      <trkpt lat="28.378844" lon="-16.600861">
        <ele>742.388952</ele>
        <time>2021-03-01T23:29:18.775Z</time>
      </trkpt>
      <trkpt lat="28.379147" lon="-16.601508">
        <ele>733.752671</ele>
        <time>2021-03-01T23:29:43.197Z</time>
      </trkpt>
      <trkpt lat="28.379335" lon="-16.601727">
        <ele>730.147403</ele>
        <time>2021-03-01T23:29:53.341Z</time>
      </trkpt>
      <trkpt lat="28.379667" lon="-16.602114">
        <ele>723.778507</ele>
        <time>2021-03-01T23:30:11.271Z</time>
      </trkpt>
      <trkpt lat="28.379713" lon="-16.602226">
        <ele>722.322115</ele>
        <time>2021-03-01T23:30:14.754Z</time>
      </trkpt>
      <trkpt lat="28.379773" lon="-16.603223">
        <ele>708.759278</ele>
        <time>2021-03-01T23:30:43.072Z</time>
      </trkpt>
      <trkpt lat="28.379912" lon="-16.603696">
        <ele>701.549710</ele>
        <time>2021-03-01T23:30:57.044Z</time>
      </trkpt>
      <trkpt lat="28.379957" lon="-16.604416">
        <ele>691.114382</ele>
        <time>2021-03-01T23:31:17.405Z</time>
      </trkpt>
      <trkpt lat="28.379997" lon="-16.604517">
        <ele>689.513103</ele>
        <time>2021-03-01T23:31:20.505Z</time>
      </trkpt>
      <trkpt lat="28.380029" lon="-16.604462">
        <ele>688.487576</ele>
        <time>2021-03-01T23:31:22.454Z</time>
      </trkpt>
      <trkpt lat="28.380089" lon="-16.604394">
        <ele>686.770333</ele>
        <time>2021-03-01T23:31:25.229Z</time>
      </trkpt>
      <trkpt lat="28.38012" lon="-16.604377"/>
      <trkpt lat="28.380329" lon="-16.604332">
        <ele>681.761609</ele>
        <time>2021-03-01T23:31:33.318Z</time>
      </trkpt>
      <trkpt lat="28.380633" lon="-16.604081">
        <ele>674.146407</ele>
        <time>2021-03-01T23:31:45.202Z</time>
      </trkpt>
      <trkpt lat="28.380786" lon="-16.604018">
        <ele>670.848339</ele>
        <time>2021-03-01T23:31:50.368Z</time>
      </trkpt>
      <trkpt lat="28.38092" lon="-16.604041"/>
      <trkpt lat="28.381091" lon="-16.604216">
        <ele>663.438295</ele>
        <time>2021-03-01T23:32:02.061Z</time>
      </trkpt>
      <trkpt lat="28.381171" lon="-16.604632">
        <ele>655.845449</ele>
        <time>2021-03-01T23:32:14.158Z</time>
      </trkpt>
      <trkpt lat="28.381215" lon="-16.604727">
        <ele>653.931115</ele>
        <time>2021-03-01T23:32:17.153Z</time>
      </trkpt>
      <trkpt lat="28.381296" lon="-16.604766">
        <ele>652.143465</ele>
        <time>2021-03-01T23:32:19.932Z</time>
      </trkpt>
      <trkpt lat="28.381625" lon="-16.604795">
        <ele>645.335729</ele>
        <time>2021-03-01T23:32:30.381Z</time>
      </trkpt>
      <trkpt lat="28.382021" lon="-16.604588">
        <ele>636.343606</ele>
        <time>2021-03-01T23:32:44.215Z</time>
      </trkpt>
      <trkpt lat="28.382325" lon="-16.604534">
        <ele>629.995881</ele>
        <time>2021-03-01T23:32:53.933Z</time>
      </trkpt>
      <trkpt lat="28.382381" lon="-16.604553">
        <ele>628.790215</ele>
        <time>2021-03-01T23:32:55.949Z</time>
      </trkpt>
      <trkpt lat="28.382441" lon="-16.604589">
        <ele>627.390523</ele>
        <time>2021-03-01T23:32:58.092Z</time>
      </trkpt>
      <trkpt lat="28.383018" lon="-16.605041">
        <ele>612.761130</ele>
        <time>2021-03-01T23:33:20.248Z</time>
      </trkpt>
      <trkpt lat="28.383291" lon="-16.60506"/>
      <trkpt lat="28.383549" lon="-16.605147">
        <ele>600.753968</ele>
        <time>2021-03-01T23:33:37.485Z</time>
      </trkpt>
      <trkpt lat="28.383635" lon="-16.605141">
        <ele>598.847388</ele>
        <time>2021-03-01T23:33:40.428Z</time>
      </trkpt>
      <trkpt lat="28.383771" lon="-16.605117">
        <ele>595.801942</ele>
        <time>2021-03-01T23:33:44.932Z</time>
      </trkpt>
      <trkpt lat="28.38384" lon="-16.605101"/>
      <trkpt lat="28.383902" lon="-16.605049">
        <ele>592.538681</ele>
        <time>2021-03-01T23:33:49.603Z</time>
      </trkpt>
      <trkpt lat="28.383918" lon="-16.604975">
        <ele>591.055202</ele>
        <time>2021-03-01T23:33:51.905Z</time>
      </trkpt>
      <trkpt lat="28.383971" lon="-16.60489"/>
      <trkpt lat="28.384088" lon="-16.604823">
        <ele>586.128026</ele>
        <time>2021-03-01T23:33:59.002Z</time>
      </trkpt>
      <trkpt lat="28.38427" lon="-16.604688"/>
      <trkpt lat="28.384648" lon="-16.604502">
        <ele>573.386999</ele>
        <time>2021-03-01T23:34:18.973Z</time>
      </trkpt>
      <trkpt lat="28.384559" lon="-16.604405">
        <ele>571.634701</ele>
        <time>2021-03-01T23:34:22.910Z</time>
      </trkpt>
      <trkpt lat="28.384567" lon="-16.60433"/>
      <trkpt lat="28.38469" lon="-16.604202"/>
      <trkpt lat="28.384614" lon="-16.603977">
        <ele>565.306851</ele>
        <time>2021-03-01T23:34:37.115Z</time>
      </trkpt>
      <trkpt lat="28.384531" lon="-16.603873">
        <ele>563.551271</ele>
        <time>2021-03-01T23:34:41.066Z</time>
      </trkpt>
      <trkpt lat="28.384606" lon="-16.603892">
        <ele>562.459271</ele>
        <time>2021-03-01T23:34:43.544Z</time>
      </trkpt>
      <trkpt lat="28.384822" lon="-16.603965">
        <ele>559.256813</ele>
        <time>2021-03-01T23:34:50.819Z</time>
      </trkpt>
      <trkpt lat="28.385075" lon="-16.604204">
        <ele>554.581729</ele>
        <time>2021-03-01T23:35:01.400Z</time>
      </trkpt>
      <trkpt lat="28.385124" lon="-16.60425"/>
      <trkpt lat="28.385266" lon="-16.604523">
        <ele>549.800684</ele>
        <time>2021-03-01T23:35:12.851Z</time>
      </trkpt>
      <trkpt lat="28.38567" lon="-16.605016"/>
      <trkpt lat="28.385701" lon="-16.60523"/>
      <trkpt lat="28.385726" lon="-16.60533"/>
      <trkpt lat="28.385772" lon="-16.605171">
        <ele>540.666312</ele>
        <time>2021-03-01T23:35:49.332Z</time>
      </trkpt>
      <trkpt lat="28.38578" lon="-16.604943"/>
      <trkpt lat="28.38571" lon="-16.604673"/>
      <trkpt lat="28.385534" lon="-16.604349">
        <ele>533.694287</ele>
        <time>2021-03-01T23:36:14.975Z</time>
      </trkpt>
      <trkpt lat="28.385371" lon="-16.604049">
        <ele>531.290690</ele>
        <time>2021-03-01T23:36:25.002Z</time>
      </trkpt>
      <trkpt lat="28.385279" lon="-16.60393"/>
      <trkpt lat="28.385216" lon="-16.603735">
        <ele>528.794715</ele>
        <time>2021-03-01T23:36:35.643Z</time>
      </trkpt>
      <trkpt lat="28.385175" lon="-16.603675">
        <ele>528.276826</ele>
        <time>2021-03-01T23:36:38.232Z</time>
      </trkpt>
      <trkpt lat="28.385125" lon="-16.603641">
        <ele>527.825372</ele>
        <time>2021-03-01T23:36:40.074Z</time>
      </trkpt>
      <trkpt lat="28.385143" lon="-16.603599">
        <ele>527.506902</ele>
        <time>2021-03-01T23:36:41.401Z</time>
      </trkpt>
      <trkpt lat="28.385156" lon="-16.603563">
        <ele>527.241630</ele>
        <time>2021-03-01T23:36:42.490Z</time>
      </trkpt>
      <trkpt lat="28.385124" lon="-16.603548">
        <ele>526.973425</ele>
        <time>2021-03-01T23:36:43.646Z</time>
      </trkpt>
      <trkpt lat="28.384887" lon="-16.603492">
        <ele>525.097805</ele>
        <time>2021-03-01T23:36:52.606Z</time>
      </trkpt>
      <trkpt lat="28.384835" lon="-16.603524">
        <ele>524.639630</ele>
        <time>2021-03-01T23:36:54.485Z</time>
      </trkpt>
      <trkpt lat="28.3848" lon="-16.603507"/>
      <trkpt lat="28.384762" lon="-16.603487">
        <ele>524.020244</ele>
        <time>2021-03-01T23:36:57.228Z</time>
      </trkpt>
      <trkpt lat="28.384278" lon="-16.603306">
        <ele>520.072278</ele>
        <time>2021-03-01T23:37:16.787Z</time>
      </trkpt>
      <trkpt lat="28.384077" lon="-16.603177">
        <ele>519.695582</ele>
        <time>2021-03-01T23:37:24.761Z</time>
      </trkpt>
      <trkpt lat="28.383935" lon="-16.603079">
        <ele>519.505553</ele>
        <time>2021-03-01T23:37:33.265Z</time>
      </trkpt>
      <trkpt lat="28.383726" lon="-16.602956">
        <ele>519.236336</ele>
        <time>2021-03-01T23:37:41.601Z</time>
      </trkpt>
      <trkpt lat="28.38284" lon="-16.602788"/>
      <trkpt lat="28.382704" lon="-16.602657">
        <ele>518.004929</ele>
        <time>2021-03-01T23:38:26.980Z</time>
      </trkpt>
      <trkpt lat="28.38268" lon="-16.602503"/>
      <trkpt lat="28.382688" lon="-16.602441">
        <ele>517.624754</ele>
        <time>2021-03-01T23:38:38.109Z</time>
      </trkpt>
      <trkpt lat="28.382707" lon="-16.602378">
        <ele>517.448716</ele>
        <time>2021-03-01T23:38:40.121Z</time>
      </trkpt>
      <trkpt lat="28.382835" lon="-16.602106">
        <ele>516.633360</ele>
        <time>2021-03-01T23:38:52.027Z</time>
      </trkpt>
      <trkpt lat="28.382802" lon="-16.601872">
        <ele>516.006941</ele>
        <time>2021-03-01T23:38:59.457Z</time>
      </trkpt>
      <trkpt lat="28.382722" lon="-16.601752">
        <ele>515.608971</ele>
        <time>2021-03-01T23:39:05.269Z</time>
      </trkpt>
      <trkpt lat="28.382536" lon="-16.601604">
        <ele>514.926826</ele>
        <time>2021-03-01T23:39:13.630Z</time>
      </trkpt>
      <trkpt lat="28.381915" lon="-16.601443">
        <ele>513.013162</ele>
        <time>2021-03-01T23:39:38.551Z</time>
      </trkpt>
      <trkpt lat="28.381677" lon="-16.601287">
        <ele>511.412676</ele>
        <time>2021-03-01T23:39:48.422Z</time>
      </trkpt>
      <trkpt lat="28.381092" lon="-16.60036"/>
      <trkpt lat="28.380899" lon="-16.600091">
        <ele>497.006397</ele>
        <time>2021-03-01T23:40:33.140Z</time>
      </trkpt>
      <trkpt lat="28.380899" lon="-16.600091">
        <ele>497.006397</ele>
        <time>2021-03-01T23:40:33.140Z</time>
      </trkpt>
      <trkpt lat="28.380899" lon="-16.600091">
        <ele>497.006397</ele>
        <time>2021-03-01T23:40:33.140Z</time>
      </trkpt>
      <trkpt lat="28.380912" lon="-16.600081">
        <ele>496.833649</ele>
        <time>2021-03-01T23:40:34.888Z</time>
      </trkpt>
      <trkpt lat="28.381076" lon="-16.600244">
        <ele>494.436140</ele>
        <time>2021-03-01T23:40:43.155Z</time>
      </trkpt>
      <trkpt lat="28.381031" lon="-16.599996">
        <ele>490.991464</ele>
        <time>2021-03-01T23:40:51.464Z</time>
      </trkpt>
      <trkpt lat="28.381222" lon="-16.600131">
        <ele>485.007299</ele>
        <time>2021-03-01T23:40:59.909Z</time>
      </trkpt>
      <trkpt lat="28.381294" lon="-16.600096">
        <ele>482.923826</ele>
        <time>2021-03-01T23:41:03.730Z</time>
      </trkpt>
      <trkpt lat="28.381209" lon="-16.599807">
        <ele>475.790903</ele>
        <time>2021-03-01T23:41:13.746Z</time>
      </trkpt>
      <trkpt lat="28.381383" lon="-16.599922">
        <ele>470.435705</ele>
        <time>2021-03-01T23:41:22.222Z</time>
      </trkpt>
      <trkpt lat="28.38142" lon="-16.599908"/>
      <trkpt lat="28.381451" lon="-16.599896">
        <ele>468.526864</ele>
        <time>2021-03-01T23:41:24.943Z</time>
      </trkpt>
      <trkpt lat="28.381366" lon="-16.599565">
        <ele>460.455515</ele>
        <time>2021-03-01T23:41:37.825Z</time>
      </trkpt>
      <trkpt lat="28.38137" lon="-16.598826"/>
      <trkpt lat="28.381407" lon="-16.598563">
        <ele>437.409541</ele>
        <time>2021-03-01T23:42:13.731Z</time>
      </trkpt>
      <trkpt lat="28.381552" lon="-16.598272">
        <ele>430.063690</ele>
        <time>2021-03-01T23:42:25.359Z</time>
      </trkpt>
      <trkpt lat="28.381278" lon="-16.598037">
        <ele>421.493957</ele>
        <time>2021-03-01T23:42:38.489Z</time>
      </trkpt>
      <trkpt lat="28.381267" lon="-16.597917">
        <ele>418.843847</ele>
        <time>2021-03-01T23:42:42.505Z</time>
      </trkpt>
      <trkpt lat="28.381287" lon="-16.597798">
        <ele>416.182706</ele>
        <time>2021-03-01T23:42:46.537Z</time>
      </trkpt>
      <trkpt lat="28.381394" lon="-16.597913">
        <ele>412.506156</ele>
        <time>2021-03-01T23:42:52.029Z</time>
      </trkpt>
      <trkpt lat="28.381585" lon="-16.597957">
        <ele>407.640660</ele>
        <time>2021-03-01T23:42:59.272Z</time>
      </trkpt>
      <trkpt lat="28.38149" lon="-16.597806"/>
      <trkpt lat="28.381405" lon="-16.596934">
        <ele>385.538870</ele>
        <time>2021-03-01T23:43:34.165Z</time>
      </trkpt>
      <trkpt lat="28.381302" lon="-16.596712">
        <ele>380.465703</ele>
        <time>2021-03-01T23:43:42.482Z</time>
      </trkpt>
      <trkpt lat="28.380954" lon="-16.596537">
        <ele>371.722771</ele>
        <time>2021-03-01T23:43:56.727Z</time>
      </trkpt>
      <trkpt lat="28.380919" lon="-16.596392">
        <ele>368.683476</ele>
        <time>2021-03-01T23:44:01.674Z</time>
      </trkpt>
      <trkpt lat="28.380939" lon="-16.596393">
        <ele>368.223528</ele>
        <time>2021-03-01T23:44:02.920Z</time>
      </trkpt>
      <trkpt lat="28.381067" lon="-16.596467">
        <ele>364.924152</ele>
        <time>2021-03-01T23:44:08.286Z</time>
      </trkpt>
      <trkpt lat="28.3811" lon="-16.596342"/>
      <trkpt lat="28.381227" lon="-16.596153">
        <ele>357.486705</ele>
        <time>2021-03-01T23:44:20.849Z</time>
      </trkpt>
      <trkpt lat="28.381335" lon="-16.596003">
        <ele>353.595868</ele>
        <time>2021-03-01T23:44:27.209Z</time>
      </trkpt>
      <trkpt lat="28.381509" lon="-16.595827">
        <ele>348.281443</ele>
        <time>2021-03-01T23:44:35.977Z</time>
      </trkpt>
      <trkpt lat="28.38182" lon="-16.595559"/>
      <trkpt lat="28.382196" lon="-16.595353">
        <ele>329.853267</ele>
        <time>2021-03-01T23:45:06.565Z</time>
      </trkpt>
      <trkpt lat="28.38223" lon="-16.595303"/>
      <trkpt lat="28.382316" lon="-16.595315">
        <ele>326.607809</ele>
        <time>2021-03-01T23:45:11.819Z</time>
      </trkpt>
      <trkpt lat="28.382507" lon="-16.59546"/>
      <trkpt lat="28.382754" lon="-16.595478">
        <ele>316.648501</ele>
        <time>2021-03-01T23:45:26.954Z</time>
      </trkpt>
      <trkpt lat="28.382884" lon="-16.595608">
        <ele>314.688583</ele>
        <time>2021-03-01T23:45:32.424Z</time>
      </trkpt>
      <trkpt lat="28.38314" lon="-16.595431"/>
      <trkpt lat="28.383251" lon="-16.595384">
        <ele>309.956112</ele>
        <time>2021-03-01T23:45:45.865Z</time>
      </trkpt>
      <trkpt lat="28.383631" lon="-16.595256">
        <ele>305.469934</ele>
        <time>2021-03-01T23:45:58.745Z</time>
      </trkpt>
      <trkpt lat="28.383676" lon="-16.595452">
        <ele>303.452718</ele>
        <time>2021-03-01T23:46:05.136Z</time>
      </trkpt>
      <trkpt lat="28.383908" lon="-16.595948">
        <ele>297.858665</ele>
        <time>2021-03-01T23:46:22.420Z</time>
      </trkpt>
      <trkpt lat="28.384263" lon="-16.596709">
        <ele>292.765048</ele>
        <time>2021-03-01T23:46:50.223Z</time>
      </trkpt>
      <trkpt lat="28.384481" lon="-16.597003">
        <ele>290.619988</ele>
        <time>2021-03-01T23:47:03.309Z</time>
      </trkpt>
      <trkpt lat="28.384789" lon="-16.597297">
        <ele>288.069519</ele>
        <time>2021-03-01T23:47:17.440Z</time>
      </trkpt>
      <trkpt lat="28.384844" lon="-16.597382">
        <ele>287.480867</ele>
        <time>2021-03-01T23:47:20.667Z</time>
      </trkpt>
      <trkpt lat="28.385175" lon="-16.598181">
        <ele>278.425537</ele>
        <time>2021-03-01T23:47:46.241Z</time>
      </trkpt>
      <trkpt lat="28.38521" lon="-16.598286"/>
      <trkpt lat="28.385504" lon="-16.598183">
        <ele>272.568214</ele>
        <time>2021-03-01T23:47:59.355Z</time>
      </trkpt>
      <trkpt lat="28.387323" lon="-16.597744">
        <ele>242.777967</ele>
        <time>2021-03-01T23:48:58.393Z</time>
      </trkpt>
      <trkpt lat="28.388073" lon="-16.598262">
        <ele>227.615096</ele>
        <time>2021-03-01T23:49:26.310Z</time>
      </trkpt>
      <trkpt lat="28.388438" lon="-16.598598">
        <ele>220.761904</ele>
        <time>2021-03-01T23:49:41.327Z</time>
      </trkpt>
      <trkpt lat="28.388566" lon="-16.598707">
        <ele>218.428267</ele>
        <time>2021-03-01T23:49:46.459Z</time>
      </trkpt>
      <trkpt lat="28.388652" lon="-16.598791">
        <ele>216.773799</ele>
        <time>2021-03-01T23:49:50.097Z</time>
      </trkpt>
      <trkpt lat="28.388874" lon="-16.598816">
        <ele>213.518710</ele>
        <time>2021-03-01T23:49:57.249Z</time>
      </trkpt>
      <trkpt lat="28.388883" lon="-16.598934">
        <ele>211.998332</ele>
        <time>2021-03-01T23:50:00.584Z</time>
      </trkpt>
      <trkpt lat="28.388537" lon="-16.599139">
        <ele>206.305152</ele>
        <time>2021-03-01T23:50:13.094Z</time>
      </trkpt>
      <trkpt lat="28.388449" lon="-16.599319">
        <ele>203.661781</ele>
        <time>2021-03-01T23:50:18.927Z</time>
      </trkpt>
      <trkpt lat="28.388812" lon="-16.599691">
        <ele>196.898385</ele>
        <time>2021-03-01T23:50:34.627Z</time>
      </trkpt>
      <trkpt lat="28.388872" lon="-16.599705">
        <ele>196.062512</ele>
        <time>2021-03-01T23:50:36.591Z</time>
      </trkpt>
      <trkpt lat="28.389059" lon="-16.599563">
        <ele>192.993533</ele>
        <time>2021-03-01T23:50:43.815Z</time>
      </trkpt>
      <trkpt lat="28.389394" lon="-16.599562">
        <ele>188.421881</ele>
        <time>2021-03-01T23:50:54.572Z</time>
      </trkpt>
      <trkpt lat="28.389986" lon="-16.599298">
        <ele>179.743582</ele>
        <time>2021-03-01T23:51:14.936Z</time>
      </trkpt>
      <trkpt lat="28.390316" lon="-16.5994"/>
      <trkpt lat="28.391288" lon="-16.599505">
        <ele>160.853266</ele>
        <time>2021-03-01T23:51:57.072Z</time>
      </trkpt>
      <trkpt lat="28.391677" lon="-16.599416">
        <ele>155.132385</ele>
        <time>2021-03-01T23:52:09.714Z</time>
      </trkpt>
      <trkpt lat="28.392619" lon="-16.599093">
        <ele>144.171774</ele>
        <time>2021-03-01T23:52:41.401Z</time>
      </trkpt>
      <trkpt lat="28.392764" lon="-16.5991"/>
      <trkpt lat="28.392847" lon="-16.599057">
        <ele>141.782706</ele>
        <time>2021-03-01T23:52:49.914Z</time>
      </trkpt>
      <trkpt lat="28.392855" lon="-16.598972">
        <ele>141.022533</ele>
        <time>2021-03-01T23:52:53.244Z</time>
      </trkpt>
      <trkpt lat="28.39304" lon="-16.598878"/>
      <trkpt lat="28.392991" lon="-16.59876"/>
      <trkpt lat="28.392928" lon="-16.598762">
        <ele>137.176744</ele>
        <time>2021-03-01T23:53:08.938Z</time>
      </trkpt>
      <trkpt lat="28.392926" lon="-16.598683">
        <ele>136.473950</ele>
        <time>2021-03-01T23:53:11.589Z</time>
      </trkpt>
      <trkpt lat="28.393002" lon="-16.598613">
        <ele>135.485181</ele>
        <time>2021-03-01T23:53:15.314Z</time>
      </trkpt>
      <trkpt lat="28.393002" lon="-16.598542">
        <ele>134.853817</ele>
        <time>2021-03-01T23:53:18.315Z</time>
      </trkpt>
      <trkpt lat="28.392916" lon="-16.598579">
        <ele>133.924312</ele>
        <time>2021-03-01T23:53:22.562Z</time>
      </trkpt>
      <trkpt lat="28.392948" lon="-16.598361">
        <ele>132.365521</ele>
        <time>2021-03-01T23:53:29.971Z</time>
      </trkpt>
      <trkpt lat="28.393111" lon="-16.598186">
        <ele>130.676131</ele>
        <time>2021-03-01T23:53:40.098Z</time>
      </trkpt>
      <trkpt lat="28.393201" lon="-16.598188">
        <ele>129.997859</ele>
        <time>2021-03-01T23:53:43.469Z</time>
      </trkpt>
      <trkpt lat="28.393229" lon="-16.598081">
        <ele>129.257894</ele>
        <time>2021-03-01T23:53:47.536Z</time>
      </trkpt>
      <trkpt lat="28.393309" lon="-16.598059">
        <ele>128.637712</ele>
        <time>2021-03-01T23:53:51.508Z</time>
      </trkpt>
      <trkpt lat="28.393409" lon="-16.597899">
        <ele>127.336736</ele>
        <time>2021-03-01T23:53:58.530Z</time>
      </trkpt>
      <trkpt lat="28.393321" lon="-16.597745">
        <ele>126.119494</ele>
        <time>2021-03-01T23:54:06.105Z</time>
      </trkpt>
      <trkpt lat="28.393165" lon="-16.597685">
        <ele>124.878587</ele>
        <time>2021-03-01T23:54:12.753Z</time>
      </trkpt>
      <trkpt lat="28.393105" lon="-16.597608">
        <ele>124.196756</ele>
        <time>2021-03-01T23:54:16.338Z</time>
      </trkpt>
      <trkpt lat="28.393111" lon="-16.597507">
        <ele>123.525751</ele>
        <time>2021-03-01T23:54:20.112Z</time>
      </trkpt>
      <trkpt lat="28.393316" lon="-16.59764"/>
      <trkpt lat="28.393456" lon="-16.597565">
        <ele>120.581055</ele>
        <time>2021-03-01T23:54:33.105Z</time>
      </trkpt>
      <trkpt lat="28.393608" lon="-16.597512">
        <ele>118.934575</ele>
        <time>2021-03-01T23:54:38.298Z</time>
      </trkpt>
      <trkpt lat="28.39385" lon="-16.597467"/>
      <trkpt lat="28.393981" lon="-16.597428">
        <ele>113.992402</ele>
        <time>2021-03-01T23:54:50.655Z</time>
      </trkpt>
      <trkpt lat="28.394182" lon="-16.597291">
        <ele>110.949431</ele>
        <time>2021-03-01T23:54:58.208Z</time>
      </trkpt>
      <trkpt lat="28.394248" lon="-16.597273">
        <ele>110.068167</ele>
        <time>2021-03-01T23:55:00.366Z</time>
      </trkpt>
      <trkpt lat="28.394307" lon="-16.597292">
        <ele>109.271962</ele>
        <time>2021-03-01T23:55:02.328Z</time>
      </trkpt>
      <trkpt lat="28.394337" lon="-16.597318">
        <ele>108.782146</ele>
        <time>2021-03-01T23:55:03.580Z</time>
      </trkpt>
      <trkpt lat="28.394365" lon="-16.597374">
        <ele>108.046415</ele>
        <time>2021-03-01T23:55:05.415Z</time>
      </trkpt>
      <trkpt lat="28.394393" lon="-16.59746"/>
      <trkpt lat="28.394365" lon="-16.597729">
        <ele>103.905054</ele>
        <time>2021-03-01T23:55:15.645Z</time>
      </trkpt>
      <trkpt lat="28.3942" lon="-16.59796"/>
      <trkpt lat="28.394171" lon="-16.598185">
        <ele>97.908938</ele>
        <time>2021-03-01T23:55:30.438Z</time>
      </trkpt>
      <trkpt lat="28.395019" lon="-16.599442">
        <ele>79.894839</ele>
        <time>2021-03-01T23:56:15.205Z</time>
      </trkpt>
      <trkpt lat="28.395118" lon="-16.599791">
        <ele>75.726156</ele>
        <time>2021-03-01T23:56:25.665Z</time>
      </trkpt>
      <trkpt lat="28.395087" lon="-16.599944">
        <ele>73.941281</ele>
        <time>2021-03-01T23:56:30.259Z</time>
      </trkpt>
      <trkpt lat="28.394872" lon="-16.600319">
        <ele>71.112882</ele>
        <time>2021-03-01T23:56:43.445Z</time>
      </trkpt>
      <trkpt lat="28.394672" lon="-16.600859">
        <ele>67.758582</ele>
        <time>2021-03-01T23:57:01.390Z</time>
      </trkpt>
      <trkpt lat="28.394335" lon="-16.601502">
        <ele>63.473624</ele>
        <time>2021-03-01T23:57:25.414Z</time>
      </trkpt>
      <trkpt lat="28.393818" lon="-16.602142">
        <ele>61.700365</ele>
        <time>2021-03-01T23:57:54.714Z</time>
      </trkpt>
      <trkpt lat="28.393712" lon="-16.60236"/>
      <trkpt lat="28.393625" lon="-16.602942">
        <ele>61.700365</ele>
        <time>2021-03-01T23:58:22.562Z</time>
      </trkpt>
      <trkpt lat="28.393554" lon="-16.60353"/>
      <trkpt lat="28.393612" lon="-16.603643">
        <ele>61.700365</ele>
        <time>2021-03-01T23:58:46.807Z</time>
      </trkpt>
      <trkpt lat="28.393675" lon="-16.60362"/>
      <trkpt lat="28.393693" lon="-16.603589">
        <ele>61.700365</ele>
        <time>2021-03-01T23:58:50.500Z</time>
      </trkpt>
      <trkpt lat="28.393693" lon="-16.603589">
        <ele>61.700365</ele>
        <time>2021-03-01T23:58:50.500Z</time>
      </trkpt>
    </trkseg>
  </trk>
</gpx>
